Darstellungsparameter: Aktuell verwendete Einstellungen:
Skalierung der Graphiken ... ?
xyx+y,   Skalierungsfaktor:      Skalierung: Modus: x, Faktor: 1
Darstellungszeitraum ... ?
Vom - - bis: - -   Zeitraum: 15.01.2017 - 14.07.2017
Min/Max/Avg-Anzeige ... ?
Zeige MMA aktuell
Zeige MMA Monat
Zeige MMA alles
Zeige --A aktuell
Zeige --A Monat
Zeige --A alles
Keine MMA-Anzeige
MMA:
Minimum Maximum Average (ber die Originaldaten)
MMA-Basis: 15.01.2017 - 14.07.2017
Quicknavigation für Darstellung... ?
Tage:      1T, 2T, 3T, 5T -1T -2T -3T -5T +1T +2T +3T +5T
Wochen: 1W, 2W, 3W -1W -2W -3W +1W +2W +3W
Monate: 1M, 3M, 6M -1M -3M -6M +1M +3M +6M
Jahre:    1J, 3J, 5J, 10J -1J -3J -5J -10J +1J +3J +5J +10J
Nutze für die Darstellung ... ?
Originaldaten oder Mittelwerte auf ...
Stundenbasis Tagesbasis Wochenbasis
Monatsbasis Jahresbasis      Datenbasis: Original-Daten
Darstellen als:
Statistik (Auto) Statistik J:M      Darstellung:
Zur Graphik,    zurück zur Übersicht aller Sensoren.
 
Tabellarische Datenbersicht: ?
 
Sensor: Nr:Datum:Temp:Abs-Feuchte:Windchill:Wind:
Aussen-T/F 1 15-01-2017 00:00:00 1.3 C 4.93 g/m*3 1.3 C 0 km/h
2 15-01-2017 00:05:00 1.3 C 4.93 g/m*3 1.3 C 0 km/h
3 15-01-2017 00:10:00 1.3 C 4.93 g/m*3 1.3 C 0 km/h
4 15-01-2017 00:15:00 1.3 C 4.93 g/m*3 1.3 C 1.6 km/h
5 15-01-2017 00:20:00 1.3 C 4.93 g/m*3 1.3 C 1.6 km/h
6 15-01-2017 00:25:00 1.3 C 4.93 g/m*3 1.3 C 1.6 km/h
7 15-01-2017 00:30:00 1.3 C 4.93 g/m*3 1.3 C 0 km/h
8 15-01-2017 00:35:00 1.3 C 4.93 g/m*3 1.3 C 0 km/h
9 15-01-2017 00:40:00 1.3 C 4.93 g/m*3 1.3 C 0 km/h
10 15-01-2017 00:45:00 1.3 C 4.93 g/m*3 1.3 C 0 km/h
11 15-01-2017 00:50:00 1.3 C 4.93 g/m*3 1.3 C 1.6 km/h
12 15-01-2017 00:55:00 1.3 C 4.93 g/m*3 1.3 C 4.8 km/h
13 15-01-2017 01:00:00 1.3 C 4.93 g/m*3 1.3 C 0 km/h
14 15-01-2017 01:05:00 1.3 C 4.93 g/m*3 1.3 C 0 km/h
15 15-01-2017 01:10:00 1.3 C 4.87 g/m*3 1.3 C 0 km/h
16 15-01-2017 01:15:00 1.4 C 4.91 g/m*3 1.4 C 0 km/h
17 15-01-2017 01:20:00 1.4 C 4.85 g/m*3 1.4 C 3.2 km/h
18 15-01-2017 01:25:00 1.6 C 4.92 g/m*3 1.6 C 0 km/h
19 15-01-2017 01:30:00 1.6 C 4.92 g/m*3 1.6 C 3.2 km/h
20 15-01-2017 01:35:00 1.6 C 4.87 g/m*3 1.6 C 3.2 km/h
21 15-01-2017 01:40:00 1.7 C 4.9 g/m*3 1.7 C 4.8 km/h
22 15-01-2017 01:45:00 1.7 C 4.9 g/m*3 1.7 C 4.8 km/h
23 15-01-2017 01:50:00 1.7 C 4.85 g/m*3 1.7 C 0 km/h
24 15-01-2017 01:55:00 1.7 C 4.85 g/m*3 1.7 C 0 km/h
25 15-01-2017 02:00:00 1.7 C 4.9 g/m*3 1.7 C 1.6 km/h
Sensor: Nr:Datum:Temp:Abs-Feuchte:Windchill:Wind:
Aussen-T/F 26 15-01-2017 02:05:00 1.7 C 4.85 g/m*3 1.7 C 4.8 km/h
27 15-01-2017 02:10:00 1.7 C 4.85 g/m*3 1.7 C 1.6 km/h
28 15-01-2017 02:15:00 1.7 C 4.85 g/m*3 1.7 C 1.6 km/h
29 15-01-2017 02:20:00 1.7 C 4.9 g/m*3 1.7 C 0 km/h
30 15-01-2017 02:25:00 1.6 C 4.87 g/m*3 1.6 C 3.2 km/h
31 15-01-2017 02:30:00 1.6 C 4.81 g/m*3 1.6 C 4.8 km/h
32 15-01-2017 02:35:00 1.7 C 4.85 g/m*3 1.7 C 0 km/h
33 15-01-2017 02:40:00 1.7 C 4.85 g/m*3 1.7 C 0 km/h
34 15-01-2017 02:45:00 1.7 C 4.85 g/m*3 1.7 C 0 km/h
35 15-01-2017 02:50:00 1.6 C 4.81 g/m*3 1.6 C 0 km/h
36 15-01-2017 02:55:00 1.6 C 4.81 g/m*3 1.6 C 0 km/h
37 15-01-2017 03:00:00 1.6 C 4.87 g/m*3 1.6 C 0 km/h
38 15-01-2017 03:05:00 1.6 C 4.81 g/m*3 1.6 C 3.2 km/h
39 15-01-2017 03:10:00 1.5 C 4.78 g/m*3 1.5 C 3.2 km/h
40 15-01-2017 03:15:00 1.5 C 4.78 g/m*3 1.5 C 3.2 km/h
41 15-01-2017 03:20:00 1.5 C 4.78 g/m*3 1.5 C 3.2 km/h
42 15-01-2017 03:25:00 1.4 C 4.75 g/m*3 1.4 C 1.6 km/h
43 15-01-2017 03:30:00 1.4 C 4.75 g/m*3 1.4 C 0 km/h
44 15-01-2017 03:35:00 1.4 C 4.75 g/m*3 1.4 C 0 km/h
45 15-01-2017 03:40:00 1.4 C 4.75 g/m*3 1.4 C 1.6 km/h
46 15-01-2017 03:45:00 1.4 C 4.75 g/m*3 1.4 C 1.6 km/h
47 15-01-2017 03:50:00 1.4 C 4.8 g/m*3 1.4 C 0 km/h
48 15-01-2017 03:55:00 1.3 C 4.77 g/m*3 1.3 C 1.6 km/h
49 15-01-2017 04:00:00 1.3 C 4.77 g/m*3 1.3 C 1.6 km/h
50 15-01-2017 04:05:00 1.3 C 4.77 g/m*3 1.3 C 3.2 km/h
Sensor: Nr:Datum:Temp:Abs-Feuchte:Windchill:Wind:
Aussen-T/F 51 15-01-2017 04:10:00 1.2 C 4.74 g/m*3 1.2 C 1.6 km/h
52 15-01-2017 04:15:00 1.2 C 4.74 g/m*3 1.2 C 3.2 km/h
53 15-01-2017 04:20:00 1.2 C 4.74 g/m*3 1.2 C 1.6 km/h
54 15-01-2017 04:25:00 1.2 C 4.74 g/m*3 1.2 C 4.8 km/h
55 15-01-2017 04:30:00 1.3 C 4.77 g/m*3 1.3 C 4.8 km/h
56 15-01-2017 04:35:00 1.3 C 4.77 g/m*3 1.3 C 1.6 km/h
57 15-01-2017 04:40:00 1.2 C 4.68 g/m*3 1.2 C 3.2 km/h
58 15-01-2017 04:45:00 1.3 C 4.72 g/m*3 1.3 C 0 km/h
59 15-01-2017 04:50:00 1.3 C 4.72 g/m*3 1.3 C 0 km/h
60 15-01-2017 04:55:00 1.3 C 4.77 g/m*3 1.3 C 1.6 km/h
61 15-01-2017 05:00:00 1.3 C 4.77 g/m*3 1.3 C 0 km/h
62 15-01-2017 05:05:00 1.2 C 4.74 g/m*3 1.2 C 0 km/h
63 15-01-2017 05:10:00 1.2 C 4.74 g/m*3 1.2 C 1.6 km/h
64 15-01-2017 05:15:00 1.2 C 4.79 g/m*3 1.2 C 4.8 km/h
65 15-01-2017 05:20:00 1.1 C 4.76 g/m*3 1.1 C 3.2 km/h
66 15-01-2017 05:25:00 1.1 C 4.81 g/m*3 1.1 C 1.6 km/h
67 15-01-2017 05:30:00 1.1 C 4.81 g/m*3 1.1 C 3.2 km/h
68 15-01-2017 05:35:00 1 C 4.83 g/m*3 1 C 4.8 km/h
69 15-01-2017 05:40:00 1 C 4.83 g/m*3 1 C 0 km/h
70 15-01-2017 05:45:00 0.9 C 4.79 g/m*3 0.9 C 0 km/h
71 15-01-2017 05:50:00 0.9 C 4.79 g/m*3 0.9 C 1.6 km/h
72 15-01-2017 05:55:00 0.8 C 4.76 g/m*3 0.8 C 3.2 km/h
73 15-01-2017 06:00:00 0.8 C 4.76 g/m*3 0.8 C 3.2 km/h
74 15-01-2017 06:05:00 0.8 C 4.76 g/m*3 0.8 C 0 km/h
75 15-01-2017 06:10:00 0.7 C 4.73 g/m*3 0.7 C 3.2 km/h
Sensor: Nr:Datum:Temp:Abs-Feuchte:Windchill:Wind:
Aussen-T/F 76 15-01-2017 06:15:00 0.7 C 4.73 g/m*3 0.7 C 3.2 km/h
77 15-01-2017 06:20:00 0.7 C 4.78 g/m*3 0.7 C 0 km/h
78 15-01-2017 06:25:00 0.8 C 4.81 g/m*3 0.8 C 0 km/h
79 15-01-2017 06:30:00 0.8 C 4.81 g/m*3 0.8 C 1.6 km/h
80 15-01-2017 06:35:00 0.8 C 4.81 g/m*3 0.8 C 0 km/h
81 15-01-2017 06:40:00 0.8 C 4.81 g/m*3 0.8 C 0 km/h
82 15-01-2017 06:45:00 0.8 C 4.81 g/m*3 0.8 C 0 km/h
83 15-01-2017 06:50:00 0.8 C 4.81 g/m*3 0.8 C 0 km/h
84 15-01-2017 06:55:00 0.7 C 4.78 g/m*3 0.7 C 0 km/h
85 15-01-2017 07:00:00 0.7 C 4.78 g/m*3 0.7 C 0 km/h
86 15-01-2017 07:05:00 0.7 C 4.78 g/m*3 0.7 C 0 km/h
87 15-01-2017 07:10:00 0.7 C 4.78 g/m*3 0.7 C 1.6 km/h
88 15-01-2017 07:15:00 0.7 C 4.78 g/m*3 0.7 C 0 km/h
89 15-01-2017 07:20:00 0.7 C 4.78 g/m*3 0.7 C 0 km/h
90 15-01-2017 07:25:00 0.7 C 4.78 g/m*3 0.7 C 0 km/h
91 15-01-2017 07:30:00 0.7 C 4.78 g/m*3 0.7 C 3.2 km/h
92 15-01-2017 07:35:00 0.7 C 4.78 g/m*3 0.7 C 0 km/h
93 15-01-2017 07:40:00 0.6 C 4.75 g/m*3 0.6 C 0 km/h
94 15-01-2017 07:45:00 0.6 C 4.75 g/m*3 0.6 C 0 km/h
95 15-01-2017 07:50:00 0.6 C 4.75 g/m*3 0.6 C 0 km/h
96 15-01-2017 07:55:00 0.6 C 4.75 g/m*3 0.6 C 0 km/h
97 15-01-2017 08:00:00 0.6 C 4.75 g/m*3 0.6 C 1.6 km/h
98 15-01-2017 08:05:00 0.6 C 4.75 g/m*3 0.6 C 1.6 km/h
99 15-01-2017 08:10:00 0.6 C 4.75 g/m*3 0.6 C 0 km/h
100 15-01-2017 08:15:00 0.6 C 4.75 g/m*3 0.6 C 1.6 km/h
Sensor: Nr:Datum:Temp:Abs-Feuchte:Windchill:Wind:
Aussen-T/F 101 15-01-2017 08:20:00 0.5 C 4.71 g/m*3 0.5 C 0 km/h
102 15-01-2017 08:25:00 0.4 C 4.68 g/m*3 0.4 C 0 km/h
103 15-01-2017 08:30:00 0.4 C 4.68 g/m*3 0.4 C 4.8 km/h
104 15-01-2017 08:35:00 0.6 C 4.75 g/m*3 0.6 C 3.2 km/h
105 15-01-2017 08:40:00 0.6 C 4.75 g/m*3 0.6 C 1.6 km/h
106 15-01-2017 08:45:00 0.7 C 4.73 g/m*3 0.7 C 3.2 km/h
107 15-01-2017 08:50:00 0.7 C 4.73 g/m*3 0.7 C 3.2 km/h
108 15-01-2017 08:55:00 0.6 C 4.7 g/m*3 0.6 C 0 km/h
109 15-01-2017 09:00:00 0.6 C 4.7 g/m*3 0.6 C 0 km/h
110 15-01-2017 09:05:00 0.4 C 4.63 g/m*3 0.4 C 0 km/h
111 15-01-2017 09:10:00 0.4 C 4.63 g/m*3 0.4 C 0 km/h
112 15-01-2017 09:15:00 0.3 C 4.6 g/m*3 0.3 C 0 km/h
113 15-01-2017 09:20:00 0.3 C 4.6 g/m*3 0.3 C 1.6 km/h
114 15-01-2017 09:25:00 0.3 C 4.65 g/m*3 0.3 C 0 km/h
115 15-01-2017 09:30:00 0.4 C 4.68 g/m*3 0.4 C 0 km/h
116 15-01-2017 09:35:00 0.4 C 4.68 g/m*3 0.4 C 0 km/h
117 15-01-2017 09:40:00 0.4 C 4.68 g/m*3 0.4 C 0 km/h
118 15-01-2017 09:45:00 0.4 C 4.68 g/m*3 0.4 C 0 km/h
119 15-01-2017 09:50:00 0.4 C 4.68 g/m*3 0.4 C 0 km/h
120 15-01-2017 09:55:00 0.4 C 4.68 g/m*3 0.4 C 0 km/h
121 15-01-2017 10:00:00 0.3 C 4.65 g/m*3 0.3 C 0 km/h
122 15-01-2017 10:05:00 0.2 C 4.62 g/m*3 0.2 C 0 km/h
123 15-01-2017 10:10:00 0.2 C 4.62 g/m*3 0.2 C 0 km/h
124 15-01-2017 10:15:00 0.3 C 4.65 g/m*3 0.3 C 0 km/h
125 15-01-2017 10:20:00 0.3 C 4.65 g/m*3 0.3 C 0 km/h
Sensor: Nr:Datum:Temp:Abs-Feuchte:Windchill:Wind:
Aussen-T/F 126 15-01-2017 10:25:00 0.4 C 4.68 g/m*3 0.4 C 0 km/h
127 15-01-2017 10:30:00 0.4 C 4.68 g/m*3 0.4 C 1.6 km/h
128 15-01-2017 10:35:00 0.6 C 4.8 g/m*3 0.6 C 1.6 km/h
129 15-01-2017 10:40:00 0.7 C 4.83 g/m*3 0.7 C 1.6 km/h
130 15-01-2017 10:45:00 0.8 C 4.81 g/m*3 0.8 C 1.6 km/h
131 15-01-2017 10:50:00 0.8 C 4.81 g/m*3 0.8 C 3.2 km/h
132 15-01-2017 10:55:00 0.9 C 4.85 g/m*3 0.9 C 1.6 km/h
133 15-01-2017 11:00:00 0.9 C 4.85 g/m*3 0.9 C 1.6 km/h
134 15-01-2017 11:05:00 0.9 C 4.85 g/m*3 0.9 C 1.6 km/h
135 15-01-2017 11:10:00 0.9 C 4.85 g/m*3 0.9 C 1.6 km/h
136 15-01-2017 11:15:00 0.9 C 4.85 g/m*3 0.9 C 0 km/h
137 15-01-2017 11:20:00 0.9 C 4.85 g/m*3 0.9 C 0 km/h
138 15-01-2017 11:25:00 1.1 C 4.91 g/m*3 1.1 C 1.6 km/h
139 15-01-2017 11:30:00 1.1 C 4.91 g/m*3 1.1 C 1.6 km/h
140 15-01-2017 11:35:00 1 C 4.88 g/m*3 1 C 0 km/h
141 15-01-2017 11:40:00 1 C 4.88 g/m*3 1 C 3.2 km/h
142 15-01-2017 11:45:00 0.9 C 4.79 g/m*3 0.9 C 0 km/h
143 15-01-2017 11:50:00 0.9 C 4.85 g/m*3 0.9 C 0 km/h
144 15-01-2017 11:55:00 1 C 4.88 g/m*3 1 C 0 km/h
145 15-01-2017 12:00:00 1.1 C 4.91 g/m*3 1.1 C 0 km/h
146 15-01-2017 12:05:00 1.1 C 4.86 g/m*3 1.1 C 0 km/h
147 15-01-2017 12:10:00 1.2 C 4.95 g/m*3 1.2 C 0 km/h
148 15-01-2017 12:15:00 1.2 C 4.89 g/m*3 1.2 C 0 km/h
149 15-01-2017 12:20:00 1.2 C 4.89 g/m*3 1.2 C 0 km/h
150 15-01-2017 12:25:00 1.2 C 4.89 g/m*3 1.2 C 0 km/h
Sensor: Nr:Datum:Temp:Abs-Feuchte:Windchill:Wind:
Aussen-T/F 151 15-01-2017 12:30:00 1.2 C 4.89 g/m*3 1.2 C 0 km/h
152 15-01-2017 12:35:00 1.3 C 4.93 g/m*3 1.3 C 0 km/h
153 15-01-2017 12:40:00 1.3 C 4.93 g/m*3 1.3 C 0 km/h
154 15-01-2017 12:45:00 1.4 C 4.96 g/m*3 1.4 C 0 km/h
155 15-01-2017 12:50:00 1.6 C 5.03 g/m*3 1.6 C 0 km/h
156 15-01-2017 12:55:00 1.6 C 5.03 g/m*3 1.6 C 0 km/h
157 15-01-2017 13:00:00 1.6 C 5.03 g/m*3 1.6 C 0 km/h
158 15-01-2017 13:05:00 1.6 C 4.97 g/m*3 1.6 C 0 km/h
159 15-01-2017 13:10:00 1.6 C 5.03 g/m*3 1.6 C 0 km/h
160 15-01-2017 13:15:00 1.7 C 5.01 g/m*3 1.7 C 0 km/h
161 15-01-2017 13:20:00 1.7 C 5.01 g/m*3 1.7 C 0 km/h
162 15-01-2017 13:25:00 1.7 C 5.01 g/m*3 1.7 C 0 km/h
163 15-01-2017 13:30:00 1.7 C 5.01 g/m*3 1.7 C 0 km/h
164 15-01-2017 13:35:00 1.7 C 5.01 g/m*3 1.7 C 0 km/h
165 15-01-2017 13:40:00 1.7 C 5.01 g/m*3 1.7 C 1.6 km/h
166 15-01-2017 13:45:00 1.8 C 4.93 g/m*3 1.8 C 3.2 km/h
167 15-01-2017 13:50:00 1.9 C 4.97 g/m*3 1.9 C 4.8 km/h
168 15-01-2017 13:55:00 2.1 C 4.87 g/m*3 -0.3 C 8.1 km/h
169 15-01-2017 14:00:00 2.3 C 4.88 g/m*3 -0.07 C 8.1 km/h
170 15-01-2017 14:05:00 2.5 C 4.89 g/m*3 0.71 C 6.4 km/h
171 15-01-2017 14:10:00 2.6 C 4.86 g/m*3 2.6 C 4.8 km/h
172 15-01-2017 14:15:00 2.7 C 4.95 g/m*3 0.94 C 6.4 km/h
173 15-01-2017 14:20:00 2.7 C 4.84 g/m*3 2.7 C 4.8 km/h
174 15-01-2017 14:25:00 2.7 C 4.84 g/m*3 2.7 C 1.6 km/h
175 15-01-2017 14:30:00 2.8 C 4.99 g/m*3 2.8 C 0 km/h
Sensor: Nr:Datum:Temp:Abs-Feuchte:Windchill:Wind:
Aussen-T/F 176 15-01-2017 14:35:00 2.8 C 5.04 g/m*3 2.8 C 0 km/h
177 15-01-2017 14:40:00 2.8 C 5.1 g/m*3 2.8 C 0 km/h
178 15-01-2017 14:45:00 2.7 C 5.07 g/m*3 2.7 C 1.6 km/h
179 15-01-2017 14:50:00 2.7 C 5.07 g/m*3 2.7 C 0 km/h
180 15-01-2017 14:55:00 2.7 C 5.13 g/m*3 2.7 C 0 km/h
181 15-01-2017 15:00:00 2.7 C 5.19 g/m*3 2.7 C 0 km/h
182 15-01-2017 15:05:00 2.7 C 5.19 g/m*3 2.7 C 0 km/h
183 15-01-2017 15:10:00 2.6 C 5.15 g/m*3 2.6 C 0 km/h
184 15-01-2017 15:15:00 2.6 C 5.15 g/m*3 2.6 C 0 km/h
185 15-01-2017 15:20:00 2.5 C 5.12 g/m*3 2.5 C 0 km/h
186 15-01-2017 15:25:00 2.4 C 5.08 g/m*3 2.4 C 0 km/h
187 15-01-2017 15:30:00 2.3 C 5.05 g/m*3 2.3 C 0 km/h
188 15-01-2017 15:35:00 2.2 C 5.07 g/m*3 2.2 C 0 km/h
189 15-01-2017 15:40:00 2.2 C 5.07 g/m*3 2.2 C 0 km/h
190 15-01-2017 15:45:00 2.1 C 5.04 g/m*3 2.1 C 1.6 km/h
191 15-01-2017 15:50:00 1.9 C 4.97 g/m*3 1.9 C 0 km/h
192 15-01-2017 15:55:00 1.8 C 4.99 g/m*3 1.8 C 1.6 km/h
193 15-01-2017 16:00:00 1.7 C 4.95 g/m*3 1.7 C 1.6 km/h
194 15-01-2017 16:05:00 1.5 C 4.89 g/m*3 1.5 C 4.8 km/h
195 15-01-2017 16:10:00 1.4 C 4.85 g/m*3 1.4 C 3.2 km/h
196 15-01-2017 16:15:00 1.3 C 4.82 g/m*3 1.3 C 0 km/h
197 15-01-2017 16:20:00 1.2 C 4.79 g/m*3 1.2 C 0 km/h
198 15-01-2017 16:25:00 1.1 C 4.76 g/m*3 1.1 C 4.8 km/h
199 15-01-2017 16:30:00 1 C 4.72 g/m*3 1 C 3.2 km/h
200 15-01-2017 16:35:00 0.9 C 4.69 g/m*3 0.9 C 3.2 km/h
Sensor: Nr:Datum:Temp:Abs-Feuchte:Windchill:Wind:
Aussen-T/F 201 15-01-2017 16:40:00 0.8 C 4.66 g/m*3 0.8 C 1.6 km/h
202 15-01-2017 16:45:00 0.7 C 4.68 g/m*3 0.7 C 0 km/h
203 15-01-2017 16:50:00 0.7 C 4.68 g/m*3 0.7 C 3.2 km/h
204 15-01-2017 16:55:00 0.6 C 4.65 g/m*3 0.6 C 3.2 km/h
205 15-01-2017 17:00:00 0.6 C 4.65 g/m*3 0.6 C 3.2 km/h
206 15-01-2017 17:05:00 0.5 C 4.61 g/m*3 0.5 C 1.6 km/h
207 15-01-2017 17:10:00 0.4 C 4.58 g/m*3 0.4 C 0 km/h
208 15-01-2017 17:15:00 0.3 C 4.55 g/m*3 0.3 C 3.2 km/h
209 15-01-2017 17:20:00 0.2 C 4.52 g/m*3 0.2 C 3.2 km/h
210 15-01-2017 17:25:00 0.1 C 4.49 g/m*3 0.1 C 3.2 km/h
211 15-01-2017 17:30:00 0 C 4.46 g/m*3 0 C 1.6 km/h
212 15-01-2017 17:35:00 -0.1 C 4.47 g/m*3 -0.1 C 3.2 km/h
213 15-01-2017 17:40:00 -0.2 C 4.4 g/m*3 -0.2 C 3.2 km/h
214 15-01-2017 17:45:00 -0.1 C 4.47 g/m*3 -0.1 C 3.2 km/h
215 15-01-2017 17:50:00 -0.1 C 4.47 g/m*3 -0.1 C 3.2 km/h
216 15-01-2017 17:55:00 -0.1 C 4.47 g/m*3 -0.1 C 1.6 km/h
217 15-01-2017 18:00:00 -0.1 C 4.47 g/m*3 -0.1 C 0 km/h
218 15-01-2017 18:05:00 -0.2 C 4.44 g/m*3 -0.2 C 0 km/h
219 15-01-2017 18:10:00 -0.2 C 4.44 g/m*3 -0.2 C 0 km/h
220 15-01-2017 18:15:00 -0.3 C 4.41 g/m*3 -0.3 C 0 km/h
221 15-01-2017 18:20:00 -0.3 C 4.41 g/m*3 -0.3 C 0 km/h
222 15-01-2017 18:25:00 -0.3 C 4.41 g/m*3 -0.3 C 0 km/h
223 15-01-2017 18:30:00 -0.3 C 4.41 g/m*3 -0.3 C 0 km/h
224 15-01-2017 18:35:00 -0.3 C 4.46 g/m*3 -0.3 C 0 km/h
225 15-01-2017 18:40:00 -0.2 C 4.49 g/m*3 -0.2 C 0 km/h
Sensor: Nr:Datum:Temp:Abs-Feuchte:Windchill:Wind:
Aussen-T/F 226 15-01-2017 18:45:00 -0.2 C 4.49 g/m*3 -0.2 C 0 km/h
227 15-01-2017 18:50:00 -0.2 C 4.49 g/m*3 -0.2 C 0 km/h
228 15-01-2017 18:55:00 -0.2 C 4.49 g/m*3 -0.2 C 0 km/h
229 15-01-2017 19:00:00 -0.2 C 4.49 g/m*3 -0.2 C 0 km/h
230 15-01-2017 19:05:00 -0.2 C 4.49 g/m*3 -0.2 C 0 km/h
231 15-01-2017 19:10:00 -0.3 C 4.46 g/m*3 -0.3 C 0 km/h
232 15-01-2017 19:15:00 -0.3 C 4.46 g/m*3 -0.3 C 0 km/h
233 15-01-2017 19:20:00 -0.3 C 4.46 g/m*3 -0.3 C 0 km/h
234 15-01-2017 19:25:00 -0.3 C 4.46 g/m*3 -0.3 C 0 km/h
235 15-01-2017 19:30:00 -0.4 C 4.43 g/m*3 -0.4 C 0 km/h
236 15-01-2017 19:35:00 -0.6 C 4.32 g/m*3 -0.6 C 0 km/h
237 15-01-2017 19:40:00 -0.7 C 4.29 g/m*3 -0.7 C 0 km/h
238 15-01-2017 19:45:00 -0.7 C 4.29 g/m*3 -0.7 C 0 km/h
239 15-01-2017 19:50:00 -0.8 C 4.26 g/m*3 -0.8 C 0 km/h
240 15-01-2017 19:55:00 -0.8 C 4.26 g/m*3 -0.8 C 0 km/h
241 15-01-2017 20:00:00 -0.8 C 4.31 g/m*3 -0.8 C 0 km/h
242 15-01-2017 20:05:00 -0.7 C 4.34 g/m*3 -0.7 C 0 km/h
243 15-01-2017 20:10:00 -0.7 C 4.34 g/m*3 -0.7 C 0 km/h
244 15-01-2017 20:15:00 -0.6 C 4.37 g/m*3 -0.6 C 0 km/h
245 15-01-2017 20:20:00 -0.5 C 4.4 g/m*3 -0.5 C 0 km/h
246 15-01-2017 20:25:00 -0.4 C 4.43 g/m*3 -0.4 C 0 km/h
247 15-01-2017 20:30:00 -0.4 C 4.43 g/m*3 -0.4 C 0 km/h
248 15-01-2017 20:35:00 -0.4 C 4.48 g/m*3 -0.4 C 0 km/h
249 15-01-2017 20:40:00 -0.3 C 4.51 g/m*3 -0.3 C 0 km/h
250 15-01-2017 20:45:00 -0.3 C 4.46 g/m*3 -0.3 C 0 km/h
Sensor: Nr:Datum:Temp:Abs-Feuchte:Windchill:Wind:
Aussen-T/F 251 15-01-2017 20:50:00 -0.3 C 4.46 g/m*3 -0.3 C 0 km/h
252 15-01-2017 20:55:00 -0.3 C 4.46 g/m*3 -0.3 C 3.2 km/h
253 15-01-2017 21:00:00 -0.3 C 4.46 g/m*3 -0.3 C 0 km/h
254 15-01-2017 21:05:00 -0.3 C 4.46 g/m*3 -0.3 C 1.6 km/h
255 15-01-2017 21:10:00 -0.3 C 4.46 g/m*3 -0.3 C 0 km/h
256 15-01-2017 21:15:00 -0.3 C 4.46 g/m*3 -0.3 C 0 km/h
257 15-01-2017 21:20:00 -0.2 C 4.49 g/m*3 -0.2 C 1.6 km/h
258 15-01-2017 21:25:00 -0.2 C 4.49 g/m*3 -0.2 C 0 km/h
259 15-01-2017 21:30:00 -0.2 C 4.49 g/m*3 -0.2 C 0 km/h
260 15-01-2017 21:35:00 -0.2 C 4.49 g/m*3 -0.2 C 0 km/h
261 15-01-2017 21:40:00 -0.1 C 4.52 g/m*3 -0.1 C 0 km/h
262 15-01-2017 21:45:00 -0.1 C 4.52 g/m*3 -0.1 C 0 km/h
263 15-01-2017 21:50:00 -0.1 C 4.52 g/m*3 -0.1 C 0 km/h
264 15-01-2017 21:55:00 0 C 4.55 g/m*3 0 C 3.2 km/h
265 15-01-2017 22:00:00 0 C 4.55 g/m*3 0 C 3.2 km/h
266 15-01-2017 22:05:00 0.1 C 4.59 g/m*3 0.1 C 3.2 km/h
267 15-01-2017 22:10:00 0.1 C 4.59 g/m*3 0.1 C 0 km/h
268 15-01-2017 22:15:00 0.1 C 4.59 g/m*3 0.1 C 1.6 km/h
269 15-01-2017 22:20:00 0.1 C 4.59 g/m*3 0.1 C 1.6 km/h
270 15-01-2017 22:25:00 0.1 C 4.59 g/m*3 0.1 C 4.8 km/h
271 15-01-2017 22:30:00 0.1 C 4.54 g/m*3 0.1 C 4.8 km/h
272 15-01-2017 22:35:00 0.2 C 4.57 g/m*3 0.2 C 3.2 km/h
273 15-01-2017 22:40:00 0.2 C 4.57 g/m*3 0.2 C 0 km/h
274 15-01-2017 22:45:00 0.2 C 4.57 g/m*3 0.2 C 0 km/h
275 15-01-2017 22:50:00 0.2 C 4.57 g/m*3 0.2 C 1.6 km/h
Sensor: Nr:Datum:Temp:Abs-Feuchte:Windchill:Wind:
Aussen-T/F 276 15-01-2017 22:55:00 0.2 C 4.57 g/m*3 0.2 C 3.2 km/h
277 15-01-2017 23:00:00 0.1 C 4.54 g/m*3 0.1 C 0 km/h
278 15-01-2017 23:05:00 0.1 C 4.54 g/m*3 0.1 C 0 km/h
279 15-01-2017 23:10:00 0.1 C 4.54 g/m*3 0.1 C 1.6 km/h
280 15-01-2017 23:15:00 0.1 C 4.59 g/m*3 0.1 C 3.2 km/h
281 15-01-2017 23:20:00 0.1 C 4.59 g/m*3 0.1 C 0 km/h
282 15-01-2017 23:25:00 0.1 C 4.59 g/m*3 0.1 C 4.8 km/h
283 15-01-2017 23:30:00 0.1 C 4.59 g/m*3 0.1 C 0 km/h
284 15-01-2017 23:35:00 0.1 C 4.59 g/m*3 0.1 C 1.6 km/h
285 15-01-2017 23:40:00 0 C 4.55 g/m*3 0 C 1.6 km/h
286 15-01-2017 23:45:00 -0.1 C 4.52 g/m*3 -0.1 C 3.2 km/h
287 15-01-2017 23:50:00 -0.2 C 4.49 g/m*3 -0.2 C 0 km/h
288 15-01-2017 23:55:00 -0.3 C 4.46 g/m*3 -0.3 C 0 km/h
289 16-01-2017 00:00:00 -0.3 C 4.46 g/m*3 -0.3 C 0 km/h
290 16-01-2017 00:05:00 -0.4 C 4.43 g/m*3 -0.4 C 0 km/h
291 16-01-2017 00:10:00 -0.6 C 4.37 g/m*3 -0.6 C 1.6 km/h
292 16-01-2017 00:15:00 -0.6 C 4.37 g/m*3 -0.6 C 1.6 km/h
293 16-01-2017 00:20:00 -0.6 C 4.37 g/m*3 -0.6 C 1.6 km/h
294 16-01-2017 00:25:00 -0.6 C 4.42 g/m*3 -0.6 C 1.6 km/h
295 16-01-2017 00:30:00 -0.5 C 4.45 g/m*3 -0.5 C 3.2 km/h
296 16-01-2017 00:35:00 -0.4 C 4.48 g/m*3 -0.4 C 0 km/h
297 16-01-2017 00:40:00 -0.4 C 4.48 g/m*3 -0.4 C 0 km/h
298 16-01-2017 00:45:00 -0.4 C 4.48 g/m*3 -0.4 C 0 km/h
299 16-01-2017 00:50:00 -0.4 C 4.48 g/m*3 -0.4 C 0 km/h
300 16-01-2017 00:55:00 -0.4 C 4.48 g/m*3 -0.4 C 1.6 km/h
Sensor: Nr:Datum:Temp:Abs-Feuchte:Windchill:Wind:
Aussen-T/F 301 16-01-2017 01:00:00 -0.4 C 4.48 g/m*3 -0.4 C 3.2 km/h
302 16-01-2017 01:05:00 -0.4 C 4.48 g/m*3 -0.4 C 1.6 km/h
303 16-01-2017 01:10:00 -0.4 C 4.48 g/m*3 -0.4 C 0 km/h
304 16-01-2017 01:15:00 -0.4 C 4.48 g/m*3 -0.4 C 0 km/h
305 16-01-2017 01:20:00 -0.4 C 4.48 g/m*3 -0.4 C 1.6 km/h
306 16-01-2017 01:25:00 -0.4 C 4.48 g/m*3 -0.4 C 0 km/h
307 16-01-2017 01:30:00 -0.4 C 4.48 g/m*3 -0.4 C 1.6 km/h
308 16-01-2017 01:35:00 -0.3 C 4.51 g/m*3 -0.3 C 0 km/h
309 16-01-2017 01:40:00 -0.3 C 4.51 g/m*3 -0.3 C 0 km/h
310 16-01-2017 01:45:00 -0.3 C 4.51 g/m*3 -0.3 C 0 km/h
311 16-01-2017 01:50:00 -0.2 C 4.54 g/m*3 -0.2 C 0 km/h
312 16-01-2017 01:55:00 -0.2 C 4.54 g/m*3 -0.2 C 0 km/h
313 16-01-2017 02:00:00 -0.2 C 4.54 g/m*3 -0.2 C 0 km/h
314 16-01-2017 02:05:00 -0.2 C 4.54 g/m*3 -0.2 C 0 km/h
315 16-01-2017 02:10:00 -0.2 C 4.54 g/m*3 -0.2 C 0 km/h
316 16-01-2017 02:15:00 -0.2 C 4.54 g/m*3 -0.2 C 0 km/h
317 16-01-2017 02:20:00 -0.2 C 4.54 g/m*3 -0.2 C 0 km/h
318 16-01-2017 02:25:00 -0.2 C 4.54 g/m*3 -0.2 C 0 km/h
319 16-01-2017 02:30:00 -0.2 C 4.54 g/m*3 -0.2 C 0 km/h
320 16-01-2017 02:35:00 -0.3 C 4.51 g/m*3 -0.3 C 0 km/h
321 16-01-2017 02:40:00 -0.3 C 4.51 g/m*3 -0.3 C 0 km/h
322 16-01-2017 02:45:00 -0.3 C 4.51 g/m*3 -0.3 C 0 km/h
323 16-01-2017 02:50:00 -0.6 C 4.42 g/m*3 -0.6 C 0 km/h
324 16-01-2017 02:55:00 -0.8 C 4.35 g/m*3 -0.8 C 0 km/h
325 16-01-2017 03:00:00 -0.9 C 4.28 g/m*3 -0.9 C 0 km/h
Sensor: Nr:Datum:Temp:Abs-Feuchte:Windchill:Wind:
Aussen-T/F 326 16-01-2017 03:05:00 -0.9 C 4.32 g/m*3 -0.9 C 0 km/h
327 16-01-2017 03:10:00 -0.9 C 4.32 g/m*3 -0.9 C 0 km/h
328 16-01-2017 03:15:00 -0.9 C 4.32 g/m*3 -0.9 C 0 km/h
329 16-01-2017 03:20:00 -0.8 C 4.35 g/m*3 -0.8 C 0 km/h
330 16-01-2017 03:25:00 -0.7 C 4.39 g/m*3 -0.7 C 0 km/h
331 16-01-2017 03:30:00 -0.7 C 4.39 g/m*3 -0.7 C 0 km/h
332 16-01-2017 03:35:00 -0.6 C 4.42 g/m*3 -0.6 C 0 km/h
333 16-01-2017 03:40:00 -0.6 C 4.42 g/m*3 -0.6 C 0 km/h
334 16-01-2017 03:45:00 -0.6 C 4.42 g/m*3 -0.6 C 0 km/h
335 16-01-2017 03:50:00 -0.6 C 4.42 g/m*3 -0.6 C 0 km/h
336 16-01-2017 03:55:00 -0.6 C 4.42 g/m*3 -0.6 C 0 km/h
337 16-01-2017 04:00:00 -0.5 C 4.45 g/m*3 -0.5 C 0 km/h
338 16-01-2017 04:05:00 -0.5 C 4.45 g/m*3 -0.5 C 0 km/h
339 16-01-2017 04:10:00 -0.5 C 4.45 g/m*3 -0.5 C 0 km/h
340 16-01-2017 04:15:00 -0.5 C 4.45 g/m*3 -0.5 C 0 km/h
341 16-01-2017 04:20:00 -0.5 C 4.45 g/m*3 -0.5 C 1.6 km/h
342 16-01-2017 04:25:00 -0.5 C 4.45 g/m*3 -0.5 C 1.6 km/h
343 16-01-2017 04:30:00 -0.5 C 4.45 g/m*3 -0.5 C 0 km/h
344 16-01-2017 04:35:00 -0.5 C 4.45 g/m*3 -0.5 C 1.6 km/h
345 16-01-2017 04:40:00 -0.6 C 4.42 g/m*3 -0.6 C 0 km/h
346 16-01-2017 04:45:00 -0.6 C 4.42 g/m*3 -0.6 C 0 km/h
347 16-01-2017 04:50:00 -0.6 C 4.42 g/m*3 -0.6 C 0 km/h
348 16-01-2017 04:55:00 -0.6 C 4.42 g/m*3 -0.6 C 0 km/h
349 16-01-2017 05:00:00 -0.6 C 4.42 g/m*3 -0.6 C 0 km/h
350 16-01-2017 05:05:00 -0.5 C 4.45 g/m*3 -0.5 C 0 km/h
Sensor: Nr:Datum:Temp:Abs-Feuchte:Windchill:Wind:
Aussen-T/F 351 16-01-2017 05:10:00 -0.5 C 4.45 g/m*3 -0.5 C 3.2 km/h
352 16-01-2017 05:15:00 -0.5 C 4.45 g/m*3 -0.5 C 1.6 km/h
353 16-01-2017 05:20:00 -0.4 C 4.48 g/m*3 -0.4 C 0 km/h
354 16-01-2017 05:25:00 -0.4 C 4.48 g/m*3 -0.4 C 0 km/h
355 16-01-2017 05:30:00 -0.4 C 4.48 g/m*3 -0.4 C 0 km/h
356 16-01-2017 05:35:00 -0.4 C 4.48 g/m*3 -0.4 C 0 km/h
357 16-01-2017 05:40:00 -0.4 C 4.48 g/m*3 -0.4 C 0 km/h
358 16-01-2017 05:45:00 -0.5 C 4.45 g/m*3 -0.5 C 0 km/h
359 16-01-2017 05:50:00 -0.5 C 4.45 g/m*3 -0.5 C 0 km/h
360 16-01-2017 05:55:00 -0.5 C 4.45 g/m*3 -0.5 C 0 km/h
361 16-01-2017 06:00:00 -0.5 C 4.45 g/m*3 -0.5 C 0 km/h
362 16-01-2017 06:05:00 -0.5 C 4.45 g/m*3 -0.5 C 0 km/h
363 16-01-2017 06:10:00 -0.5 C 4.45 g/m*3 -0.5 C 0 km/h
364 16-01-2017 06:15:00 -0.6 C 4.42 g/m*3 -0.6 C 0 km/h
365 16-01-2017 06:20:00 -0.5 C 4.45 g/m*3 -0.5 C 0 km/h
366 16-01-2017 06:25:00 -0.6 C 4.42 g/m*3 -0.6 C 0 km/h
367 16-01-2017 06:30:00 -0.6 C 4.42 g/m*3 -0.6 C 0 km/h
368 16-01-2017 06:35:00 -0.6 C 4.42 g/m*3 -0.6 C 0 km/h
369 16-01-2017 06:40:00 -0.6 C 4.42 g/m*3 -0.6 C 0 km/h
370 16-01-2017 06:45:00 -0.6 C 4.42 g/m*3 -0.6 C 0 km/h
371 16-01-2017 06:50:00 -0.6 C 4.42 g/m*3 -0.6 C 0 km/h
372 16-01-2017 06:55:00 -0.6 C 4.42 g/m*3 -0.6 C 0 km/h
373 16-01-2017 07:00:00 -0.6 C 4.42 g/m*3 -0.6 C 0 km/h
374 16-01-2017 07:05:00 -0.6 C 4.42 g/m*3 -0.6 C 0 km/h
375 16-01-2017 07:10:00 -0.6 C 4.42 g/m*3 -0.6 C 0 km/h
Sensor: Nr:Datum:Temp:Abs-Feuchte:Windchill:Wind:
Aussen-T/F 376 16-01-2017 07:15:00 -0.6 C 4.42 g/m*3 -0.6 C 0 km/h
377 16-01-2017 07:20:00 -0.7 C 4.39 g/m*3 -0.7 C 0 km/h
378 16-01-2017 07:25:00 -0.7 C 4.39 g/m*3 -0.7 C 0 km/h
379 16-01-2017 07:30:00 -0.7 C 4.39 g/m*3 -0.7 C 0 km/h
380 16-01-2017 07:35:00 -0.7 C 4.39 g/m*3 -0.7 C 0 km/h
381 16-01-2017 07:40:00 -0.7 C 4.43 g/m*3 -0.7 C 0 km/h
382 16-01-2017 07:45:00 -0.8 C 4.35 g/m*3 -0.8 C 0 km/h
383 16-01-2017 07:50:00 -0.8 C 4.35 g/m*3 -0.8 C 0 km/h
384 16-01-2017 07:55:00 -0.8 C 4.35 g/m*3 -0.8 C 0 km/h
385 16-01-2017 08:00:00 -0.8 C 4.35 g/m*3 -0.8 C 0 km/h
386 16-01-2017 08:05:00 -0.9 C 4.32 g/m*3 -0.9 C 0 km/h
387 16-01-2017 08:10:00 -0.9 C 4.32 g/m*3 -0.9 C 0 km/h
388 16-01-2017 08:15:00 -1 C 4.29 g/m*3 -1 C 0 km/h
389 16-01-2017 08:20:00 -1 C 4.29 g/m*3 -1 C 0 km/h
390 16-01-2017 08:25:00 -1.1 C 4.26 g/m*3 -1.1 C 0 km/h
391 16-01-2017 08:30:00 -1.1 C 4.26 g/m*3 -1.1 C 0 km/h
392 16-01-2017 08:35:00 -1.2 C 4.24 g/m*3 -1.2 C 0 km/h
393 16-01-2017 08:40:00 -1.3 C 4.21 g/m*3 -1.3 C 0 km/h
394 16-01-2017 08:45:00 -1.3 C 4.21 g/m*3 -1.3 C 0 km/h
395 16-01-2017 08:50:00 -1.4 C 4.18 g/m*3 -1.4 C 0 km/h
396 16-01-2017 08:55:00 -1.6 C 4.12 g/m*3 -1.6 C 0 km/h
397 16-01-2017 09:00:00 -1.7 C 4.09 g/m*3 -1.7 C 0 km/h
398 16-01-2017 09:05:00 -1.8 C 4.06 g/m*3 -1.8 C 0 km/h
399 16-01-2017 09:10:00 -1.8 C 4.06 g/m*3 -1.8 C 0 km/h
400 16-01-2017 09:15:00 -1.8 C 4.06 g/m*3 -1.8 C 0 km/h
Sensor: Nr:Datum:Temp:Abs-Feuchte:Windchill:Wind:
Aussen-T/F 401 16-01-2017 09:20:00 -1.9 C 4.03 g/m*3 -1.9 C 0 km/h
402 16-01-2017 09:25:00 -1.8 C 4.06 g/m*3 -1.8 C 0 km/h
403 16-01-2017 09:30:00 -1.7 C 4.09 g/m*3 -1.7 C 0 km/h
404 16-01-2017 09:35:00 -1.6 C 4.16 g/m*3 -1.6 C 0 km/h
405 16-01-2017 09:40:00 -1.3 C 4.25 g/m*3 -1.3 C 0 km/h
406 16-01-2017 09:45:00 -1.2 C 4.28 g/m*3 -1.2 C 0 km/h
407 16-01-2017 09:50:00 -1.1 C 4.31 g/m*3 -1.1 C 0 km/h
408 16-01-2017 09:55:00 -0.9 C 4.37 g/m*3 -0.9 C 0 km/h
409 16-01-2017 10:00:00 -0.8 C 4.4 g/m*3 -0.8 C 0 km/h
410 16-01-2017 10:05:00 -0.7 C 4.43 g/m*3 -0.7 C 0 km/h
411 16-01-2017 10:10:00 -0.7 C 4.43 g/m*3 -0.7 C 0 km/h
412 16-01-2017 10:15:00 -0.6 C 4.46 g/m*3 -0.6 C 0 km/h
413 16-01-2017 10:20:00 -0.6 C 4.46 g/m*3 -0.6 C 0 km/h
414 16-01-2017 10:25:00 -0.5 C 4.49 g/m*3 -0.5 C 0 km/h
415 16-01-2017 10:30:00 -0.4 C 4.52 g/m*3 -0.4 C 0 km/h
416 16-01-2017 10:35:00 -0.3 C 4.56 g/m*3 -0.3 C 0 km/h
417 16-01-2017 10:40:00 -0.3 C 4.56 g/m*3 -0.3 C 0 km/h
418 16-01-2017 10:45:00 -0.2 C 4.59 g/m*3 -0.2 C 0 km/h
419 16-01-2017 10:50:00 -0.2 C 4.59 g/m*3 -0.2 C 0 km/h
420 16-01-2017 10:55:00 -0.2 C 4.59 g/m*3 -0.2 C 0 km/h
421 16-01-2017 11:00:00 -0.2 C 4.54 g/m*3 -0.2 C 0 km/h
422 16-01-2017 11:05:00 -0.1 C 4.57 g/m*3 -0.1 C 0 km/h
423 16-01-2017 11:10:00 -0.1 C 4.57 g/m*3 -0.1 C 0 km/h
424 16-01-2017 11:15:00 0 C 4.65 g/m*3 0 C 0 km/h
425 16-01-2017 11:20:00 0.1 C 4.63 g/m*3 0.1 C 1.6 km/h
Sensor: Nr:Datum:Temp:Abs-Feuchte:Windchill:Wind:
Aussen-T/F 426 16-01-2017 11:25:00 0.1 C 4.63 g/m*3 0.1 C 1.6 km/h
427 16-01-2017 11:30:00 0.2 C 4.67 g/m*3 0.2 C 0 km/h
428 16-01-2017 11:35:00 0.3 C 4.7 g/m*3 0.3 C 1.6 km/h
429 16-01-2017 11:40:00 0.3 C 4.7 g/m*3 -1.84 C 6.4 km/h
430 16-01-2017 11:45:00 0.3 C 4.7 g/m*3 0.3 C 3.2 km/h
431 16-01-2017 11:50:00 0.3 C 4.65 g/m*3 0.3 C 3.2 km/h
432 16-01-2017 11:55:00 0.3 C 4.65 g/m*3 0.3 C 1.6 km/h
433 16-01-2017 12:00:00 0.2 C 4.57 g/m*3 0.2 C 4.8 km/h
434 16-01-2017 12:05:00 0.1 C 4.49 g/m*3 -2.07 C 6.4 km/h
435 16-01-2017 12:10:00 0 C 4.41 g/m*3 0 C 1.6 km/h
436 16-01-2017 12:15:00 -0.1 C 4.38 g/m*3 -0.1 C 1.6 km/h
437 16-01-2017 12:20:00 -0.2 C 4.35 g/m*3 -0.2 C 0 km/h
438 16-01-2017 12:25:00 -0.2 C 4.3 g/m*3 -0.2 C 3.2 km/h
439 16-01-2017 12:30:00 -0.2 C 4.35 g/m*3 -0.2 C 0 km/h
440 16-01-2017 12:35:00 -0.3 C 4.32 g/m*3 -0.3 C 0 km/h
441 16-01-2017 12:40:00 -0.4 C 4.29 g/m*3 -0.4 C 1.6 km/h
442 16-01-2017 12:45:00 -0.5 C 4.26 g/m*3 -0.5 C 0 km/h
443 16-01-2017 12:50:00 -0.6 C 4.23 g/m*3 -0.6 C 1.6 km/h
444 16-01-2017 12:55:00 -0.7 C 4.2 g/m*3 -0.7 C 0 km/h
445 16-01-2017 13:00:00 -0.8 C 4.22 g/m*3 -0.8 C 1.6 km/h
446 16-01-2017 13:05:00 -0.8 C 4.22 g/m*3 -0.8 C 3.2 km/h
447 16-01-2017 13:10:00 -0.9 C 4.19 g/m*3 -0.9 C 3.2 km/h
448 16-01-2017 13:15:00 -0.9 C 4.19 g/m*3 -0.9 C 1.6 km/h
449 16-01-2017 13:20:00 -0.9 C 4.19 g/m*3 -0.9 C 0 km/h
450 16-01-2017 13:25:00 -0.9 C 4.19 g/m*3 -0.9 C 0 km/h
Sensor: Nr:Datum:Temp:Abs-Feuchte:Windchill:Wind:
Aussen-T/F 451 16-01-2017 13:30:00 -0.8 C 4.22 g/m*3 -0.8 C 0 km/h
452 16-01-2017 13:35:00 -0.8 C 4.22 g/m*3 -0.8 C 1.6 km/h
453 16-01-2017 13:40:00 -0.8 C 4.22 g/m*3 -0.8 C 1.6 km/h
454 16-01-2017 13:45:00 -0.7 C 4.25 g/m*3 -0.7 C 3.2 km/h
455 16-01-2017 13:50:00 -0.6 C 4.32 g/m*3 -0.6 C 3.2 km/h
456 16-01-2017 13:55:00 -0.4 C 4.38 g/m*3 -0.4 C 1.6 km/h
457 16-01-2017 14:00:00 -0.3 C 4.41 g/m*3 -0.3 C 0 km/h
458 16-01-2017 14:05:00 -0.3 C 4.37 g/m*3 -0.3 C 0 km/h
459 16-01-2017 14:10:00 -0.3 C 4.37 g/m*3 -0.3 C 0 km/h
460 16-01-2017 14:15:00 -0.3 C 4.37 g/m*3 -0.3 C 0 km/h
461 16-01-2017 14:20:00 -0.4 C 4.29 g/m*3 -0.4 C 3.2 km/h
462 16-01-2017 14:25:00 -0.4 C 4.29 g/m*3 -0.4 C 3.2 km/h
463 16-01-2017 14:30:00 -0.6 C 4.23 g/m*3 -0.6 C 1.6 km/h
464 16-01-2017 14:35:00 -0.6 C 4.23 g/m*3 -0.6 C 1.6 km/h
465 16-01-2017 14:40:00 -0.7 C 4.2 g/m*3 -0.7 C 3.2 km/h
466 16-01-2017 14:45:00 -0.7 C 4.2 g/m*3 -0.7 C 1.6 km/h
467 16-01-2017 14:50:00 -0.7 C 4.2 g/m*3 -0.7 C 4.8 km/h
468 16-01-2017 14:55:00 -0.7 C 4.11 g/m*3 -0.7 C 3.2 km/h
469 16-01-2017 15:00:00 -0.6 C 4.09 g/m*3 -0.6 C 4.8 km/h
470 16-01-2017 15:05:00 -0.5 C 4.12 g/m*3 -0.5 C 1.6 km/h
471 16-01-2017 15:10:00 -0.5 C 4.12 g/m*3 -0.5 C 1.6 km/h
472 16-01-2017 15:15:00 -0.6 C 4.14 g/m*3 -0.6 C 1.6 km/h
473 16-01-2017 15:20:00 -0.7 C 4.11 g/m*3 -0.7 C 3.2 km/h
474 16-01-2017 15:25:00 -0.8 C 4.08 g/m*3 -0.8 C 3.2 km/h
475 16-01-2017 15:30:00 -0.9 C 4.1 g/m*3 -0.9 C 3.2 km/h
Sensor: Nr:Datum:Temp:Abs-Feuchte:Windchill:Wind:
Aussen-T/F 476 16-01-2017 15:35:00 -1.1 C 4.04 g/m*3 -1.1 C 3.2 km/h
477 16-01-2017 15:40:00 -1.1 C 4.04 g/m*3 -1.1 C 3.2 km/h
478 16-01-2017 15:45:00 -1.2 C 4.01 g/m*3 -1.2 C 4.8 km/h
479 16-01-2017 15:50:00 -1.2 C 4.06 g/m*3 -1.2 C 4.8 km/h
480 16-01-2017 15:55:00 -1.2 C 4.06 g/m*3 -1.2 C 4.8 km/h
481 16-01-2017 16:00:00 -1.3 C 4.03 g/m*3 -1.3 C 4.8 km/h
482 16-01-2017 16:05:00 -1.3 C 4.03 g/m*3 -1.3 C 4.8 km/h
483 16-01-2017 16:10:00 -1.3 C 4.03 g/m*3 -1.3 C 4.8 km/h
484 16-01-2017 16:15:00 -1.3 C 4.07 g/m*3 -1.3 C 4.8 km/h
485 16-01-2017 16:20:00 -1.3 C 4.07 g/m*3 -1.3 C 4.8 km/h
486 16-01-2017 16:25:00 -1.4 C 4.04 g/m*3 -1.4 C 4.8 km/h
487 16-01-2017 16:30:00 -1.4 C 4 g/m*3 -1.4 C 3.2 km/h
488 16-01-2017 16:35:00 -1.5 C 4.02 g/m*3 -1.5 C 1.6 km/h
489 16-01-2017 16:40:00 -1.5 C 3.97 g/m*3 -1.5 C 1.6 km/h
490 16-01-2017 16:45:00 -1.6 C 3.94 g/m*3 -1.6 C 3.2 km/h
491 16-01-2017 16:50:00 -1.7 C 3.96 g/m*3 -1.7 C 3.2 km/h
492 16-01-2017 16:55:00 -1.7 C 3.96 g/m*3 -1.7 C 4.8 km/h
493 16-01-2017 17:00:00 -1.7 C 3.96 g/m*3 -1.7 C 3.2 km/h
494 16-01-2017 17:05:00 -1.7 C 3.96 g/m*3 -1.7 C 3.2 km/h
495 16-01-2017 17:10:00 -1.7 C 3.96 g/m*3 -1.7 C 1.6 km/h
496 16-01-2017 17:15:00 -1.7 C 3.96 g/m*3 -1.7 C 1.6 km/h
497 16-01-2017 17:20:00 -1.8 C 3.89 g/m*3 -1.8 C 1.6 km/h
498 16-01-2017 17:25:00 -1.9 C 3.86 g/m*3 -1.9 C 3.2 km/h
499 16-01-2017 17:30:00 -1.9 C 3.86 g/m*3 -1.9 C 3.2 km/h
500 16-01-2017 17:35:00 -2.1 C 3.81 g/m*3 -2.1 C 3.2 km/h
Sensor: Nr:Datum:Temp:Abs-Feuchte:Windchill:Wind:
Aussen-T/F 501 16-01-2017 17:40:00 -2.1 C 3.81 g/m*3 -2.1 C 4.8 km/h
502 16-01-2017 17:45:00 -2.2 C 3.82 g/m*3 -2.2 C 4.8 km/h
503 16-01-2017 17:50:00 -2.2 C 3.82 g/m*3 -2.2 C 1.6 km/h
504 16-01-2017 17:55:00 -2.2 C 3.82 g/m*3 -2.2 C 1.6 km/h
505 16-01-2017 18:00:00 -2.3 C 3.8 g/m*3 -2.3 C 1.6 km/h
506 16-01-2017 18:05:00 -2.3 C 3.8 g/m*3 -2.3 C 1.6 km/h
507 16-01-2017 18:10:00 -2.3 C 3.8 g/m*3 -2.3 C 0 km/h
508 16-01-2017 18:15:00 -2.4 C 3.77 g/m*3 -2.4 C 0 km/h
509 16-01-2017 18:20:00 -2.5 C 3.74 g/m*3 -2.5 C 0 km/h
510 16-01-2017 18:25:00 -2.6 C 3.72 g/m*3 -2.6 C 0 km/h
511 16-01-2017 18:30:00 -2.7 C 3.69 g/m*3 -2.7 C 3.2 km/h
512 16-01-2017 18:35:00 -2.7 C 3.69 g/m*3 -2.7 C 3.2 km/h
513 16-01-2017 18:40:00 -2.8 C 3.71 g/m*3 -2.8 C 1.6 km/h
514 16-01-2017 18:45:00 -2.8 C 3.67 g/m*3 -2.8 C 0 km/h
515 16-01-2017 18:50:00 -2.9 C 3.64 g/m*3 -2.9 C 1.6 km/h
516 16-01-2017 18:55:00 -2.9 C 3.64 g/m*3 -2.9 C 1.6 km/h
517 16-01-2017 19:00:00 -3 C 3.65 g/m*3 -3 C 1.6 km/h
518 16-01-2017 19:05:00 -3.1 C 3.59 g/m*3 -3.1 C 0 km/h
519 16-01-2017 19:10:00 -3.2 C 3.56 g/m*3 -3.2 C 0 km/h
520 16-01-2017 19:15:00 -3.2 C 3.6 g/m*3 -3.2 C 0 km/h
521 16-01-2017 19:20:00 -3.3 C 3.58 g/m*3 -3.3 C 0 km/h
522 16-01-2017 19:25:00 -3.4 C 3.51 g/m*3 -3.4 C 0 km/h
523 16-01-2017 19:30:00 -3.5 C 3.53 g/m*3 -3.5 C 0 km/h
524 16-01-2017 19:35:00 -3.6 C 3.5 g/m*3 -3.6 C 0 km/h
525 16-01-2017 19:40:00 -3.6 C 3.5 g/m*3 -3.6 C 0 km/h
Sensor: Nr:Datum:Temp:Abs-Feuchte:Windchill:Wind:
Aussen-T/F 526 16-01-2017 19:45:00 -3.8 C 3.45 g/m*3 -3.8 C 0 km/h
527 16-01-2017 19:50:00 -3.8 C 3.45 g/m*3 -3.8 C 0 km/h
528 16-01-2017 19:55:00 -3.8 C 3.45 g/m*3 -3.8 C 0 km/h
529 16-01-2017 20:00:00 -3.8 C 3.45 g/m*3 -3.8 C 0 km/h
530 16-01-2017 20:05:00 -3.8 C 3.49 g/m*3 -3.8 C 1.6 km/h
531 16-01-2017 20:10:00 -3.8 C 3.49 g/m*3 -3.8 C 0 km/h
532 16-01-2017 20:15:00 -3.8 C 3.49 g/m*3 -3.8 C 0 km/h
533 16-01-2017 20:20:00 -3.9 C 3.43 g/m*3 -3.9 C 0 km/h
534 16-01-2017 20:25:00 -4.1 C 3.38 g/m*3 -4.1 C 0 km/h
535 16-01-2017 20:30:00 -4.2 C 3.35 g/m*3 -4.2 C 0 km/h
536 16-01-2017 20:35:00 -4.2 C 3.39 g/m*3 -4.2 C 0 km/h
537 16-01-2017 20:40:00 -4.3 C 3.33 g/m*3 -4.3 C 0 km/h
538 16-01-2017 20:45:00 -4.4 C 3.31 g/m*3 -4.4 C 0 km/h
539 16-01-2017 20:50:00 -4.4 C 3.34 g/m*3 -4.4 C 0 km/h
540 16-01-2017 20:55:00 -4.6 C 3.29 g/m*3 -4.6 C 0 km/h
541 16-01-2017 21:00:00 -4.6 C 3.29 g/m*3 -4.6 C 0 km/h
542 16-01-2017 21:05:00 -4.7 C 3.27 g/m*3 -4.7 C 0 km/h
543 16-01-2017 21:10:00 -4.7 C 3.27 g/m*3 -4.7 C 0 km/h
544 16-01-2017 21:15:00 -4.7 C 3.27 g/m*3 -4.7 C 0 km/h
545 16-01-2017 21:20:00 -4.7 C 3.27 g/m*3 -4.7 C 0 km/h
546 16-01-2017 21:25:00 -4.7 C 3.27 g/m*3 -4.7 C 0 km/h
547 16-01-2017 21:30:00 -4.7 C 3.27 g/m*3 -4.7 C 0 km/h
548 16-01-2017 21:35:00 -4.8 C 3.25 g/m*3 -4.8 C 0 km/h
549 16-01-2017 21:40:00 -4.9 C 3.22 g/m*3 -4.9 C 0 km/h
550 16-01-2017 21:45:00 -5 C 3.2 g/m*3 -5 C 0 km/h
Sensor: Nr:Datum:Temp:Abs-Feuchte:Windchill:Wind:
Aussen-T/F 551 16-01-2017 21:50:00 -5.1 C 3.18 g/m*3 -5.1 C 0 km/h
552 16-01-2017 21:55:00 -5.2 C 3.15 g/m*3 -5.2 C 0 km/h
553 16-01-2017 22:00:00 -5.3 C 3.13 g/m*3 -5.3 C 0 km/h
554 16-01-2017 22:05:00 -5.3 C 3.13 g/m*3 -5.3 C 0 km/h
555 16-01-2017 22:10:00 -5.3 C 3.13 g/m*3 -5.3 C 0 km/h
556 16-01-2017 22:15:00 -5.3 C 3.13 g/m*3 -5.3 C 0 km/h
557 16-01-2017 22:20:00 -5.3 C 3.13 g/m*3 -5.3 C 0 km/h
558 16-01-2017 22:25:00 -5.4 C 3.11 g/m*3 -5.4 C 0 km/h
559 16-01-2017 22:30:00 -5.5 C 3.09 g/m*3 -5.5 C 0 km/h
560 16-01-2017 22:35:00 -5.5 C 3.09 g/m*3 -5.5 C 0 km/h
561 16-01-2017 22:40:00 -5.4 C 3.11 g/m*3 -5.4 C 0 km/h
562 16-01-2017 22:45:00 -5.4 C 3.11 g/m*3 -5.4 C 0 km/h
563 16-01-2017 22:50:00 -5.4 C 3.14 g/m*3 -5.4 C 0 km/h
564 16-01-2017 22:55:00 -5.4 C 3.14 g/m*3 -5.4 C 0 km/h
565 16-01-2017 23:00:00 -5.5 C 3.09 g/m*3 -5.5 C 0 km/h
566 16-01-2017 23:05:00 -5.7 C 3.04 g/m*3 -5.7 C 0 km/h
567 16-01-2017 23:10:00 -5.8 C 3.02 g/m*3 -5.8 C 0 km/h
568 16-01-2017 23:15:00 -5.8 C 3.02 g/m*3 -5.8 C 0 km/h
569 16-01-2017 23:20:00 -5.7 C 3.04 g/m*3 -5.7 C 0 km/h
570 16-01-2017 23:25:00 -5.7 C 3.04 g/m*3 -5.7 C 0 km/h
571 16-01-2017 23:30:00 -5.7 C 3.07 g/m*3 -5.7 C 0 km/h
572 16-01-2017 23:35:00 -5.7 C 3.04 g/m*3 -5.7 C 0 km/h
573 16-01-2017 23:40:00 -5.8 C 3.02 g/m*3 -5.8 C 0 km/h
574 16-01-2017 23:45:00 -5.8 C 3.02 g/m*3 -5.8 C 0 km/h
575 16-01-2017 23:50:00 -5.8 C 3.02 g/m*3 -5.8 C 0 km/h
Sensor: Nr:Datum:Temp:Abs-Feuchte:Windchill:Wind:
Aussen-T/F 576 16-01-2017 23:55:00 -5.9 C 3 g/m*3 -5.9 C 0 km/h
577 17-01-2017 00:00:00 -5.9 C 3 g/m*3 -5.9 C 0 km/h
578 17-01-2017 00:05:00 -6 C 2.98 g/m*3 -6 C 0 km/h
579 17-01-2017 00:10:00 -6.1 C 2.96 g/m*3 -6.1 C 0 km/h
580 17-01-2017 00:15:00 -6.2 C 2.93 g/m*3 -6.2 C 0 km/h
581 17-01-2017 00:20:00 -6.2 C 2.93 g/m*3 -6.2 C 0 km/h
582 17-01-2017 00:25:00 -6.3 C 2.91 g/m*3 -6.3 C 0 km/h
583 17-01-2017 00:30:00 -6.3 C 2.91 g/m*3 -6.3 C 0 km/h
584 17-01-2017 00:35:00 -6.3 C 2.91 g/m*3 -6.3 C 0 km/h
585 17-01-2017 00:40:00 -6.3 C 2.91 g/m*3 -6.3 C 0 km/h
586 17-01-2017 00:45:00 -6.3 C 2.91 g/m*3 -6.3 C 0 km/h
587 17-01-2017 00:50:00 -6.3 C 2.91 g/m*3 -6.3 C 0 km/h
588 17-01-2017 00:55:00 -6.4 C 2.89 g/m*3 -6.4 C 0 km/h
589 17-01-2017 01:00:00 -6.4 C 2.89 g/m*3 -6.4 C 0 km/h
590 17-01-2017 01:05:00 -6.5 C 2.87 g/m*3 -6.5 C 0 km/h
591 17-01-2017 01:10:00 -6.6 C 2.85 g/m*3 -6.6 C 0 km/h
592 17-01-2017 01:15:00 -6.6 C 2.85 g/m*3 -6.6 C 0 km/h
593 17-01-2017 01:20:00 -6.7 C 2.83 g/m*3 -6.7 C 0 km/h
594 17-01-2017 01:25:00 -6.6 C 2.85 g/m*3 -6.6 C 0 km/h
595 17-01-2017 01:30:00 -6.6 C 2.85 g/m*3 -6.6 C 0 km/h
596 17-01-2017 01:35:00 -6.6 C 2.85 g/m*3 -6.6 C 0 km/h
597 17-01-2017 01:40:00 -6.7 C 2.83 g/m*3 -6.7 C 0 km/h
598 17-01-2017 01:45:00 -6.7 C 2.83 g/m*3 -6.7 C 0 km/h
599 17-01-2017 01:50:00 -6.8 C 2.81 g/m*3 -6.8 C 0 km/h
600 17-01-2017 01:55:00 -6.8 C 2.81 g/m*3 -6.8 C 0 km/h
Sensor: Nr:Datum:Temp:Abs-Feuchte:Windchill:Wind:
Aussen-T/F 601 17-01-2017 02:00:00 -6.8 C 2.81 g/m*3 -6.8 C 0 km/h
602 17-01-2017 02:05:00 -6.8 C 2.81 g/m*3 -6.8 C 0 km/h
603 17-01-2017 02:10:00 -6.9 C 2.79 g/m*3 -6.9 C 0 km/h
604 17-01-2017 02:15:00 -6.9 C 2.79 g/m*3 -6.9 C 0 km/h
605 17-01-2017 02:20:00 -6.8 C 2.81 g/m*3 -6.8 C 0 km/h
606 17-01-2017 02:25:00 -6.8 C 2.81 g/m*3 -6.8 C 0 km/h
607 17-01-2017 02:30:00 -6.8 C 2.81 g/m*3 -6.8 C 0 km/h
608 17-01-2017 02:35:00 -6.8 C 2.81 g/m*3 -6.8 C 0 km/h
609 17-01-2017 02:40:00 -6.7 C 2.83 g/m*3 -6.7 C 0 km/h
610 17-01-2017 02:45:00 -6.5 C 2.9 g/m*3 -6.5 C 0 km/h
611 17-01-2017 02:50:00 -6.3 C 2.94 g/m*3 -6.3 C 0 km/h
612 17-01-2017 02:55:00 -6.1 C 2.99 g/m*3 -6.1 C 0 km/h
613 17-01-2017 03:00:00 -5.9 C 3.03 g/m*3 -5.9 C 0 km/h
614 17-01-2017 03:05:00 -5.7 C 3.07 g/m*3 -5.7 C 0 km/h
615 17-01-2017 03:10:00 -5.6 C 3.1 g/m*3 -5.6 C 0 km/h
616 17-01-2017 03:15:00 -5.4 C 3.14 g/m*3 -5.4 C 0 km/h
617 17-01-2017 03:20:00 -5.3 C 3.17 g/m*3 -5.3 C 0 km/h
618 17-01-2017 03:25:00 -5.1 C 3.25 g/m*3 -5.1 C 0 km/h
619 17-01-2017 03:30:00 -5 C 3.27 g/m*3 -5 C 0 km/h
620 17-01-2017 03:35:00 -4.9 C 3.26 g/m*3 -4.9 C 0 km/h
621 17-01-2017 03:40:00 -4.8 C 3.28 g/m*3 -4.8 C 0 km/h
622 17-01-2017 03:45:00 -4.7 C 3.31 g/m*3 -4.7 C 0 km/h
623 17-01-2017 03:50:00 -4.7 C 3.31 g/m*3 -4.7 C 0 km/h
624 17-01-2017 03:55:00 -4.6 C 3.33 g/m*3 -4.6 C 0 km/h
625 17-01-2017 04:00:00 -4.6 C 3.33 g/m*3 -4.6 C 0 km/h
Sensor: Nr:Datum:Temp:Abs-Feuchte:Windchill:Wind:
Aussen-T/F 626 17-01-2017 04:05:00 -4.6 C 3.33 g/m*3 -4.6 C 0 km/h
627 17-01-2017 04:10:00 -4.5 C 3.35 g/m*3 -4.5 C 0 km/h
628 17-01-2017 04:15:00 -4.5 C 3.35 g/m*3 -4.5 C 0 km/h
629 17-01-2017 04:20:00 -4.4 C 3.38 g/m*3 -4.4 C 0 km/h
630 17-01-2017 04:25:00 -4.4 C 3.38 g/m*3 -4.4 C 0 km/h
631 17-01-2017 04:30:00 -4.4 C 3.38 g/m*3 -4.4 C 0 km/h
632 17-01-2017 04:35:00 -4.3 C 3.4 g/m*3 -4.3 C 0 km/h
633 17-01-2017 04:40:00 -4.3 C 3.4 g/m*3 -4.3 C 0 km/h
634 17-01-2017 04:45:00 -4.4 C 3.38 g/m*3 -4.4 C 1.6 km/h
635 17-01-2017 04:50:00 -4.4 C 3.38 g/m*3 -4.4 C 1.6 km/h
636 17-01-2017 04:55:00 -4.4 C 3.38 g/m*3 -4.4 C 0 km/h
637 17-01-2017 05:00:00 -4.4 C 3.34 g/m*3 -4.4 C 0 km/h
638 17-01-2017 05:05:00 -4.5 C 3.32 g/m*3 -4.5 C 0 km/h
639 17-01-2017 05:10:00 -4.6 C 3.33 g/m*3 -4.6 C 0 km/h
640 17-01-2017 05:15:00 -4.6 C 3.33 g/m*3 -4.6 C 0 km/h
641 17-01-2017 05:20:00 -4.6 C 3.29 g/m*3 -4.6 C 0 km/h
642 17-01-2017 05:25:00 -4.6 C 3.29 g/m*3 -4.6 C 0 km/h
643 17-01-2017 05:30:00 -4.6 C 3.29 g/m*3 -4.6 C 0 km/h
644 17-01-2017 05:35:00 -4.6 C 3.29 g/m*3 -4.6 C 0 km/h
645 17-01-2017 05:40:00 -4.6 C 3.33 g/m*3 -4.6 C 0 km/h
646 17-01-2017 05:45:00 -4.6 C 3.33 g/m*3 -4.6 C 1.6 km/h
647 17-01-2017 05:50:00 -4.5 C 3.35 g/m*3 -4.5 C 0 km/h
648 17-01-2017 05:55:00 -4.5 C 3.35 g/m*3 -4.5 C 0 km/h
649 17-01-2017 06:00:00 -4.4 C 3.38 g/m*3 -4.4 C 0 km/h
650 17-01-2017 06:05:00 -4.4 C 3.38 g/m*3 -4.4 C 0 km/h
Sensor: Nr:Datum:Temp:Abs-Feuchte:Windchill:Wind:
Aussen-T/F 651 17-01-2017 06:10:00 -4.3 C 3.37 g/m*3 -4.3 C 3.2 km/h
652 17-01-2017 06:15:00 -4.3 C 3.37 g/m*3 -4.3 C 0 km/h
653 17-01-2017 06:20:00 -4.3 C 3.37 g/m*3 -4.3 C 0 km/h
654 17-01-2017 06:25:00 -4.3 C 3.37 g/m*3 -4.3 C 0 km/h
655 17-01-2017 06:30:00 -4.3 C 3.37 g/m*3 -4.3 C 0 km/h
656 17-01-2017 06:35:00 -4.2 C 3.39 g/m*3 -4.2 C 0 km/h
657 17-01-2017 06:40:00 -4.2 C 3.39 g/m*3 -4.2 C 0 km/h
658 17-01-2017 06:45:00 -4.2 C 3.39 g/m*3 -4.2 C 0 km/h
659 17-01-2017 06:50:00 -4.2 C 3.39 g/m*3 -4.2 C 0 km/h
660 17-01-2017 06:55:00 -4.2 C 3.39 g/m*3 -4.2 C 0 km/h
661 17-01-2017 07:00:00 -4.2 C 3.39 g/m*3 -4.2 C 0 km/h
662 17-01-2017 07:05:00 -4.2 C 3.39 g/m*3 -4.2 C 0 km/h
663 17-01-2017 07:10:00 -4.1 C 3.41 g/m*3 -4.1 C 0 km/h
664 17-01-2017 07:15:00 -4.1 C 3.41 g/m*3 -4.1 C 0 km/h
665 17-01-2017 07:20:00 -4.1 C 3.41 g/m*3 -4.1 C 0 km/h
666 17-01-2017 07:25:00 -4.1 C 3.41 g/m*3 -4.1 C 0 km/h
667 17-01-2017 07:30:00 -4 C 3.44 g/m*3 -4 C 0 km/h
668 17-01-2017 07:35:00 -4 C 3.4 g/m*3 -4 C 0 km/h
669 17-01-2017 07:40:00 -4 C 3.4 g/m*3 -4 C 0 km/h
670 17-01-2017 07:45:00 -4 C 3.44 g/m*3 -4 C 0 km/h
671 17-01-2017 07:50:00 -4 C 3.4 g/m*3 -4 C 0 km/h
672 17-01-2017 07:55:00 -3.9 C 3.43 g/m*3 -3.9 C 0 km/h
673 17-01-2017 08:00:00 -3.9 C 3.43 g/m*3 -3.9 C 0 km/h
674 17-01-2017 08:05:00 -3.9 C 3.43 g/m*3 -3.9 C 0 km/h
675 17-01-2017 08:10:00 -3.9 C 3.43 g/m*3 -3.9 C 0 km/h
Sensor: Nr:Datum:Temp:Abs-Feuchte:Windchill:Wind:
Aussen-T/F 676 17-01-2017 08:15:00 -3.9 C 3.43 g/m*3 -3.9 C 0 km/h
677 17-01-2017 08:20:00 -3.9 C 3.43 g/m*3 -3.9 C 0 km/h
678 17-01-2017 08:25:00 -3.9 C 3.43 g/m*3 -3.9 C 0 km/h
679 17-01-2017 08:30:00 -3.9 C 3.43 g/m*3 -3.9 C 0 km/h
680 17-01-2017 08:35:00 -3.9 C 3.43 g/m*3 -3.9 C 0 km/h
681 17-01-2017 08:40:00 -3.9 C 3.43 g/m*3 -3.9 C 0 km/h
682 17-01-2017 08:45:00 -3.9 C 3.43 g/m*3 -3.9 C 0 km/h
683 17-01-2017 08:50:00 -3.9 C 3.43 g/m*3 -3.9 C 0 km/h
684 17-01-2017 08:55:00 -3.9 C 3.43 g/m*3 -3.9 C 0 km/h
685 17-01-2017 09:00:00 -3.8 C 3.45 g/m*3 -3.8 C 0 km/h
686 17-01-2017 09:05:00 -3.8 C 3.45 g/m*3 -3.8 C 0 km/h
687 17-01-2017 09:10:00 -3.8 C 3.45 g/m*3 -3.8 C 0 km/h
688 17-01-2017 09:15:00 -3.9 C 3.43 g/m*3 -3.9 C 0 km/h
689 17-01-2017 09:20:00 -3.9 C 3.43 g/m*3 -3.9 C 0 km/h
690 17-01-2017 09:25:00 -4 C 3.37 g/m*3 -4 C 0 km/h
691 17-01-2017 09:30:00 -4 C 3.4 g/m*3 -4 C 0 km/h
692 17-01-2017 09:35:00 -4.1 C 3.38 g/m*3 -4.1 C 0 km/h
693 17-01-2017 09:40:00 -4.1 C 3.38 g/m*3 -4.1 C 1.6 km/h
694 17-01-2017 09:45:00 -4.2 C 3.32 g/m*3 -4.2 C 1.6 km/h
695 17-01-2017 09:50:00 -4.3 C 3.29 g/m*3 -4.3 C 0 km/h
696 17-01-2017 09:55:00 -4.3 C 3.29 g/m*3 -4.3 C 0 km/h
697 17-01-2017 10:00:00 -4.4 C 3.27 g/m*3 -4.4 C 1.6 km/h
698 17-01-2017 10:05:00 -4.5 C 3.25 g/m*3 -4.5 C 1.6 km/h
699 17-01-2017 10:10:00 -4.6 C 3.22 g/m*3 -4.6 C 3.2 km/h
700 17-01-2017 10:15:00 -4.6 C 3.22 g/m*3 -4.6 C 3.2 km/h
Sensor: Nr:Datum:Temp:Abs-Feuchte:Windchill:Wind:
Aussen-T/F 701 17-01-2017 10:20:00 -4.6 C 3.22 g/m*3 -4.6 C 1.6 km/h
702 17-01-2017 10:25:00 -4.6 C 3.22 g/m*3 -4.6 C 0 km/h
703 17-01-2017 10:30:00 -4.5 C 3.25 g/m*3 -4.5 C 0 km/h
704 17-01-2017 10:35:00 -4.5 C 3.25 g/m*3 -4.5 C 0 km/h
705 17-01-2017 10:40:00 -4.5 C 3.25 g/m*3 -4.5 C 0 km/h
706 17-01-2017 10:45:00 -4.4 C 3.27 g/m*3 -4.4 C 0 km/h
707 17-01-2017 10:50:00 -4.4 C 3.27 g/m*3 -4.4 C 0 km/h
708 17-01-2017 10:55:00 -4.3 C 3.29 g/m*3 -4.3 C 0 km/h
709 17-01-2017 11:00:00 -4.3 C 3.29 g/m*3 -4.3 C 0 km/h
710 17-01-2017 11:05:00 -4.2 C 3.32 g/m*3 -4.2 C 0 km/h
711 17-01-2017 11:10:00 -4.1 C 3.34 g/m*3 -4.1 C 0 km/h
712 17-01-2017 11:15:00 -4.1 C 3.34 g/m*3 -4.1 C 0 km/h
713 17-01-2017 11:20:00 -3.9 C 3.43 g/m*3 -3.9 C 0 km/h
714 17-01-2017 11:25:00 -3.8 C 3.41 g/m*3 -3.8 C 0 km/h
715 17-01-2017 11:30:00 -3.7 C 3.44 g/m*3 -3.7 C 0 km/h
716 17-01-2017 11:35:00 -3.6 C 3.5 g/m*3 -3.6 C 0 km/h
717 17-01-2017 11:40:00 -3.4 C 3.51 g/m*3 -3.4 C 0 km/h
718 17-01-2017 11:45:00 -3.2 C 3.56 g/m*3 -3.2 C 0 km/h
719 17-01-2017 11:50:00 -2.9 C 3.64 g/m*3 -2.9 C 0 km/h
720 17-01-2017 11:55:00 -2.7 C 3.69 g/m*3 -2.7 C 0 km/h
721 17-01-2017 12:00:00 -2.5 C 3.7 g/m*3 -2.5 C 0 km/h
722 17-01-2017 12:05:00 -2.3 C 3.67 g/m*3 -2.3 C 0 km/h
723 17-01-2017 12:10:00 -2.2 C 3.7 g/m*3 -2.2 C 0 km/h
724 17-01-2017 12:15:00 -2.1 C 3.73 g/m*3 -2.1 C 0 km/h
725 17-01-2017 12:20:00 -1.9 C 3.74 g/m*3 -1.9 C 0 km/h
Sensor: Nr:Datum:Temp:Abs-Feuchte:Windchill:Wind:
Aussen-T/F 726 17-01-2017 12:25:00 -1.8 C 3.72 g/m*3 -1.8 C 0 km/h
727 17-01-2017 12:30:00 -1.8 C 3.68 g/m*3 -1.8 C 0 km/h
728 17-01-2017 12:35:00 -1.7 C 3.7 g/m*3 -1.7 C 0 km/h
729 17-01-2017 12:40:00 -1.7 C 3.66 g/m*3 -1.7 C 3.2 km/h
730 17-01-2017 12:45:00 -1.6 C 3.68 g/m*3 -1.6 C 1.6 km/h
731 17-01-2017 12:50:00 -1.6 C 3.68 g/m*3 -1.6 C 1.6 km/h
732 17-01-2017 12:55:00 -1.6 C 3.73 g/m*3 -1.6 C 0 km/h
733 17-01-2017 13:00:00 -1.6 C 3.73 g/m*3 -1.6 C 1.6 km/h
734 17-01-2017 13:05:00 -1.6 C 3.73 g/m*3 -1.6 C 4.8 km/h
735 17-01-2017 13:10:00 -1.5 C 3.71 g/m*3 -1.5 C 4.8 km/h
736 17-01-2017 13:15:00 -1.5 C 3.75 g/m*3 -1.5 C 0 km/h
737 17-01-2017 13:20:00 -1.4 C 3.78 g/m*3 -1.4 C 1.6 km/h
738 17-01-2017 13:25:00 -1.3 C 3.76 g/m*3 -1.3 C 1.6 km/h
739 17-01-2017 13:30:00 -1.1 C 3.82 g/m*3 -1.1 C 3.2 km/h
740 17-01-2017 13:35:00 -0.9 C 3.82 g/m*3 -3.83 C 8.1 km/h
741 17-01-2017 13:40:00 -0.7 C 3.88 g/m*3 -4.48 C 11.3 km/h
742 17-01-2017 13:45:00 -0.7 C 3.88 g/m*3 -3.59 C 8.1 km/h
743 17-01-2017 13:50:00 -0.7 C 3.88 g/m*3 -4.48 C 11.3 km/h
744 17-01-2017 13:55:00 -0.7 C 3.83 g/m*3 -3.59 C 8.1 km/h
745 17-01-2017 14:00:00 -0.6 C 3.86 g/m*3 -3.48 C 8.1 km/h
746 17-01-2017 14:05:00 -0.6 C 3.86 g/m*3 -3.48 C 8.1 km/h
747 17-01-2017 14:10:00 -0.6 C 3.86 g/m*3 -2.88 C 6.4 km/h
748 17-01-2017 14:15:00 -0.6 C 3.81 g/m*3 -3.48 C 8.1 km/h
749 17-01-2017 14:20:00 -0.6 C 3.86 g/m*3 -2.88 C 6.4 km/h
750 17-01-2017 14:25:00 -0.6 C 3.81 g/m*3 -3.95 C 9.7 km/h
Sensor: Nr:Datum:Temp:Abs-Feuchte:Windchill:Wind:
Aussen-T/F 751 17-01-2017 14:30:00 -0.6 C 3.81 g/m*3 -4.36 C 11.3 km/h
752 17-01-2017 14:35:00 -0.6 C 3.81 g/m*3 -3.95 C 9.7 km/h
753 17-01-2017 14:40:00 -0.5 C 3.84 g/m*3 -3.36 C 8.1 km/h
754 17-01-2017 14:45:00 -0.5 C 3.84 g/m*3 -0.5 C 4.8 km/h
755 17-01-2017 14:50:00 -0.4 C 3.91 g/m*3 -0.4 C 4.8 km/h
756 17-01-2017 14:55:00 -0.4 C 3.86 g/m*3 -2.64 C 6.4 km/h
757 17-01-2017 15:00:00 -0.3 C 3.89 g/m*3 -3.12 C 8.1 km/h
758 17-01-2017 15:05:00 -0.3 C 3.84 g/m*3 -4 C 11.3 km/h
759 17-01-2017 15:10:00 -0.3 C 3.89 g/m*3 -3.12 C 8.1 km/h
760 17-01-2017 15:15:00 -0.2 C 3.92 g/m*3 -3 C 8.1 km/h
761 17-01-2017 15:20:00 -0.2 C 3.87 g/m*3 -3.88 C 11.3 km/h
762 17-01-2017 15:25:00 -0.2 C 3.92 g/m*3 -3.47 C 9.7 km/h
763 17-01-2017 15:30:00 -0.3 C 3.84 g/m*3 -3.59 C 9.7 km/h
764 17-01-2017 15:35:00 -0.4 C 3.86 g/m*3 -0.4 C 4.8 km/h
765 17-01-2017 15:40:00 -0.6 C 3.81 g/m*3 -3.48 C 8.1 km/h
766 17-01-2017 15:45:00 -0.6 C 3.81 g/m*3 -3.95 C 9.7 km/h
767 17-01-2017 15:50:00 -0.7 C 3.78 g/m*3 -2.99 C 6.4 km/h
768 17-01-2017 15:55:00 -0.8 C 3.8 g/m*3 -0.8 C 1.6 km/h
769 17-01-2017 16:00:00 -0.9 C 3.82 g/m*3 -0.9 C 0 km/h
770 17-01-2017 16:05:00 -1.2 C 3.74 g/m*3 -1.2 C 0 km/h
771 17-01-2017 16:10:00 -1.3 C 3.76 g/m*3 -1.3 C 0 km/h
772 17-01-2017 16:15:00 -1.4 C 3.78 g/m*3 -1.4 C 0 km/h
773 17-01-2017 16:20:00 -1.6 C 3.73 g/m*3 -1.6 C 0 km/h
774 17-01-2017 16:25:00 -1.7 C 3.75 g/m*3 -1.7 C 3.2 km/h
775 17-01-2017 16:30:00 -1.7 C 3.75 g/m*3 -1.7 C 3.2 km/h
Sensor: Nr:Datum:Temp:Abs-Feuchte:Windchill:Wind:
Aussen-T/F 776 17-01-2017 16:35:00 -1.7 C 3.75 g/m*3 -1.7 C 3.2 km/h
777 17-01-2017 16:40:00 -1.8 C 3.72 g/m*3 -1.8 C 3.2 km/h
778 17-01-2017 16:45:00 -1.8 C 3.76 g/m*3 -1.8 C 3.2 km/h
779 17-01-2017 16:50:00 -1.8 C 3.76 g/m*3 -1.8 C 0 km/h
780 17-01-2017 16:55:00 -1.9 C 3.74 g/m*3 -1.9 C 4.8 km/h
781 17-01-2017 17:00:00 -1.9 C 3.74 g/m*3 -1.9 C 1.6 km/h
782 17-01-2017 17:05:00 -2.1 C 3.68 g/m*3 -2.1 C 0 km/h
783 17-01-2017 17:10:00 -2.1 C 3.73 g/m*3 -2.1 C 3.2 km/h
784 17-01-2017 17:15:00 -2.2 C 3.7 g/m*3 -2.2 C 1.6 km/h
785 17-01-2017 17:20:00 -2.2 C 3.7 g/m*3 -2.2 C 3.2 km/h
786 17-01-2017 17:25:00 -2.3 C 3.67 g/m*3 -2.3 C 1.6 km/h
787 17-01-2017 17:30:00 -2.4 C 3.65 g/m*3 -2.4 C 3.2 km/h
788 17-01-2017 17:35:00 -2.6 C 3.6 g/m*3 -2.6 C 3.2 km/h
789 17-01-2017 17:40:00 -2.7 C 3.57 g/m*3 -2.7 C 3.2 km/h
790 17-01-2017 17:45:00 -2.8 C 3.55 g/m*3 -2.8 C 3.2 km/h
791 17-01-2017 17:50:00 -2.9 C 3.52 g/m*3 -2.9 C 1.6 km/h
792 17-01-2017 17:55:00 -3.1 C 3.51 g/m*3 -3.1 C 3.2 km/h
793 17-01-2017 18:00:00 -3.2 C 3.49 g/m*3 -3.2 C 4.8 km/h
794 17-01-2017 18:05:00 -3.2 C 3.49 g/m*3 -3.2 C 3.2 km/h
795 17-01-2017 18:10:00 -3.3 C 3.46 g/m*3 -3.3 C 3.2 km/h
796 17-01-2017 18:15:00 -3.4 C 3.47 g/m*3 -3.4 C 3.2 km/h
797 17-01-2017 18:20:00 -3.4 C 3.47 g/m*3 -3.4 C 3.2 km/h
798 17-01-2017 18:25:00 -3.5 C 3.45 g/m*3 -3.5 C 3.2 km/h
799 17-01-2017 18:30:00 -3.6 C 3.43 g/m*3 -3.6 C 3.2 km/h
800 17-01-2017 18:35:00 -3.6 C 3.43 g/m*3 -3.6 C 1.6 km/h
Sensor: Nr:Datum:Temp:Abs-Feuchte:Windchill:Wind:
Aussen-T/F 801 17-01-2017 18:40:00 -3.6 C 3.46 g/m*3 -3.6 C 3.2 km/h
802 17-01-2017 18:45:00 -3.7 C 3.44 g/m*3 -3.7 C 1.6 km/h
803 17-01-2017 18:50:00 -3.6 C 3.46 g/m*3 -3.6 C 3.2 km/h
804 17-01-2017 18:55:00 -3.5 C 3.49 g/m*3 -3.5 C 0 km/h
805 17-01-2017 19:00:00 -3.5 C 3.49 g/m*3 -3.5 C 1.6 km/h
806 17-01-2017 19:05:00 -3.4 C 3.51 g/m*3 -3.4 C 0 km/h
807 17-01-2017 19:10:00 -3.5 C 3.49 g/m*3 -3.5 C 1.6 km/h
808 17-01-2017 19:15:00 -3.6 C 3.46 g/m*3 -3.6 C 1.6 km/h
809 17-01-2017 19:20:00 -3.7 C 3.44 g/m*3 -3.7 C 3.2 km/h
810 17-01-2017 19:25:00 -3.7 C 3.44 g/m*3 -3.7 C 3.2 km/h
811 17-01-2017 19:30:00 -3.6 C 3.46 g/m*3 -3.6 C 1.6 km/h
812 17-01-2017 19:35:00 -3.6 C 3.46 g/m*3 -3.6 C 3.2 km/h
813 17-01-2017 19:40:00 -3.6 C 3.46 g/m*3 -3.6 C 0 km/h
814 17-01-2017 19:45:00 -3.6 C 3.46 g/m*3 -3.6 C 1.6 km/h
815 17-01-2017 19:50:00 -3.6 C 3.46 g/m*3 -3.6 C 1.6 km/h
816 17-01-2017 19:55:00 -3.6 C 3.46 g/m*3 -3.6 C 4.8 km/h
817 17-01-2017 20:00:00 -3.6 C 3.46 g/m*3 -3.6 C 4.8 km/h
818 17-01-2017 20:05:00 -3.6 C 3.46 g/m*3 -3.6 C 3.2 km/h
819 17-01-2017 20:10:00 -3.7 C 3.4 g/m*3 -3.7 C 3.2 km/h
820 17-01-2017 20:15:00 -3.8 C 3.38 g/m*3 -3.8 C 1.6 km/h
821 17-01-2017 20:20:00 -3.9 C 3.35 g/m*3 -3.9 C 0 km/h
822 17-01-2017 20:25:00 -4 C 3.33 g/m*3 -4 C 1.6 km/h
823 17-01-2017 20:30:00 -4.1 C 3.31 g/m*3 -4.1 C 1.6 km/h
824 17-01-2017 20:35:00 -4.2 C 3.28 g/m*3 -4.2 C 1.6 km/h
825 17-01-2017 20:40:00 -4.3 C 3.26 g/m*3 -4.3 C 0 km/h
Sensor: Nr:Datum:Temp:Abs-Feuchte:Windchill:Wind:
Aussen-T/F 826 17-01-2017 20:45:00 -4.4 C 3.24 g/m*3 -4.4 C 1.6 km/h
827 17-01-2017 20:50:00 -4.4 C 3.24 g/m*3 -4.4 C 3.2 km/h
828 17-01-2017 20:55:00 -4.5 C 3.25 g/m*3 -4.5 C 3.2 km/h
829 17-01-2017 21:00:00 -4.5 C 3.25 g/m*3 -4.5 C 1.6 km/h
830 17-01-2017 21:05:00 -4.6 C 3.22 g/m*3 -4.6 C 0 km/h
831 17-01-2017 21:10:00 -4.7 C 3.2 g/m*3 -4.7 C 1.6 km/h
832 17-01-2017 21:15:00 -4.8 C 3.18 g/m*3 -4.8 C 1.6 km/h
833 17-01-2017 21:20:00 -4.8 C 3.18 g/m*3 -4.8 C 1.6 km/h
834 17-01-2017 21:25:00 -4.9 C 3.16 g/m*3 -4.9 C 0 km/h
835 17-01-2017 21:30:00 -5 C 3.13 g/m*3 -5 C 0 km/h
836 17-01-2017 21:35:00 -5.1 C 3.11 g/m*3 -5.1 C 0 km/h
837 17-01-2017 21:40:00 -5.1 C 3.11 g/m*3 -5.1 C 0 km/h
838 17-01-2017 21:45:00 -5.2 C 3.09 g/m*3 -5.2 C 0 km/h
839 17-01-2017 21:50:00 -5.3 C 3.07 g/m*3 -5.3 C 0 km/h
840 17-01-2017 21:55:00 -5.3 C 3.07 g/m*3 -5.3 C 0 km/h
841 17-01-2017 22:00:00 -5.3 C 3.1 g/m*3 -5.3 C 0 km/h
842 17-01-2017 22:05:00 -5.4 C 3.08 g/m*3 -5.4 C 0 km/h
843 17-01-2017 22:10:00 -5.4 C 3.08 g/m*3 -5.4 C 0 km/h
844 17-01-2017 22:15:00 -5.5 C 3.05 g/m*3 -5.5 C 0 km/h
845 17-01-2017 22:20:00 -5.6 C 3 g/m*3 -5.6 C 0 km/h
846 17-01-2017 22:25:00 -5.7 C 2.98 g/m*3 -5.7 C 0 km/h
847 17-01-2017 22:30:00 -5.8 C 2.99 g/m*3 -5.8 C 0 km/h
848 17-01-2017 22:35:00 -5.9 C 2.97 g/m*3 -5.9 C 0 km/h
849 17-01-2017 22:40:00 -5.9 C 2.97 g/m*3 -5.9 C 0 km/h
850 17-01-2017 22:45:00 -5.9 C 2.97 g/m*3 -5.9 C 0 km/h
Sensor: Nr:Datum:Temp:Abs-Feuchte:Windchill:Wind:
Aussen-T/F 851 17-01-2017 22:50:00 -5.8 C 2.99 g/m*3 -5.8 C 0 km/h
852 17-01-2017 22:55:00 -5.8 C 2.99 g/m*3 -5.8 C 0 km/h
853 17-01-2017 23:00:00 -5.8 C 2.99 g/m*3 -5.8 C 0 km/h
854 17-01-2017 23:05:00 -6 C 2.95 g/m*3 -6 C 0 km/h
855 17-01-2017 23:10:00 -6.2 C 2.9 g/m*3 -6.2 C 0 km/h
856 17-01-2017 23:15:00 -6.2 C 2.9 g/m*3 -6.2 C 0 km/h
857 17-01-2017 23:20:00 -6.2 C 2.9 g/m*3 -6.2 C 0 km/h
858 17-01-2017 23:25:00 -6.1 C 2.92 g/m*3 -6.1 C 0 km/h
859 17-01-2017 23:30:00 -6.2 C 2.9 g/m*3 -6.2 C 0 km/h
860 17-01-2017 23:35:00 -6.3 C 2.88 g/m*3 -6.3 C 0 km/h
861 17-01-2017 23:40:00 -6.3 C 2.88 g/m*3 -6.3 C 0 km/h
862 17-01-2017 23:45:00 -6.3 C 2.88 g/m*3 -6.3 C 0 km/h
863 17-01-2017 23:50:00 -6.3 C 2.91 g/m*3 -6.3 C 0 km/h
864 17-01-2017 23:55:00 -6.3 C 2.91 g/m*3 -6.3 C 0 km/h
865 18-01-2017 00:00:00 -6.4 C 2.86 g/m*3 -6.4 C 0 km/h
866 18-01-2017 00:05:00 -6.4 C 2.89 g/m*3 -6.4 C 0 km/h
867 18-01-2017 00:10:00 -6.4 C 2.89 g/m*3 -6.4 C 0 km/h
868 18-01-2017 00:15:00 -6.5 C 2.84 g/m*3 -6.5 C 0 km/h
869 18-01-2017 00:20:00 -6.5 C 2.84 g/m*3 -6.5 C 0 km/h
870 18-01-2017 00:25:00 -6.6 C 2.82 g/m*3 -6.6 C 0 km/h
871 18-01-2017 00:30:00 -6.5 C 2.87 g/m*3 -6.5 C 0 km/h
872 18-01-2017 00:35:00 -6.6 C 2.85 g/m*3 -6.6 C 0 km/h
873 18-01-2017 00:40:00 -6.6 C 2.82 g/m*3 -6.6 C 0 km/h
874 18-01-2017 00:45:00 -6.7 C 2.83 g/m*3 -6.7 C 0 km/h
875 18-01-2017 00:50:00 -6.7 C 2.8 g/m*3 -6.7 C 0 km/h
Sensor: Nr:Datum:Temp:Abs-Feuchte:Windchill:Wind:
Aussen-T/F 876 18-01-2017 00:55:00 -6.7 C 2.83 g/m*3 -6.7 C 0 km/h
877 18-01-2017 01:00:00 -6.7 C 2.83 g/m*3 -6.7 C 0 km/h
878 18-01-2017 01:05:00 -6.8 C 2.78 g/m*3 -6.8 C 0 km/h
879 18-01-2017 01:10:00 -6.9 C 2.76 g/m*3 -6.9 C 0 km/h
880 18-01-2017 01:15:00 -6.8 C 2.81 g/m*3 -6.8 C 0 km/h
881 18-01-2017 01:20:00 -6.8 C 2.81 g/m*3 -6.8 C 0 km/h
882 18-01-2017 01:25:00 -6.8 C 2.81 g/m*3 -6.8 C 0 km/h
883 18-01-2017 01:30:00 -6.8 C 2.81 g/m*3 -6.8 C 0 km/h
884 18-01-2017 01:35:00 -6.8 C 2.81 g/m*3 -6.8 C 0 km/h
885 18-01-2017 01:40:00 -6.9 C 2.79 g/m*3 -6.9 C 0 km/h
886 18-01-2017 01:45:00 -7 C 2.77 g/m*3 -7 C 0 km/h
887 18-01-2017 01:50:00 -7.1 C 2.72 g/m*3 -7.1 C 0 km/h
888 18-01-2017 01:55:00 -7.1 C 2.72 g/m*3 -7.1 C 0 km/h
889 18-01-2017 02:00:00 -7.1 C 2.75 g/m*3 -7.1 C 0 km/h
890 18-01-2017 02:05:00 -7.1 C 2.75 g/m*3 -7.1 C 0 km/h
891 18-01-2017 02:10:00 -7.1 C 2.75 g/m*3 -7.1 C 0 km/h
892 18-01-2017 02:15:00 -7.1 C 2.75 g/m*3 -7.1 C 0 km/h
893 18-01-2017 02:20:00 -7.2 C 2.73 g/m*3 -7.2 C 0 km/h
894 18-01-2017 02:25:00 -7.2 C 2.73 g/m*3 -7.2 C 0 km/h
895 18-01-2017 02:30:00 -7.2 C 2.73 g/m*3 -7.2 C 0 km/h
896 18-01-2017 02:35:00 -7.3 C 2.71 g/m*3 -7.3 C 0 km/h
897 18-01-2017 02:40:00 -7.4 C 2.66 g/m*3 -7.4 C 0 km/h
898 18-01-2017 02:45:00 -7.4 C 2.69 g/m*3 -7.4 C 0 km/h
899 18-01-2017 02:50:00 -7.4 C 2.69 g/m*3 -7.4 C 0 km/h
900 18-01-2017 02:55:00 -7.4 C 2.69 g/m*3 -7.4 C 0 km/h
Sensor: Nr:Datum:Temp:Abs-Feuchte:Windchill:Wind:
Aussen-T/F 901 18-01-2017 03:00:00 -7.4 C 2.69 g/m*3 -7.4 C 0 km/h
902 18-01-2017 03:05:00 -7.4 C 2.69 g/m*3 -7.4 C 0 km/h
903 18-01-2017 03:10:00 -7.5 C 2.67 g/m*3 -7.5 C 0 km/h
904 18-01-2017 03:15:00 -7.5 C 2.67 g/m*3 -7.5 C 0 km/h
905 18-01-2017 03:20:00 -7.6 C 2.65 g/m*3 -7.6 C 0 km/h
906 18-01-2017 03:25:00 -7.7 C 2.6 g/m*3 -7.7 C 0 km/h
907 18-01-2017 03:30:00 -7.7 C 2.63 g/m*3 -7.7 C 0 km/h
908 18-01-2017 03:35:00 -7.6 C 2.65 g/m*3 -7.6 C 0 km/h
909 18-01-2017 03:40:00 -7.6 C 2.65 g/m*3 -7.6 C 0 km/h
910 18-01-2017 03:45:00 -7.5 C 2.67 g/m*3 -7.5 C 0 km/h
911 18-01-2017 03:50:00 -7.5 C 2.67 g/m*3 -7.5 C 0 km/h
912 18-01-2017 03:55:00 -7.6 C 2.65 g/m*3 -7.6 C 0 km/h
913 18-01-2017 04:00:00 -7.6 C 2.65 g/m*3 -7.6 C 0 km/h
914 18-01-2017 04:05:00 -7.7 C 2.63 g/m*3 -7.7 C 0 km/h
915 18-01-2017 04:10:00 -7.7 C 2.63 g/m*3 -7.7 C 0 km/h
916 18-01-2017 04:15:00 -7.7 C 2.63 g/m*3 -7.7 C 0 km/h
917 18-01-2017 04:20:00 -7.7 C 2.63 g/m*3 -7.7 C 0 km/h
918 18-01-2017 04:25:00 -7.8 C 2.61 g/m*3 -7.8 C 0 km/h
919 18-01-2017 04:30:00 -7.8 C 2.61 g/m*3 -7.8 C 0 km/h
920 18-01-2017 04:35:00 -7.8 C 2.61 g/m*3 -7.8 C 0 km/h
921 18-01-2017 04:40:00 -7.8 C 2.61 g/m*3 -7.8 C 0 km/h
922 18-01-2017 04:45:00 -7.8 C 2.61 g/m*3 -7.8 C 0 km/h
923 18-01-2017 04:50:00 -7.8 C 2.61 g/m*3 -7.8 C 0 km/h
924 18-01-2017 04:55:00 -7.8 C 2.61 g/m*3 -7.8 C 0 km/h
925 18-01-2017 05:00:00 -7.8 C 2.61 g/m*3 -7.8 C 0 km/h
Sensor: Nr:Datum:Temp:Abs-Feuchte:Windchill:Wind:
Aussen-T/F 926 18-01-2017 05:05:00 -7.8 C 2.61 g/m*3 -7.8 C 0 km/h
927 18-01-2017 05:10:00 -7.7 C 2.63 g/m*3 -7.7 C 0 km/h
928 18-01-2017 05:15:00 -7.8 C 2.61 g/m*3 -7.8 C 0 km/h
929 18-01-2017 05:20:00 -7.8 C 2.61 g/m*3 -7.8 C 0 km/h
930 18-01-2017 05:25:00 -7.7 C 2.63 g/m*3 -7.7 C 0 km/h
931 18-01-2017 05:30:00 -7.7 C 2.63 g/m*3 -7.7 C 0 km/h
932 18-01-2017 05:35:00 -7.6 C 2.65 g/m*3 -7.6 C 0 km/h
933 18-01-2017 05:40:00 -7.6 C 2.65 g/m*3 -7.6 C 0 km/h
934 18-01-2017 05:45:00 -7.5 C 2.67 g/m*3 -7.5 C 0 km/h
935 18-01-2017 05:50:00 -7.5 C 2.67 g/m*3 -7.5 C 0 km/h
936 18-01-2017 05:55:00 -7.5 C 2.67 g/m*3 -7.5 C 0 km/h
937 18-01-2017 06:00:00 -7.5 C 2.67 g/m*3 -7.5 C 0 km/h
938 18-01-2017 06:05:00 -7.4 C 2.69 g/m*3 -7.4 C 3.2 km/h
939 18-01-2017 06:10:00 -7.3 C 2.71 g/m*3 -7.3 C 3.2 km/h
940 18-01-2017 06:15:00 -7.1 C 2.75 g/m*3 -7.1 C 1.6 km/h
941 18-01-2017 06:20:00 -7.1 C 2.75 g/m*3 -7.1 C 3.2 km/h
942 18-01-2017 06:25:00 -7.1 C 2.75 g/m*3 -7.1 C 3.2 km/h
943 18-01-2017 06:30:00 -7 C 2.77 g/m*3 -7 C 3.2 km/h
944 18-01-2017 06:35:00 -6.9 C 2.79 g/m*3 -6.9 C 1.6 km/h
945 18-01-2017 06:40:00 -6.9 C 2.79 g/m*3 -6.9 C 3.2 km/h
946 18-01-2017 06:45:00 -6.9 C 2.79 g/m*3 -6.9 C 3.2 km/h
947 18-01-2017 06:50:00 -6.9 C 2.79 g/m*3 -6.9 C 4.8 km/h
948 18-01-2017 06:55:00 -6.8 C 2.81 g/m*3 -6.8 C 1.6 km/h
949 18-01-2017 07:00:00 -6.8 C 2.81 g/m*3 -6.8 C 3.2 km/h
950 18-01-2017 07:05:00 -6.8 C 2.81 g/m*3 -6.8 C 3.2 km/h
Sensor: Nr:Datum:Temp:Abs-Feuchte:Windchill:Wind:
Aussen-T/F 951 18-01-2017 07:10:00 -6.8 C 2.81 g/m*3 -6.8 C 3.2 km/h
952 18-01-2017 07:15:00 -6.9 C 2.79 g/m*3 -6.9 C 1.6 km/h
953 18-01-2017 07:20:00 -6.9 C 2.79 g/m*3 -6.9 C 3.2 km/h
954 18-01-2017 09:40:00 -6.2 C 2.93 g/m*3 -6.2 C 0 km/h
955 18-01-2017 09:45:00 -6.1 C 2.96 g/m*3 -6.1 C 0 km/h
956 18-01-2017 09:50:00 -6.1 C 2.96 g/m*3 -6.1 C 0 km/h
957 18-01-2017 09:55:00 -6.1 C 2.96 g/m*3 -6.1 C 1.6 km/h
958 18-01-2017 10:00:00 -6.2 C 2.93 g/m*3 -6.2 C 0 km/h
959 18-01-2017 10:05:00 -6.2 C 2.93 g/m*3 -6.2 C 0 km/h
960 18-01-2017 10:10:00 -6.2 C 2.93 g/m*3 -6.2 C 0 km/h
961 18-01-2017 10:15:00 -6.2 C 2.93 g/m*3 -6.2 C 3.2 km/h
962 18-01-2017 10:20:00 -6.2 C 2.93 g/m*3 -6.2 C 0 km/h
963 18-01-2017 10:25:00 -6.2 C 2.93 g/m*3 -6.2 C 0 km/h
964 18-01-2017 10:30:00 -6.2 C 2.93 g/m*3 -6.2 C 0 km/h
965 18-01-2017 10:35:00 -6.2 C 2.93 g/m*3 -6.2 C 1.6 km/h
966 18-01-2017 10:40:00 -6.2 C 2.93 g/m*3 -6.2 C 0 km/h
967 18-01-2017 10:45:00 -6.2 C 2.93 g/m*3 -6.2 C 0 km/h
968 18-01-2017 10:50:00 -6.2 C 2.93 g/m*3 -6.2 C 0 km/h
969 18-01-2017 10:55:00 -6.1 C 2.96 g/m*3 -6.1 C 0 km/h
970 18-01-2017 11:00:00 -6.1 C 2.96 g/m*3 -6.1 C 0 km/h
971 18-01-2017 11:05:00 -6.1 C 2.96 g/m*3 -6.1 C 0 km/h
972 18-01-2017 11:10:00 -6.1 C 2.96 g/m*3 -6.1 C 0 km/h
973 18-01-2017 11:15:00 -5.9 C 3 g/m*3 -5.9 C 0 km/h
974 18-01-2017 11:20:00 -5.9 C 3 g/m*3 -5.9 C 0 km/h
975 18-01-2017 11:25:00 -5.8 C 3.02 g/m*3 -5.8 C 0 km/h
Sensor: Nr:Datum:Temp:Abs-Feuchte:Windchill:Wind:
Aussen-T/F 976 18-01-2017 11:30:00 -5.8 C 3.02 g/m*3 -5.8 C 3.2 km/h
977 18-01-2017 11:35:00 -5.7 C 3.04 g/m*3 -5.7 C 0 km/h
978 18-01-2017 11:40:00 -5.5 C 3.09 g/m*3 -5.5 C 0 km/h
979 18-01-2017 11:45:00 -5.3 C 3.13 g/m*3 -5.3 C 3.2 km/h
980 18-01-2017 11:50:00 -5.2 C 3.15 g/m*3 -5.2 C 1.6 km/h
981 18-01-2017 11:55:00 -5.1 C 3.18 g/m*3 -5.1 C 1.6 km/h
982 18-01-2017 12:00:00 -5 C 3.2 g/m*3 -5 C 1.6 km/h
983 18-01-2017 12:05:00 -4.9 C 3.22 g/m*3 -4.9 C 1.6 km/h
984 18-01-2017 12:10:00 -4.8 C 3.25 g/m*3 -4.8 C 3.2 km/h
985 18-01-2017 12:15:00 -4.7 C 3.27 g/m*3 -4.7 C 1.6 km/h
986 18-01-2017 12:20:00 -4.6 C 3.29 g/m*3 -4.6 C 3.2 km/h
987 18-01-2017 12:25:00 -4.5 C 3.28 g/m*3 -4.5 C 3.2 km/h
988 18-01-2017 12:30:00 -4.4 C 3.31 g/m*3 -4.4 C 3.2 km/h
989 18-01-2017 12:35:00 -4.4 C 3.31 g/m*3 -4.4 C 1.6 km/h
990 18-01-2017 12:40:00 -4.3 C 3.33 g/m*3 -4.3 C 0 km/h
991 18-01-2017 12:45:00 -4.3 C 3.33 g/m*3 -4.3 C 4.8 km/h
992 18-01-2017 12:50:00 -4.3 C 3.33 g/m*3 -4.3 C 1.6 km/h
993 18-01-2017 12:55:00 -4.2 C 3.35 g/m*3 -4.2 C 3.2 km/h
994 18-01-2017 13:00:00 -4.1 C 3.38 g/m*3 -4.1 C 3.2 km/h
995 18-01-2017 13:05:00 -4.1 C 3.38 g/m*3 -4.1 C 3.2 km/h
996 18-01-2017 13:10:00 -4 C 3.4 g/m*3 -4 C 0 km/h
997 18-01-2017 13:15:00 -3.9 C 3.43 g/m*3 -3.9 C 3.2 km/h
998 18-01-2017 13:20:00 -3.9 C 3.43 g/m*3 -3.9 C 1.6 km/h
999 18-01-2017 13:25:00 -3.8 C 3.45 g/m*3 -3.8 C 1.6 km/h
1000 18-01-2017 13:30:00 -3.7 C 3.48 g/m*3 -3.7 C 0 km/h
Sensor: Nr:Datum:Temp:Abs-Feuchte:Windchill:Wind:
Aussen-T/F 1001 18-01-2017 13:35:00 -3.7 C 3.48 g/m*3 -3.7 C 1.6 km/h
1002 18-01-2017 13:40:00 -3.6 C 3.5 g/m*3 -3.6 C 1.6 km/h
1003 18-01-2017 13:45:00 -3.4 C 3.51 g/m*3 -3.4 C 1.6 km/h
1004 18-01-2017 13:50:00 -3.4 C 3.51 g/m*3 -3.4 C 1.6 km/h
1005 18-01-2017 13:55:00 -3.3 C 3.54 g/m*3 -3.3 C 1.6 km/h
1006 18-01-2017 14:00:00 -3.3 C 3.5 g/m*3 -3.3 C 3.2 km/h
1007 18-01-2017 14:05:00 -3.2 C 3.52 g/m*3 -3.2 C 1.6 km/h
1008 18-01-2017 14:10:00 -3.2 C 3.52 g/m*3 -3.2 C 3.2 km/h
1009 18-01-2017 14:15:00 -3.2 C 3.52 g/m*3 -3.2 C 1.6 km/h
1010 18-01-2017 14:20:00 -3.2 C 3.52 g/m*3 -3.2 C 3.2 km/h
1011 18-01-2017 14:25:00 -3.2 C 3.52 g/m*3 -3.2 C 3.2 km/h
1012 18-01-2017 14:30:00 -3.2 C 3.52 g/m*3 -3.2 C 1.6 km/h
1013 18-01-2017 14:35:00 -3.1 C 3.55 g/m*3 -3.1 C 1.6 km/h
1014 18-01-2017 14:40:00 -2.9 C 3.6 g/m*3 -5.53 C 6.4 km/h
1015 18-01-2017 14:45:00 -2.7 C 3.61 g/m*3 -5.3 C 6.4 km/h
1016 18-01-2017 14:50:00 -2.7 C 3.61 g/m*3 -2.7 C 1.6 km/h
1017 18-01-2017 14:55:00 -2.7 C 3.57 g/m*3 -7.29 C 12.9 km/h
1018 18-01-2017 15:00:00 -2.4 C 3.61 g/m*3 -2.4 C 3.2 km/h
1019 18-01-2017 15:05:00 -2.4 C 3.61 g/m*3 -2.4 C 1.6 km/h
1020 18-01-2017 15:10:00 -2.4 C 3.57 g/m*3 -2.4 C 4.8 km/h
1021 18-01-2017 15:15:00 -2.4 C 3.57 g/m*3 -2.4 C 3.2 km/h
1022 18-01-2017 15:20:00 -2.3 C 3.63 g/m*3 -2.3 C 3.2 km/h
1023 18-01-2017 15:25:00 -2.2 C 3.62 g/m*3 -2.2 C 4.8 km/h
1024 18-01-2017 15:30:00 -1.9 C 3.61 g/m*3 -5.5 C 9.7 km/h
1025 18-01-2017 15:35:00 -1.7 C 3.66 g/m*3 -1.7 C 4.8 km/h
Sensor: Nr:Datum:Temp:Abs-Feuchte:Windchill:Wind:
Aussen-T/F 1026 18-01-2017 15:40:00 -1.6 C 3.68 g/m*3 -1.6 C 3.2 km/h
1027 18-01-2017 15:45:00 -1.6 C 3.68 g/m*3 -1.6 C 1.6 km/h
1028 18-01-2017 15:50:00 -1.5 C 3.75 g/m*3 -1.5 C 3.2 km/h
1029 18-01-2017 15:55:00 -1.4 C 3.69 g/m*3 -1.4 C 4.8 km/h
1030 18-01-2017 16:00:00 -1.3 C 3.72 g/m*3 -1.3 C 3.2 km/h
1031 18-01-2017 16:05:00 -1.2 C 3.7 g/m*3 -1.2 C 4.8 km/h
1032 18-01-2017 16:10:00 -1.2 C 3.66 g/m*3 -4.18 C 8.1 km/h
1033 18-01-2017 16:15:00 -1.1 C 3.64 g/m*3 -3.45 C 6.4 km/h
1034 18-01-2017 16:20:00 -1.1 C 3.73 g/m*3 -1.1 C 1.6 km/h
1035 18-01-2017 16:25:00 -1.2 C 3.7 g/m*3 -1.2 C 1.6 km/h
1036 18-01-2017 16:30:00 -1.2 C 3.7 g/m*3 -1.2 C 1.6 km/h
1037 18-01-2017 16:35:00 -1.3 C 3.72 g/m*3 -1.3 C 3.2 km/h
1038 18-01-2017 16:40:00 -1.4 C 3.69 g/m*3 -1.4 C 1.6 km/h
1039 18-01-2017 16:45:00 -1.6 C 3.64 g/m*3 -1.6 C 1.6 km/h
1040 18-01-2017 16:50:00 -1.7 C 3.62 g/m*3 -1.7 C 1.6 km/h
1041 18-01-2017 16:55:00 -1.8 C 3.63 g/m*3 -1.8 C 3.2 km/h
1042 18-01-2017 17:00:00 -2 C 3.58 g/m*3 -2 C 1.6 km/h
1043 18-01-2017 17:05:00 -2.2 C 3.53 g/m*3 -2.2 C 4.8 km/h
1044 18-01-2017 17:10:00 -2.3 C 3.51 g/m*3 -2.3 C 4.8 km/h
1045 18-01-2017 17:15:00 -2.5 C 3.46 g/m*3 -2.5 C 4.8 km/h
1046 18-01-2017 17:20:00 -2.6 C 3.43 g/m*3 -2.6 C 4.8 km/h
1047 18-01-2017 17:25:00 -2.7 C 3.41 g/m*3 -2.7 C 4.8 km/h
1048 18-01-2017 17:30:00 -2.8 C 3.43 g/m*3 -5.42 C 6.4 km/h
1049 18-01-2017 17:35:00 -2.9 C 3.4 g/m*3 -2.9 C 4.8 km/h
1050 18-01-2017 17:40:00 -2.9 C 3.44 g/m*3 -2.9 C 4.8 km/h
Sensor: Nr:Datum:Temp:Abs-Feuchte:Windchill:Wind:
Aussen-T/F 1051 18-01-2017 17:45:00 -2.9 C 3.44 g/m*3 -2.9 C 4.8 km/h
1052 18-01-2017 17:50:00 -3 C 3.42 g/m*3 -3 C 4.8 km/h
1053 18-01-2017 17:55:00 -3.1 C 3.39 g/m*3 -3.1 C 3.2 km/h
1054 18-01-2017 18:00:00 -3.1 C 3.39 g/m*3 -3.1 C 1.6 km/h
1055 18-01-2017 18:05:00 -3.2 C 3.41 g/m*3 -3.2 C 0 km/h
1056 18-01-2017 18:10:00 -3.2 C 3.41 g/m*3 -3.2 C 3.2 km/h
1057 18-01-2017 18:15:00 -3.3 C 3.38 g/m*3 -3.3 C 4.8 km/h
1058 18-01-2017 18:20:00 -3.3 C 3.38 g/m*3 -3.3 C 3.2 km/h
1059 18-01-2017 18:25:00 -3.4 C 3.36 g/m*3 -3.4 C 4.8 km/h
1060 18-01-2017 18:30:00 -3.5 C 3.34 g/m*3 -3.5 C 4.8 km/h
1061 18-01-2017 18:35:00 -3.5 C 3.34 g/m*3 -3.5 C 4.8 km/h
1062 18-01-2017 18:40:00 -3.6 C 3.31 g/m*3 -3.6 C 1.6 km/h
1063 18-01-2017 18:45:00 -3.7 C 3.29 g/m*3 -3.7 C 1.6 km/h
1064 18-01-2017 18:50:00 -3.8 C 3.3 g/m*3 -3.8 C 3.2 km/h
1065 18-01-2017 18:55:00 -3.8 C 3.3 g/m*3 -3.8 C 3.2 km/h
1066 18-01-2017 19:00:00 -3.9 C 3.28 g/m*3 -3.9 C 3.2 km/h
1067 18-01-2017 19:05:00 -3.9 C 3.28 g/m*3 -3.9 C 1.6 km/h
1068 18-01-2017 19:10:00 -4 C 3.26 g/m*3 -4 C 3.2 km/h
1069 18-01-2017 19:15:00 -4.2 C 3.21 g/m*3 -4.2 C 1.6 km/h
1070 18-01-2017 19:20:00 -4.3 C 3.19 g/m*3 -4.3 C 0 km/h
1071 18-01-2017 19:25:00 -4.4 C 3.16 g/m*3 -4.4 C 3.2 km/h
1072 18-01-2017 19:30:00 -4.4 C 3.2 g/m*3 -4.4 C 3.2 km/h
1073 18-01-2017 19:35:00 -4.4 C 3.2 g/m*3 -4.4 C 3.2 km/h
1074 18-01-2017 19:40:00 -4.4 C 3.2 g/m*3 -4.4 C 3.2 km/h
1075 18-01-2017 19:45:00 -4.4 C 3.24 g/m*3 -4.4 C 3.2 km/h
Sensor: Nr:Datum:Temp:Abs-Feuchte:Windchill:Wind:
Aussen-T/F 1076 18-01-2017 19:50:00 -4.4 C 3.2 g/m*3 -4.4 C 0 km/h
1077 18-01-2017 19:55:00 -4.6 C 3.15 g/m*3 -4.6 C 3.2 km/h
1078 18-01-2017 20:00:00 -4.5 C 3.21 g/m*3 -4.5 C 3.2 km/h
1079 18-01-2017 20:05:00 -4.5 C 3.21 g/m*3 -4.5 C 3.2 km/h
1080 18-01-2017 20:10:00 -4.5 C 3.21 g/m*3 -4.5 C 3.2 km/h
1081 18-01-2017 20:15:00 -4.4 C 3.24 g/m*3 -4.4 C 3.2 km/h
1082 18-01-2017 20:20:00 -4.5 C 3.18 g/m*3 -4.5 C 3.2 km/h
1083 18-01-2017 20:25:00 -4.5 C 3.18 g/m*3 -4.5 C 3.2 km/h
1084 18-01-2017 20:30:00 -4.6 C 3.15 g/m*3 -4.6 C 1.6 km/h
1085 18-01-2017 20:35:00 -4.6 C 3.15 g/m*3 -4.6 C 3.2 km/h
1086 18-01-2017 20:40:00 -4.7 C 3.13 g/m*3 -4.7 C 3.2 km/h
1087 18-01-2017 20:45:00 -4.7 C 3.13 g/m*3 -4.7 C 0 km/h
1088 18-01-2017 20:50:00 -4.8 C 3.11 g/m*3 -4.8 C 1.6 km/h
1089 18-01-2017 20:55:00 -4.9 C 3.09 g/m*3 -4.9 C 0 km/h
1090 18-01-2017 21:00:00 -5 C 3.06 g/m*3 -5 C 0 km/h
1091 18-01-2017 21:05:00 -5.1 C 3.04 g/m*3 -5.1 C 1.6 km/h
1092 18-01-2017 21:10:00 -5.1 C 3.08 g/m*3 -5.1 C 1.6 km/h
1093 18-01-2017 21:15:00 -5.1 C 3.08 g/m*3 -5.1 C 0 km/h
1094 18-01-2017 21:20:00 -5.2 C 3.05 g/m*3 -5.2 C 1.6 km/h
1095 18-01-2017 21:25:00 -5.2 C 3.05 g/m*3 -5.2 C 1.6 km/h
1096 18-01-2017 21:30:00 -5.2 C 3.05 g/m*3 -5.2 C 3.2 km/h
1097 18-01-2017 21:35:00 -5.2 C 3.09 g/m*3 -5.2 C 1.6 km/h
1098 18-01-2017 21:40:00 -5.1 C 3.11 g/m*3 -5.1 C 1.6 km/h
1099 18-01-2017 21:45:00 -5.2 C 3.05 g/m*3 -5.2 C 1.6 km/h
1100 18-01-2017 21:50:00 -5.2 C 3.05 g/m*3 -5.2 C 3.2 km/h
Sensor: Nr:Datum:Temp:Abs-Feuchte:Windchill:Wind:
Aussen-T/F 1101 18-01-2017 21:55:00 -5.2 C 3.05 g/m*3 -5.2 C 3.2 km/h
1102 18-01-2017 22:00:00 -5.2 C 3.09 g/m*3 -5.2 C 3.2 km/h
1103 18-01-2017 22:05:00 -5.2 C 3.09 g/m*3 -5.2 C 1.6 km/h
1104 18-01-2017 22:10:00 -5.2 C 3.09 g/m*3 -5.2 C 0 km/h
1105 18-01-2017 22:15:00 -5.1 C 3.11 g/m*3 -5.1 C 0 km/h
1106 18-01-2017 22:20:00 -5.1 C 3.11 g/m*3 -5.1 C 1.6 km/h
1107 18-01-2017 22:25:00 -5 C 3.13 g/m*3 -5 C 1.6 km/h
1108 18-01-2017 22:30:00 -5 C 3.1 g/m*3 -5 C 3.2 km/h
1109 18-01-2017 22:35:00 -5 C 3.1 g/m*3 -5 C 0 km/h
1110 18-01-2017 22:40:00 -5.2 C 3.02 g/m*3 -5.2 C 0 km/h
1111 18-01-2017 22:45:00 -5.4 C 2.98 g/m*3 -5.4 C 0 km/h
1112 18-01-2017 22:50:00 -5.6 C 2.93 g/m*3 -5.6 C 0 km/h
1113 18-01-2017 22:55:00 -5.7 C 2.95 g/m*3 -5.7 C 0 km/h
1114 18-01-2017 23:00:00 -5.8 C 2.92 g/m*3 -5.8 C 0 km/h
1115 18-01-2017 23:05:00 -5.9 C 2.9 g/m*3 -5.9 C 3.2 km/h
1116 18-01-2017 23:10:00 -5.9 C 2.93 g/m*3 -5.9 C 3.2 km/h
1117 18-01-2017 23:15:00 -5.9 C 2.93 g/m*3 -5.9 C 3.2 km/h
1118 18-01-2017 23:20:00 -5.8 C 2.96 g/m*3 -5.8 C 1.6 km/h
1119 18-01-2017 23:25:00 -5.8 C 2.96 g/m*3 -5.8 C 0 km/h
1120 18-01-2017 23:30:00 -5.9 C 2.93 g/m*3 -5.9 C 0 km/h
1121 18-01-2017 23:35:00 -6.1 C 2.89 g/m*3 -6.1 C 0 km/h
1122 18-01-2017 23:40:00 -6.1 C 2.89 g/m*3 -6.1 C 0 km/h
1123 18-01-2017 23:45:00 -6.2 C 2.87 g/m*3 -6.2 C 0 km/h
1124 18-01-2017 23:50:00 -6.3 C 2.85 g/m*3 -6.3 C 0 km/h
1125 18-01-2017 23:55:00 -6.3 C 2.85 g/m*3 -6.3 C 0 km/h
Sensor: Nr:Datum:Temp:Abs-Feuchte:Windchill:Wind:
Aussen-T/F 1126 19-01-2017 00:00:00 -6.4 C 2.83 g/m*3 -6.4 C 1.6 km/h
1127 19-01-2017 00:05:00 -6.4 C 2.83 g/m*3 -6.4 C 1.6 km/h
1128 19-01-2017 00:10:00 -6.4 C 2.83 g/m*3 -6.4 C 0 km/h
1129 19-01-2017 00:15:00 -6.4 C 2.83 g/m*3 -6.4 C 0 km/h
1130 19-01-2017 00:20:00 -6.4 C 2.83 g/m*3 -6.4 C 0 km/h
1131 19-01-2017 00:25:00 -6.5 C 2.81 g/m*3 -6.5 C 0 km/h
1132 19-01-2017 00:30:00 -6.6 C 2.79 g/m*3 -6.6 C 0 km/h
1133 19-01-2017 00:35:00 -6.6 C 2.79 g/m*3 -6.6 C 0 km/h
1134 19-01-2017 00:40:00 -6.6 C 2.79 g/m*3 -6.6 C 0 km/h
1135 19-01-2017 00:45:00 -6.6 C 2.79 g/m*3 -6.6 C 0 km/h
1136 19-01-2017 00:50:00 -6.6 C 2.82 g/m*3 -6.6 C 0 km/h
1137 19-01-2017 00:55:00 -6.8 C 2.75 g/m*3 -6.8 C 0 km/h
1138 19-01-2017 01:00:00 -6.8 C 2.75 g/m*3 -6.8 C 0 km/h
1139 19-01-2017 01:05:00 -6.8 C 2.78 g/m*3 -6.8 C 0 km/h
1140 19-01-2017 01:10:00 -6.8 C 2.78 g/m*3 -6.8 C 0 km/h
1141 19-01-2017 01:15:00 -6.9 C 2.73 g/m*3 -6.9 C 0 km/h
1142 19-01-2017 01:20:00 -6.9 C 2.73 g/m*3 -6.9 C 0 km/h
1143 19-01-2017 01:25:00 -6.9 C 2.76 g/m*3 -6.9 C 0 km/h
1144 19-01-2017 01:30:00 -6.8 C 2.78 g/m*3 -6.8 C 0 km/h
1145 19-01-2017 01:35:00 -6.9 C 2.76 g/m*3 -6.9 C 0 km/h
1146 19-01-2017 01:40:00 -6.9 C 2.76 g/m*3 -6.9 C 0 km/h
1147 19-01-2017 01:45:00 -7.1 C 2.72 g/m*3 -7.1 C 0 km/h
1148 19-01-2017 01:50:00 -7.2 C 2.7 g/m*3 -7.2 C 0 km/h
1149 19-01-2017 01:55:00 -7.2 C 2.7 g/m*3 -7.2 C 0 km/h
1150 19-01-2017 02:00:00 -7.2 C 2.7 g/m*3 -7.2 C 0 km/h
Sensor: Nr:Datum:Temp:Abs-Feuchte:Windchill:Wind:
Aussen-T/F 1151 19-01-2017 02:05:00 -7.2 C 2.7 g/m*3 -7.2 C 0 km/h
1152 19-01-2017 02:10:00 -7.2 C 2.7 g/m*3 -7.2 C 0 km/h
1153 19-01-2017 02:15:00 -7.2 C 2.7 g/m*3 -7.2 C 0 km/h
1154 19-01-2017 02:20:00 -7.2 C 2.7 g/m*3 -7.2 C 0 km/h
1155 19-01-2017 02:25:00 -7.3 C 2.68 g/m*3 -7.3 C 0 km/h
1156 19-01-2017 02:30:00 -7.3 C 2.68 g/m*3 -7.3 C 0 km/h
1157 19-01-2017 02:35:00 -7.3 C 2.68 g/m*3 -7.3 C 0 km/h
1158 19-01-2017 02:40:00 -7.4 C 2.66 g/m*3 -7.4 C 0 km/h
1159 19-01-2017 02:45:00 -7.4 C 2.66 g/m*3 -7.4 C 0 km/h
1160 19-01-2017 02:50:00 -7.4 C 2.66 g/m*3 -7.4 C 0 km/h
1161 19-01-2017 02:55:00 -7.4 C 2.66 g/m*3 -7.4 C 0 km/h
1162 19-01-2017 03:00:00 -7.4 C 2.66 g/m*3 -7.4 C 0 km/h
1163 19-01-2017 03:05:00 -7.4 C 2.66 g/m*3 -7.4 C 0 km/h
1164 19-01-2017 03:10:00 -7.4 C 2.66 g/m*3 -7.4 C 0 km/h
1165 19-01-2017 03:15:00 -7.4 C 2.66 g/m*3 -7.4 C 0 km/h
1166 19-01-2017 03:20:00 -7.5 C 2.64 g/m*3 -7.5 C 0 km/h
1167 19-01-2017 03:25:00 -7.6 C 2.62 g/m*3 -7.6 C 0 km/h
1168 19-01-2017 03:30:00 -7.6 C 2.62 g/m*3 -7.6 C 0 km/h
1169 19-01-2017 03:35:00 -7.6 C 2.62 g/m*3 -7.6 C 0 km/h
1170 19-01-2017 03:40:00 -7.7 C 2.6 g/m*3 -7.7 C 0 km/h
1171 19-01-2017 03:45:00 -7.7 C 2.6 g/m*3 -7.7 C 0 km/h
1172 19-01-2017 03:50:00 -7.7 C 2.63 g/m*3 -7.7 C 0 km/h
1173 19-01-2017 03:55:00 -7.6 C 2.62 g/m*3 -7.6 C 0 km/h
1174 19-01-2017 04:00:00 -7.6 C 2.65 g/m*3 -7.6 C 0 km/h
1175 19-01-2017 04:05:00 -7.7 C 2.63 g/m*3 -7.7 C 0 km/h
Sensor: Nr:Datum:Temp:Abs-Feuchte:Windchill:Wind:
Aussen-T/F 1176 19-01-2017 04:10:00 -7.7 C 2.6 g/m*3 -7.7 C 0 km/h
1177 19-01-2017 04:15:00 -7.8 C 2.58 g/m*3 -7.8 C 0 km/h
1178 19-01-2017 04:20:00 -7.8 C 2.58 g/m*3 -7.8 C 0 km/h
1179 19-01-2017 04:25:00 -7.9 C 2.56 g/m*3 -7.9 C 0 km/h
1180 19-01-2017 04:30:00 -8 C 2.54 g/m*3 -8 C 0 km/h
1181 19-01-2017 04:35:00 -7.9 C 2.59 g/m*3 -7.9 C 0 km/h
1182 19-01-2017 04:40:00 -8 C 2.57 g/m*3 -8 C 0 km/h
1183 19-01-2017 04:45:00 -8 C 2.57 g/m*3 -8 C 0 km/h
1184 19-01-2017 04:50:00 -8 C 2.54 g/m*3 -8 C 0 km/h
1185 19-01-2017 04:55:00 -8 C 2.57 g/m*3 -8 C 0 km/h
1186 19-01-2017 05:00:00 -8.1 C 2.52 g/m*3 -8.1 C 0 km/h
1187 19-01-2017 05:05:00 -8.2 C 2.51 g/m*3 -8.2 C 0 km/h
1188 19-01-2017 05:10:00 -8.2 C 2.51 g/m*3 -8.2 C 0 km/h
1189 19-01-2017 05:15:00 -8.2 C 2.53 g/m*3 -8.2 C 0 km/h
1190 19-01-2017 05:20:00 -8.2 C 2.53 g/m*3 -8.2 C 0 km/h
1191 19-01-2017 05:25:00 -8.1 C 2.55 g/m*3 -8.1 C 0 km/h
1192 19-01-2017 05:30:00 -8.1 C 2.55 g/m*3 -8.1 C 0 km/h
1193 19-01-2017 05:35:00 -8.1 C 2.55 g/m*3 -8.1 C 0 km/h
1194 19-01-2017 05:40:00 -8.2 C 2.53 g/m*3 -8.2 C 0 km/h
1195 19-01-2017 05:45:00 -8.2 C 2.53 g/m*3 -8.2 C 0 km/h
1196 19-01-2017 05:50:00 -8.2 C 2.53 g/m*3 -8.2 C 0 km/h
1197 19-01-2017 05:55:00 -8.3 C 2.49 g/m*3 -8.3 C 0 km/h
1198 19-01-2017 06:00:00 -8.3 C 2.49 g/m*3 -8.3 C 0 km/h
1199 19-01-2017 06:05:00 -8.3 C 2.49 g/m*3 -8.3 C 0 km/h
1200 19-01-2017 06:10:00 -8.3 C 2.49 g/m*3 -8.3 C 0 km/h
Sensor: Nr:Datum:Temp:Abs-Feuchte:Windchill:Wind:
Aussen-T/F 1201 19-01-2017 06:15:00 -8.3 C 2.49 g/m*3 -8.3 C 0 km/h
1202 19-01-2017 06:20:00 -8.3 C 2.49 g/m*3 -8.3 C 0 km/h
1203 19-01-2017 06:25:00 -8.2 C 2.53 g/m*3 -8.2 C 0 km/h
1204 19-01-2017 06:30:00 -8.3 C 2.49 g/m*3 -8.3 C 0 km/h
1205 19-01-2017 06:35:00 -8.3 C 2.49 g/m*3 -8.3 C 0 km/h
1206 19-01-2017 06:40:00 -8.4 C 2.47 g/m*3 -8.4 C 0 km/h
1207 19-01-2017 06:45:00 -8.4 C 2.47 g/m*3 -8.4 C 0 km/h
1208 19-01-2017 06:50:00 -8.5 C 2.45 g/m*3 -8.5 C 0 km/h
1209 19-01-2017 06:55:00 -8.5 C 2.45 g/m*3 -8.5 C 0 km/h
1210 19-01-2017 07:00:00 -8.6 C 2.43 g/m*3 -8.6 C 0 km/h
1211 19-01-2017 07:05:00 -8.6 C 2.43 g/m*3 -8.6 C 0 km/h
1212 19-01-2017 07:10:00 -8.6 C 2.46 g/m*3 -8.6 C 0 km/h
1213 19-01-2017 07:15:00 -8.5 C 2.48 g/m*3 -8.5 C 0 km/h
1214 19-01-2017 07:20:00 -8.5 C 2.48 g/m*3 -8.5 C 0 km/h
1215 19-01-2017 07:25:00 -8.4 C 2.5 g/m*3 -8.4 C 0 km/h
1216 19-01-2017 07:30:00 -8.4 C 2.5 g/m*3 -8.4 C 0 km/h
1217 19-01-2017 07:35:00 -8.4 C 2.5 g/m*3 -8.4 C 0 km/h
1218 19-01-2017 07:40:00 -8.5 C 2.45 g/m*3 -8.5 C 0 km/h
1219 19-01-2017 07:45:00 -8.6 C 2.43 g/m*3 -8.6 C 0 km/h
1220 19-01-2017 07:50:00 -8.6 C 2.43 g/m*3 -8.6 C 0 km/h
1221 19-01-2017 07:55:00 -8.6 C 2.43 g/m*3 -8.6 C 0 km/h
1222 19-01-2017 10:10:00 -7.8 C 2.61 g/m*3 -7.8 C 0 km/h
1223 19-01-2017 10:15:00 -7.7 C 2.63 g/m*3 -7.7 C 0 km/h
1224 19-01-2017 10:20:00 -7.7 C 2.63 g/m*3 -7.7 C 0 km/h
1225 19-01-2017 10:25:00 -7.6 C 2.65 g/m*3 -7.6 C 0 km/h
Sensor: Nr:Datum:Temp:Abs-Feuchte:Windchill:Wind:
Aussen-T/F 1226 19-01-2017 10:30:00 -7.5 C 2.67 g/m*3 -7.5 C 0 km/h
1227 19-01-2017 10:35:00 -7.4 C 2.69 g/m*3 -7.4 C 0 km/h
1228 19-01-2017 10:40:00 -7.3 C 2.71 g/m*3 -7.3 C 0 km/h
1229 19-01-2017 10:45:00 -7.2 C 2.73 g/m*3 -7.2 C 0 km/h
1230 19-01-2017 10:50:00 -7.1 C 2.75 g/m*3 -7.1 C 0 km/h
1231 19-01-2017 10:55:00 -6.9 C 2.79 g/m*3 -6.9 C 0 km/h
1232 19-01-2017 11:00:00 -6.9 C 2.79 g/m*3 -6.9 C 0 km/h
1233 19-01-2017 11:05:00 -6.8 C 2.81 g/m*3 -6.8 C 0 km/h
1234 19-01-2017 11:10:00 -6.8 C 2.81 g/m*3 -6.8 C 0 km/h
1235 19-01-2017 11:15:00 -6.7 C 2.83 g/m*3 -6.7 C 1.6 km/h
1236 19-01-2017 11:20:00 -6.6 C 2.85 g/m*3 -6.6 C 1.6 km/h
1237 19-01-2017 11:25:00 -6.6 C 2.85 g/m*3 -6.6 C 0 km/h
1238 19-01-2017 11:30:00 -6.4 C 2.89 g/m*3 -6.4 C 0 km/h
1239 19-01-2017 11:35:00 -6.4 C 2.89 g/m*3 -6.4 C 0 km/h
1240 19-01-2017 11:40:00 -6.3 C 2.91 g/m*3 -6.3 C 0 km/h
1241 19-01-2017 11:45:00 -6.3 C 2.91 g/m*3 -6.3 C 0 km/h
1242 19-01-2017 11:50:00 -6.2 C 2.93 g/m*3 -6.2 C 0 km/h
1243 19-01-2017 11:55:00 -6.1 C 2.96 g/m*3 -6.1 C 0 km/h
1244 19-01-2017 12:00:00 -6.1 C 2.96 g/m*3 -6.1 C 0 km/h
1245 19-01-2017 12:05:00 -6 C 2.98 g/m*3 -6 C 0 km/h
1246 19-01-2017 12:10:00 -5.9 C 3 g/m*3 -5.9 C 1.6 km/h
1247 19-01-2017 12:15:00 -5.8 C 3.02 g/m*3 -5.8 C 3.2 km/h
1248 19-01-2017 12:20:00 -5.7 C 3.04 g/m*3 -5.7 C 3.2 km/h
1249 19-01-2017 12:25:00 -5.6 C 3.06 g/m*3 -5.6 C 3.2 km/h
1250 19-01-2017 12:30:00 -5.5 C 3.09 g/m*3 -5.5 C 3.2 km/h
Sensor: Nr:Datum:Temp:Abs-Feuchte:Windchill:Wind:
Aussen-T/F 1251 19-01-2017 12:35:00 -5.4 C 3.11 g/m*3 -5.4 C 4.8 km/h
1252 19-01-2017 12:40:00 -5.3 C 3.13 g/m*3 -5.3 C 4.8 km/h
1253 19-01-2017 12:45:00 -5.2 C 3.15 g/m*3 -5.2 C 1.6 km/h
1254 19-01-2017 12:50:00 -5.1 C 3.18 g/m*3 -5.1 C 0 km/h
1255 19-01-2017 12:55:00 -5 C 3.2 g/m*3 -5 C 0 km/h
1256 19-01-2017 13:00:00 -4.9 C 3.19 g/m*3 -4.9 C 0 km/h
1257 19-01-2017 13:05:00 -4.8 C 3.25 g/m*3 -4.8 C 3.2 km/h
1258 19-01-2017 13:10:00 -4.8 C 3.21 g/m*3 -4.8 C 3.2 km/h
1259 19-01-2017 13:15:00 -4.7 C 3.24 g/m*3 -4.7 C 3.2 km/h
1260 19-01-2017 13:20:00 -4.6 C 3.26 g/m*3 -4.6 C 3.2 km/h
1261 19-01-2017 13:25:00 -4.6 C 3.26 g/m*3 -4.6 C 3.2 km/h
1262 19-01-2017 13:30:00 -4.4 C 3.31 g/m*3 -4.4 C 3.2 km/h
1263 19-01-2017 13:35:00 -4.4 C 3.31 g/m*3 -4.4 C 3.2 km/h
1264 19-01-2017 13:40:00 -4.3 C 3.33 g/m*3 -4.3 C 3.2 km/h
1265 19-01-2017 13:45:00 -4.2 C 3.35 g/m*3 -4.2 C 3.2 km/h
1266 19-01-2017 13:50:00 -4.1 C 3.38 g/m*3 -4.1 C 3.2 km/h
1267 19-01-2017 13:55:00 -3.9 C 3.43 g/m*3 -3.9 C 3.2 km/h
1268 19-01-2017 14:00:00 -3.9 C 3.43 g/m*3 -3.9 C 3.2 km/h
1269 19-01-2017 14:05:00 -3.8 C 3.41 g/m*3 -3.8 C 4.8 km/h
1270 19-01-2017 14:10:00 -3.8 C 3.41 g/m*3 -3.8 C 3.2 km/h
1271 19-01-2017 14:15:00 -3.7 C 3.44 g/m*3 -3.7 C 3.2 km/h
1272 19-01-2017 14:20:00 -3.6 C 3.46 g/m*3 -3.6 C 4.8 km/h
1273 19-01-2017 14:25:00 -3.6 C 3.46 g/m*3 -3.6 C 4.8 km/h
1274 19-01-2017 14:30:00 -3.4 C 3.51 g/m*3 -3.4 C 4.8 km/h
1275 19-01-2017 14:35:00 -3.4 C 3.51 g/m*3 -3.4 C 4.8 km/h
Sensor: Nr:Datum:Temp:Abs-Feuchte:Windchill:Wind:
Aussen-T/F 1276 19-01-2017 14:40:00 -3.3 C 3.54 g/m*3 -3.3 C 4.8 km/h
1277 19-01-2017 14:45:00 -3.2 C 3.52 g/m*3 -3.2 C 4.8 km/h
1278 19-01-2017 14:50:00 -3.2 C 3.52 g/m*3 -3.2 C 4.8 km/h
1279 19-01-2017 14:55:00 -3.1 C 3.55 g/m*3 -3.1 C 4.8 km/h
1280 19-01-2017 15:00:00 -3.1 C 3.55 g/m*3 -3.1 C 3.2 km/h
1281 19-01-2017 15:05:00 -3.1 C 3.55 g/m*3 -3.1 C 4.8 km/h
1282 19-01-2017 15:10:00 -3 C 3.57 g/m*3 -3 C 4.8 km/h
1283 19-01-2017 15:15:00 -2.9 C 3.56 g/m*3 -2.9 C 4.8 km/h
1284 19-01-2017 15:20:00 -2.9 C 3.56 g/m*3 -2.9 C 4.8 km/h
1285 19-01-2017 15:25:00 -2.9 C 3.56 g/m*3 -2.9 C 4.8 km/h
1286 19-01-2017 15:30:00 -2.9 C 3.56 g/m*3 -2.9 C 4.8 km/h
1287 19-01-2017 15:35:00 -2.9 C 3.56 g/m*3 -2.9 C 4.8 km/h
1288 19-01-2017 15:40:00 -2.9 C 3.56 g/m*3 -2.9 C 4.8 km/h
1289 19-01-2017 15:45:00 -2.9 C 3.56 g/m*3 -5.53 C 6.4 km/h
1290 19-01-2017 15:50:00 -2.8 C 3.59 g/m*3 -2.8 C 4.8 km/h
1291 19-01-2017 15:55:00 -2.8 C 3.59 g/m*3 -2.8 C 4.8 km/h
1292 19-01-2017 16:00:00 -2.8 C 3.59 g/m*3 -2.8 C 4.8 km/h
1293 19-01-2017 16:05:00 -2.8 C 3.59 g/m*3 -5.42 C 6.4 km/h
1294 19-01-2017 16:10:00 -2.8 C 3.59 g/m*3 -2.8 C 4.8 km/h
1295 19-01-2017 16:15:00 -2.8 C 3.59 g/m*3 -2.8 C 4.8 km/h
1296 19-01-2017 16:20:00 -2.8 C 3.59 g/m*3 -2.8 C 4.8 km/h
1297 19-01-2017 16:25:00 -2.8 C 3.55 g/m*3 -2.8 C 4.8 km/h
1298 19-01-2017 16:30:00 -2.8 C 3.59 g/m*3 -2.8 C 4.8 km/h
1299 19-01-2017 16:35:00 -2.9 C 3.56 g/m*3 -2.9 C 4.8 km/h
1300 19-01-2017 16:40:00 -2.9 C 3.56 g/m*3 -2.9 C 4.8 km/h
Sensor: Nr:Datum:Temp:Abs-Feuchte:Windchill:Wind:
Aussen-T/F 1301 19-01-2017 16:45:00 -2.9 C 3.56 g/m*3 -2.9 C 4.8 km/h
1302 19-01-2017 16:50:00 -2.9 C 3.56 g/m*3 -2.9 C 4.8 km/h
1303 19-01-2017 16:55:00 -2.9 C 3.52 g/m*3 -5.53 C 6.4 km/h
1304 19-01-2017 17:00:00 -2.9 C 3.52 g/m*3 -5.53 C 6.4 km/h
1305 19-01-2017 17:05:00 -3 C 3.5 g/m*3 -5.65 C 6.4 km/h
1306 19-01-2017 17:10:00 -3.1 C 3.47 g/m*3 -5.76 C 6.4 km/h
1307 19-01-2017 17:15:00 -3 C 3.5 g/m*3 -5.65 C 6.4 km/h
1308 19-01-2017 17:20:00 -3 C 3.5 g/m*3 -5.65 C 6.4 km/h
1309 19-01-2017 17:25:00 -3 C 3.5 g/m*3 -5.65 C 6.4 km/h
1310 19-01-2017 17:30:00 -3 C 3.5 g/m*3 -5.65 C 6.4 km/h
1311 19-01-2017 17:35:00 -3 C 3.46 g/m*3 -3 C 4.8 km/h
1312 19-01-2017 17:40:00 -3 C 3.46 g/m*3 -3 C 4.8 km/h
1313 19-01-2017 17:45:00 -3 C 3.46 g/m*3 -3 C 4.8 km/h
1314 19-01-2017 17:50:00 -3.1 C 3.43 g/m*3 -3.1 C 3.2 km/h
1315 19-01-2017 17:55:00 -3.2 C 3.41 g/m*3 -3.2 C 4.8 km/h
1316 19-01-2017 18:00:00 -3.3 C 3.38 g/m*3 -3.3 C 4.8 km/h
1317 19-01-2017 18:05:00 -3.3 C 3.38 g/m*3 -3.3 C 4.8 km/h
1318 19-01-2017 18:10:00 -3.3 C 3.38 g/m*3 -3.3 C 3.2 km/h
1319 19-01-2017 18:15:00 -3.4 C 3.4 g/m*3 -3.4 C 3.2 km/h
1320 19-01-2017 18:20:00 -3.5 C 3.34 g/m*3 -3.5 C 0 km/h
1321 19-01-2017 18:25:00 -3.6 C 3.35 g/m*3 -3.6 C 0 km/h
1322 19-01-2017 18:30:00 -3.8 C 3.27 g/m*3 -3.8 C 0 km/h
1323 19-01-2017 18:35:00 -4 C 3.26 g/m*3 -4 C 0 km/h
1324 19-01-2017 18:40:00 -4.1 C 3.23 g/m*3 -4.1 C 0 km/h
1325 19-01-2017 18:45:00 -4.1 C 3.27 g/m*3 -4.1 C 1.6 km/h
Sensor: Nr:Datum:Temp:Abs-Feuchte:Windchill:Wind:
Aussen-T/F 1326 19-01-2017 18:50:00 -4.3 C 3.22 g/m*3 -4.3 C 1.6 km/h
1327 19-01-2017 18:55:00 -4.3 C 3.22 g/m*3 -4.3 C 1.6 km/h
1328 19-01-2017 19:00:00 -4.3 C 3.22 g/m*3 -4.3 C 1.6 km/h
1329 19-01-2017 19:05:00 -4.4 C 3.2 g/m*3 -4.4 C 0 km/h
1330 19-01-2017 19:10:00 -4.6 C 3.15 g/m*3 -4.6 C 0 km/h
1331 19-01-2017 19:15:00 -4.7 C 3.13 g/m*3 -4.7 C 0 km/h
1332 19-01-2017 19:20:00 -4.8 C 3.11 g/m*3 -4.8 C 0 km/h
1333 19-01-2017 19:25:00 -4.9 C 3.09 g/m*3 -4.9 C 0 km/h
1334 19-01-2017 19:30:00 -5 C 3.06 g/m*3 -5 C 0 km/h
1335 19-01-2017 19:35:00 -5.2 C 3.02 g/m*3 -5.2 C 0 km/h
1336 19-01-2017 19:40:00 -5.3 C 3 g/m*3 -5.3 C 0 km/h
1337 19-01-2017 19:45:00 -5.3 C 3.03 g/m*3 -5.3 C 0 km/h
1338 19-01-2017 19:50:00 -5.3 C 3.03 g/m*3 -5.3 C 0 km/h
1339 19-01-2017 19:55:00 -5.4 C 3.01 g/m*3 -5.4 C 0 km/h
1340 19-01-2017 20:00:00 -5.4 C 3.01 g/m*3 -5.4 C 0 km/h
1341 19-01-2017 20:05:00 -5.4 C 3.01 g/m*3 -5.4 C 0 km/h
1342 19-01-2017 20:10:00 -5.6 C 2.97 g/m*3 -5.6 C 0 km/h
1343 19-01-2017 20:15:00 -5.6 C 2.97 g/m*3 -5.6 C 0 km/h
1344 19-01-2017 20:20:00 -5.7 C 2.95 g/m*3 -5.7 C 0 km/h
1345 19-01-2017 20:25:00 -5.8 C 2.92 g/m*3 -5.8 C 0 km/h
1346 19-01-2017 20:30:00 -5.9 C 2.9 g/m*3 -5.9 C 0 km/h
1347 19-01-2017 20:35:00 -5.9 C 2.9 g/m*3 -5.9 C 0 km/h
1348 19-01-2017 20:40:00 -5.9 C 2.9 g/m*3 -5.9 C 0 km/h
1349 19-01-2017 20:45:00 -5.8 C 2.96 g/m*3 -5.8 C 0 km/h
1350 19-01-2017 20:50:00 -5.8 C 2.96 g/m*3 -5.8 C 0 km/h
Sensor: Nr:Datum:Temp:Abs-Feuchte:Windchill:Wind:
Aussen-T/F 1351 19-01-2017 20:55:00 -5.8 C 2.92 g/m*3 -5.8 C 0 km/h
1352 19-01-2017 21:00:00 -5.8 C 2.92 g/m*3 -5.8 C 0 km/h
1353 19-01-2017 21:05:00 -5.8 C 2.92 g/m*3 -5.8 C 0 km/h
1354 19-01-2017 21:10:00 -5.9 C 2.9 g/m*3 -5.9 C 0 km/h
1355 19-01-2017 21:15:00 -6.1 C 2.86 g/m*3 -6.1 C 0 km/h
1356 19-01-2017 21:20:00 -6.1 C 2.86 g/m*3 -6.1 C 0 km/h
1357 19-01-2017 21:25:00 -6.3 C 2.82 g/m*3 -6.3 C 0 km/h
1358 19-01-2017 21:30:00 -6.3 C 2.82 g/m*3 -6.3 C 0 km/h
1359 19-01-2017 21:35:00 -6.3 C 2.82 g/m*3 -6.3 C 0 km/h
1360 19-01-2017 21:40:00 -6.4 C 2.8 g/m*3 -6.4 C 0 km/h
1361 19-01-2017 21:45:00 -6.4 C 2.8 g/m*3 -6.4 C 0 km/h
1362 19-01-2017 21:50:00 -6.4 C 2.83 g/m*3 -6.4 C 0 km/h
1363 19-01-2017 21:55:00 -6.4 C 2.83 g/m*3 -6.4 C 0 km/h
1364 19-01-2017 22:00:00 -6.4 C 2.83 g/m*3 -6.4 C 0 km/h
1365 19-01-2017 22:05:00 -6.6 C 2.79 g/m*3 -6.6 C 0 km/h
1366 19-01-2017 22:10:00 -6.6 C 2.79 g/m*3 -6.6 C 0 km/h
1367 19-01-2017 22:15:00 -6.6 C 2.79 g/m*3 -6.6 C 0 km/h
1368 19-01-2017 22:20:00 -6.5 C 2.81 g/m*3 -6.5 C 0 km/h
1369 19-01-2017 22:25:00 -6.6 C 2.79 g/m*3 -6.6 C 0 km/h
1370 19-01-2017 22:30:00 -6.6 C 2.79 g/m*3 -6.6 C 0 km/h
1371 19-01-2017 22:35:00 -6.7 C 2.77 g/m*3 -6.7 C 0 km/h
1372 19-01-2017 22:40:00 -6.7 C 2.77 g/m*3 -6.7 C 0 km/h
1373 19-01-2017 22:45:00 -6.7 C 2.77 g/m*3 -6.7 C 0 km/h
1374 19-01-2017 22:50:00 -6.7 C 2.77 g/m*3 -6.7 C 0 km/h
1375 19-01-2017 22:55:00 -6.7 C 2.77 g/m*3 -6.7 C 0 km/h
Sensor: Nr:Datum:Temp:Abs-Feuchte:Windchill:Wind:
Aussen-T/F 1376 19-01-2017 23:00:00 -6.8 C 2.75 g/m*3 -6.8 C 0 km/h
1377 19-01-2017 23:05:00 -6.8 C 2.75 g/m*3 -6.8 C 0 km/h
1378 19-01-2017 23:10:00 -6.8 C 2.75 g/m*3 -6.8 C 0 km/h
1379 19-01-2017 23:15:00 -6.9 C 2.73 g/m*3 -6.9 C 0 km/h
1380 19-01-2017 23:20:00 -6.9 C 2.73 g/m*3 -6.9 C 0 km/h
1381 19-01-2017 23:25:00 -6.9 C 2.73 g/m*3 -6.9 C 0 km/h
1382 19-01-2017 23:30:00 -6.8 C 2.75 g/m*3 -6.8 C 1.6 km/h
1383 19-01-2017 23:35:00 -6.9 C 2.73 g/m*3 -6.9 C 0 km/h
1384 19-01-2017 23:40:00 -6.9 C 2.73 g/m*3 -6.9 C 0 km/h
1385 19-01-2017 23:45:00 -7 C 2.71 g/m*3 -7 C 0 km/h
1386 19-01-2017 23:50:00 -7 C 2.71 g/m*3 -7 C 0 km/h
1387 19-01-2017 23:55:00 -6.9 C 2.73 g/m*3 -6.9 C 0 km/h
1388 20-01-2017 00:00:00 -6.8 C 2.75 g/m*3 -6.8 C 0 km/h
1389 20-01-2017 00:05:00 -6.8 C 2.75 g/m*3 -6.8 C 0 km/h
1390 20-01-2017 00:10:00 -6.9 C 2.73 g/m*3 -6.9 C 0 km/h
1391 20-01-2017 00:15:00 -7.1 C 2.69 g/m*3 -7.1 C 0 km/h
1392 20-01-2017 00:20:00 -7.2 C 2.67 g/m*3 -7.2 C 0 km/h
1393 20-01-2017 00:25:00 -7.3 C 2.62 g/m*3 -7.3 C 0 km/h
1394 20-01-2017 00:30:00 -7.4 C 2.6 g/m*3 -7.4 C 0 km/h
1395 20-01-2017 00:35:00 -7.5 C 2.61 g/m*3 -7.5 C 0 km/h
1396 20-01-2017 00:40:00 -7.6 C 2.59 g/m*3 -7.6 C 0 km/h
1397 20-01-2017 00:45:00 -7.6 C 2.59 g/m*3 -7.6 C 0 km/h
1398 20-01-2017 00:50:00 -7.7 C 2.57 g/m*3 -7.7 C 0 km/h
1399 20-01-2017 00:55:00 -7.7 C 2.57 g/m*3 -7.7 C 0 km/h
1400 20-01-2017 01:00:00 -7.7 C 2.57 g/m*3 -7.7 C 0 km/h
Sensor: Nr:Datum:Temp:Abs-Feuchte:Windchill:Wind:
Aussen-T/F 1401 20-01-2017 01:05:00 -7.7 C 2.57 g/m*3 -7.7 C 0 km/h
1402 20-01-2017 01:10:00 -7.7 C 2.6 g/m*3 -7.7 C 0 km/h
1403 20-01-2017 01:15:00 -7.7 C 2.6 g/m*3 -7.7 C 0 km/h
1404 20-01-2017 01:20:00 -7.7 C 2.6 g/m*3 -7.7 C 0 km/h
1405 20-01-2017 01:25:00 -7.7 C 2.57 g/m*3 -7.7 C 0 km/h
1406 20-01-2017 01:30:00 -7.8 C 2.55 g/m*3 -7.8 C 0 km/h
1407 20-01-2017 01:35:00 -7.7 C 2.6 g/m*3 -7.7 C 0 km/h
1408 20-01-2017 01:40:00 -7.7 C 2.6 g/m*3 -7.7 C 0 km/h
1409 20-01-2017 01:45:00 -7.8 C 2.58 g/m*3 -7.8 C 0 km/h
1410 20-01-2017 01:50:00 -7.8 C 2.55 g/m*3 -7.8 C 0 km/h
1411 20-01-2017 01:55:00 -7.8 C 2.55 g/m*3 -7.8 C 0 km/h
1412 20-01-2017 02:00:00 -7.9 C 2.53 g/m*3 -7.9 C 0 km/h
1413 20-01-2017 02:05:00 -8 C 2.52 g/m*3 -8 C 0 km/h
1414 20-01-2017 02:10:00 -8.1 C 2.5 g/m*3 -8.1 C 0 km/h
1415 20-01-2017 02:15:00 -8.2 C 2.48 g/m*3 -8.2 C 0 km/h
1416 20-01-2017 02:20:00 -8.2 C 2.48 g/m*3 -8.2 C 0 km/h
1417 20-01-2017 02:25:00 -8.2 C 2.48 g/m*3 -8.2 C 0 km/h
1418 20-01-2017 02:30:00 -8.2 C 2.48 g/m*3 -8.2 C 0 km/h
1419 20-01-2017 02:35:00 -8.3 C 2.46 g/m*3 -8.3 C 0 km/h
1420 20-01-2017 02:40:00 -8.3 C 2.49 g/m*3 -8.3 C 0 km/h
1421 20-01-2017 02:45:00 -8.3 C 2.49 g/m*3 -8.3 C 0 km/h
1422 20-01-2017 02:50:00 -8.3 C 2.49 g/m*3 -8.3 C 0 km/h
1423 20-01-2017 02:55:00 -8.3 C 2.49 g/m*3 -8.3 C 0 km/h
1424 20-01-2017 03:00:00 -8.3 C 2.49 g/m*3 -8.3 C 0 km/h
1425 20-01-2017 03:05:00 -8.3 C 2.49 g/m*3 -8.3 C 0 km/h
Sensor: Nr:Datum:Temp:Abs-Feuchte:Windchill:Wind:
Aussen-T/F 1426 20-01-2017 03:10:00 -8.3 C 2.49 g/m*3 -8.3 C 0 km/h
1427 20-01-2017 03:15:00 -8.4 C 2.44 g/m*3 -8.4 C 0 km/h
1428 20-01-2017 03:20:00 -8.6 C 2.41 g/m*3 -8.6 C 0 km/h
1429 20-01-2017 03:25:00 -8.7 C 2.39 g/m*3 -8.7 C 0 km/h
1430 20-01-2017 03:30:00 -8.7 C 2.41 g/m*3 -8.7 C 0 km/h
1431 20-01-2017 03:35:00 -8.7 C 2.41 g/m*3 -8.7 C 0 km/h
1432 20-01-2017 03:40:00 -8.7 C 2.41 g/m*3 -8.7 C 0 km/h
1433 20-01-2017 03:45:00 -8.6 C 2.43 g/m*3 -8.6 C 0 km/h
1434 20-01-2017 03:50:00 -8.6 C 2.43 g/m*3 -8.6 C 0 km/h
1435 20-01-2017 03:55:00 -8.7 C 2.41 g/m*3 -8.7 C 0 km/h
1436 20-01-2017 04:00:00 -8.7 C 2.41 g/m*3 -8.7 C 0 km/h
1437 20-01-2017 04:05:00 -8.6 C 2.43 g/m*3 -8.6 C 0 km/h
1438 20-01-2017 04:10:00 -8.4 C 2.5 g/m*3 -8.4 C 0 km/h
1439 20-01-2017 04:15:00 -8.4 C 2.47 g/m*3 -8.4 C 0 km/h
1440 20-01-2017 04:20:00 -8.4 C 2.47 g/m*3 -8.4 C 0 km/h
1441 20-01-2017 04:25:00 -8.5 C 2.45 g/m*3 -8.5 C 0 km/h
1442 20-01-2017 04:30:00 -8.6 C 2.43 g/m*3 -8.6 C 0 km/h
1443 20-01-2017 04:35:00 -8.7 C 2.41 g/m*3 -8.7 C 0 km/h
1444 20-01-2017 04:40:00 -8.8 C 2.4 g/m*3 -8.8 C 0 km/h
1445 20-01-2017 04:45:00 -8.9 C 2.38 g/m*3 -8.9 C 0 km/h
1446 20-01-2017 04:50:00 -8.9 C 2.38 g/m*3 -8.9 C 0 km/h
1447 20-01-2017 04:55:00 -9 C 2.36 g/m*3 -9 C 0 km/h
1448 20-01-2017 05:00:00 -9.1 C 2.34 g/m*3 -9.1 C 0 km/h
1449 20-01-2017 05:05:00 -9.1 C 2.34 g/m*3 -9.1 C 0 km/h
1450 20-01-2017 05:10:00 -9.2 C 2.33 g/m*3 -9.2 C 0 km/h
Sensor: Nr:Datum:Temp:Abs-Feuchte:Windchill:Wind:
Aussen-T/F 1451 20-01-2017 05:15:00 -9.2 C 2.33 g/m*3 -9.2 C 0 km/h
1452 20-01-2017 05:20:00 -9.2 C 2.33 g/m*3 -9.2 C 0 km/h
1453 20-01-2017 05:25:00 -9.2 C 2.33 g/m*3 -9.2 C 0 km/h
1454 20-01-2017 05:30:00 -9.2 C 2.33 g/m*3 -9.2 C 0 km/h
1455 20-01-2017 05:35:00 -9.2 C 2.33 g/m*3 -9.2 C 0 km/h
1456 20-01-2017 05:40:00 -9.2 C 2.33 g/m*3 -9.2 C 0 km/h
1457 20-01-2017 05:45:00 -9.3 C 2.31 g/m*3 -9.3 C 0 km/h
1458 20-01-2017 05:50:00 -9.3 C 2.31 g/m*3 -9.3 C 0 km/h
1459 20-01-2017 05:55:00 -9.3 C 2.31 g/m*3 -9.3 C 0 km/h
1460 20-01-2017 06:00:00 -9.3 C 2.31 g/m*3 -9.3 C 0 km/h
1461 20-01-2017 06:05:00 -9.3 C 2.31 g/m*3 -9.3 C 0 km/h
1462 20-01-2017 06:10:00 -9.4 C 2.29 g/m*3 -9.4 C 0 km/h
1463 20-01-2017 06:15:00 -9.4 C 2.29 g/m*3 -9.4 C 0 km/h
1464 20-01-2017 06:20:00 -9.5 C 2.27 g/m*3 -9.5 C 0 km/h
1465 20-01-2017 06:25:00 -9.5 C 2.27 g/m*3 -9.5 C 0 km/h
1466 20-01-2017 06:30:00 -9.6 C 2.26 g/m*3 -9.6 C 0 km/h
1467 20-01-2017 06:35:00 -9.6 C 2.26 g/m*3 -9.6 C 0 km/h
1468 20-01-2017 06:40:00 -9.6 C 2.26 g/m*3 -9.6 C 0 km/h
1469 20-01-2017 06:45:00 -9.6 C 2.26 g/m*3 -9.6 C 0 km/h
1470 20-01-2017 06:50:00 -9.6 C 2.26 g/m*3 -9.6 C 0 km/h
1471 20-01-2017 06:55:00 -9.6 C 2.26 g/m*3 -9.6 C 0 km/h
1472 20-01-2017 07:00:00 -9.6 C 2.26 g/m*3 -9.6 C 0 km/h
1473 20-01-2017 07:05:00 -9.6 C 2.26 g/m*3 -9.6 C 0 km/h
1474 20-01-2017 07:10:00 -9.6 C 2.26 g/m*3 -9.6 C 0 km/h
1475 20-01-2017 07:15:00 -9.6 C 2.26 g/m*3 -9.6 C 0 km/h
Sensor: Nr:Datum:Temp:Abs-Feuchte:Windchill:Wind:
Aussen-T/F 1476 20-01-2017 07:20:00 -9.6 C 2.26 g/m*3 -9.6 C 0 km/h
1477 20-01-2017 07:25:00 -9.6 C 2.26 g/m*3 -9.6 C 0 km/h
1478 20-01-2017 07:30:00 -9.6 C 2.26 g/m*3 -9.6 C 0 km/h
1479 20-01-2017 10:10:00 -9.3 C 2.31 g/m*3 -9.3 C 0 km/h
1480 20-01-2017 10:15:00 -9.3 C 2.31 g/m*3 -9.3 C 0 km/h
1481 20-01-2017 10:20:00 -9.2 C 2.33 g/m*3 -9.2 C 0 km/h
1482 20-01-2017 10:25:00 -9.2 C 2.33 g/m*3 -9.2 C 0 km/h
1483 20-01-2017 10:30:00 -9 C 2.36 g/m*3 -9 C 0 km/h
1484 20-01-2017 10:35:00 -8.9 C 2.38 g/m*3 -8.9 C 0 km/h
1485 20-01-2017 10:40:00 -8.7 C 2.44 g/m*3 -8.7 C 0 km/h
1486 20-01-2017 10:45:00 -8.6 C 2.46 g/m*3 -8.6 C 0 km/h
1487 20-01-2017 10:50:00 -8.4 C 2.5 g/m*3 -8.4 C 0 km/h
1488 20-01-2017 10:55:00 -8.2 C 2.53 g/m*3 -8.2 C 0 km/h
1489 20-01-2017 11:00:00 -8.1 C 2.55 g/m*3 -8.1 C 1.6 km/h
1490 20-01-2017 11:05:00 -7.9 C 2.59 g/m*3 -7.9 C 0 km/h
1491 20-01-2017 11:10:00 -7.7 C 2.63 g/m*3 -7.7 C 1.6 km/h
1492 20-01-2017 11:15:00 -7.6 C 2.65 g/m*3 -7.6 C 0 km/h
1493 20-01-2017 11:20:00 -7.4 C 2.69 g/m*3 -7.4 C 0 km/h
1494 20-01-2017 11:25:00 -7.3 C 2.71 g/m*3 -7.3 C 0 km/h
1495 20-01-2017 11:30:00 -7.3 C 2.71 g/m*3 -7.3 C 0 km/h
1496 20-01-2017 11:35:00 -7.2 C 2.73 g/m*3 -7.2 C 0 km/h
1497 20-01-2017 11:40:00 -7.2 C 2.73 g/m*3 -7.2 C 0 km/h
1498 20-01-2017 11:45:00 -7 C 2.77 g/m*3 -7 C 1.6 km/h
1499 20-01-2017 11:50:00 -6.9 C 2.79 g/m*3 -6.9 C 0 km/h
1500 20-01-2017 11:55:00 -6.7 C 2.83 g/m*3 -6.7 C 0 km/h
Sensor: Nr:Datum:Temp:Abs-Feuchte:Windchill:Wind:
Aussen-T/F 1501 20-01-2017 12:00:00 -6.6 C 2.85 g/m*3 -6.6 C 1.6 km/h
1502 20-01-2017 12:05:00 -6.4 C 2.89 g/m*3 -6.4 C 0 km/h
1503 20-01-2017 12:10:00 -6.3 C 2.91 g/m*3 -6.3 C 0 km/h
1504 20-01-2017 12:15:00 -6.2 C 2.93 g/m*3 -6.2 C 0 km/h
1505 20-01-2017 12:20:00 -6.1 C 2.96 g/m*3 -6.1 C 3.2 km/h
1506 20-01-2017 12:25:00 -5.9 C 3 g/m*3 -5.9 C 3.2 km/h
1507 20-01-2017 12:30:00 -5.7 C 3.04 g/m*3 -5.7 C 1.6 km/h
1508 20-01-2017 12:35:00 -5.6 C 3.06 g/m*3 -5.6 C 1.6 km/h
1509 20-01-2017 12:40:00 -5.4 C 3.11 g/m*3 -5.4 C 1.6 km/h
1510 20-01-2017 12:45:00 -5.3 C 3.13 g/m*3 -5.3 C 1.6 km/h
1511 20-01-2017 12:50:00 -5.2 C 3.15 g/m*3 -5.2 C 1.6 km/h
1512 20-01-2017 12:55:00 -5 C 3.2 g/m*3 -5 C 3.2 km/h
1513 20-01-2017 13:00:00 -4.9 C 3.19 g/m*3 -4.9 C 3.2 km/h
1514 20-01-2017 13:05:00 -4.8 C 3.21 g/m*3 -4.8 C 1.6 km/h
1515 20-01-2017 13:10:00 -4.7 C 3.24 g/m*3 -4.7 C 3.2 km/h
1516 20-01-2017 13:15:00 -4.6 C 3.22 g/m*3 -4.6 C 1.6 km/h
1517 20-01-2017 13:20:00 -4.4 C 3.27 g/m*3 -4.4 C 3.2 km/h
1518 20-01-2017 13:25:00 -4.3 C 3.29 g/m*3 -4.3 C 3.2 km/h
1519 20-01-2017 13:30:00 -4.2 C 3.32 g/m*3 -4.2 C 3.2 km/h
1520 20-01-2017 13:35:00 -4.1 C 3.31 g/m*3 -4.1 C 3.2 km/h
1521 20-01-2017 13:40:00 -4 C 3.33 g/m*3 -4 C 3.2 km/h
1522 20-01-2017 13:45:00 -3.9 C 3.35 g/m*3 -3.9 C 3.2 km/h
1523 20-01-2017 13:50:00 -3.8 C 3.38 g/m*3 -3.8 C 4.8 km/h
1524 20-01-2017 13:55:00 -3.6 C 3.43 g/m*3 -3.6 C 4.8 km/h
1525 20-01-2017 14:00:00 -3.5 C 3.45 g/m*3 -3.5 C 4.8 km/h
Sensor: Nr:Datum:Temp:Abs-Feuchte:Windchill:Wind:
Aussen-T/F 1526 20-01-2017 14:05:00 -3.4 C 3.44 g/m*3 -3.4 C 4.8 km/h
1527 20-01-2017 14:10:00 -3.3 C 3.46 g/m*3 -3.3 C 4.8 km/h
1528 20-01-2017 14:15:00 -3.3 C 3.46 g/m*3 -3.3 C 4.8 km/h
1529 20-01-2017 14:20:00 -3.2 C 3.45 g/m*3 -3.2 C 4.8 km/h
1530 20-01-2017 14:25:00 -3.1 C 3.47 g/m*3 -3.1 C 4.8 km/h
1531 20-01-2017 14:30:00 -3.1 C 3.47 g/m*3 -5.76 C 6.4 km/h
1532 20-01-2017 14:35:00 -3 C 3.46 g/m*3 -5.65 C 6.4 km/h
1533 20-01-2017 14:40:00 -2.9 C 3.48 g/m*3 -2.9 C 4.8 km/h
1534 20-01-2017 14:45:00 -2.9 C 3.48 g/m*3 -2.9 C 4.8 km/h
1535 20-01-2017 14:50:00 -2.8 C 3.51 g/m*3 -2.8 C 4.8 km/h
1536 20-01-2017 14:55:00 -2.8 C 3.51 g/m*3 -2.8 C 4.8 km/h
1537 20-01-2017 15:00:00 -2.7 C 3.53 g/m*3 -2.7 C 4.8 km/h
1538 20-01-2017 15:05:00 -2.7 C 3.53 g/m*3 -2.7 C 4.8 km/h
1539 20-01-2017 15:10:00 -2.6 C 3.56 g/m*3 -2.6 C 4.8 km/h
1540 20-01-2017 15:15:00 -2.6 C 3.56 g/m*3 -2.6 C 4.8 km/h
1541 20-01-2017 15:20:00 -2.5 C 3.58 g/m*3 -2.5 C 4.8 km/h
1542 20-01-2017 15:25:00 -2.4 C 3.61 g/m*3 -2.4 C 4.8 km/h
1543 20-01-2017 15:30:00 -2.4 C 3.61 g/m*3 -4.95 C 6.4 km/h
1544 20-01-2017 15:35:00 -2.3 C 3.63 g/m*3 -2.3 C 4.8 km/h
1545 20-01-2017 15:40:00 -2.3 C 3.63 g/m*3 -2.3 C 4.8 km/h
1546 20-01-2017 15:45:00 -2.3 C 3.59 g/m*3 -2.3 C 4.8 km/h
1547 20-01-2017 15:50:00 -2.3 C 3.59 g/m*3 -2.3 C 4.8 km/h
1548 20-01-2017 15:55:00 -2.3 C 3.59 g/m*3 -4.84 C 6.4 km/h
1549 20-01-2017 16:00:00 -2.2 C 3.62 g/m*3 -4.72 C 6.4 km/h
1550 20-01-2017 16:05:00 -2.2 C 3.66 g/m*3 -4.72 C 6.4 km/h
Sensor: Nr:Datum:Temp:Abs-Feuchte:Windchill:Wind:
Aussen-T/F 1551 20-01-2017 16:10:00 -2.2 C 3.66 g/m*3 -4.72 C 6.4 km/h
1552 20-01-2017 16:15:00 -2.1 C 3.64 g/m*3 -4.61 C 6.4 km/h
1553 20-01-2017 16:20:00 -2.1 C 3.64 g/m*3 -4.61 C 6.4 km/h
1554 20-01-2017 16:25:00 -2.1 C 3.64 g/m*3 -4.61 C 6.4 km/h
1555 20-01-2017 16:30:00 -2 C 3.67 g/m*3 -2 C 4.8 km/h
1556 20-01-2017 16:35:00 -2.1 C 3.6 g/m*3 -2.1 C 4.8 km/h
1557 20-01-2017 16:40:00 -2.1 C 3.6 g/m*3 -2.1 C 4.8 km/h
1558 20-01-2017 16:45:00 -2.1 C 3.6 g/m*3 -2.1 C 4.8 km/h
1559 20-01-2017 16:50:00 -2.1 C 3.6 g/m*3 -2.1 C 4.8 km/h
1560 20-01-2017 16:55:00 -2.1 C 3.6 g/m*3 -4.61 C 6.4 km/h
1561 20-01-2017 17:00:00 -2.2 C 3.57 g/m*3 -2.2 C 4.8 km/h
1562 20-01-2017 17:05:00 -2.2 C 3.53 g/m*3 -2.2 C 4.8 km/h
1563 20-01-2017 17:10:00 -2.3 C 3.51 g/m*3 -2.3 C 1.6 km/h
1564 20-01-2017 17:15:00 -2.4 C 3.48 g/m*3 -2.4 C 4.8 km/h
1565 20-01-2017 17:20:00 -2.5 C 3.46 g/m*3 -2.5 C 4.8 km/h
1566 20-01-2017 17:25:00 -2.6 C 3.48 g/m*3 -2.6 C 3.2 km/h
1567 20-01-2017 17:30:00 -2.7 C 3.45 g/m*3 -2.7 C 3.2 km/h
1568 20-01-2017 17:35:00 -2.7 C 3.45 g/m*3 -2.7 C 3.2 km/h
1569 20-01-2017 17:40:00 -2.8 C 3.43 g/m*3 -2.8 C 3.2 km/h
1570 20-01-2017 17:45:00 -2.8 C 3.47 g/m*3 -2.8 C 1.6 km/h
1571 20-01-2017 17:50:00 -2.9 C 3.44 g/m*3 -2.9 C 3.2 km/h
1572 20-01-2017 17:55:00 -3.1 C 3.35 g/m*3 -3.1 C 3.2 km/h
1573 20-01-2017 18:00:00 -3.3 C 3.31 g/m*3 -3.3 C 3.2 km/h
1574 20-01-2017 18:05:00 -3.3 C 3.35 g/m*3 -3.3 C 3.2 km/h
1575 20-01-2017 18:10:00 -3.3 C 3.35 g/m*3 -3.3 C 3.2 km/h
Sensor: Nr:Datum:Temp:Abs-Feuchte:Windchill:Wind:
Aussen-T/F 1576 20-01-2017 18:15:00 -3.4 C 3.32 g/m*3 -3.4 C 1.6 km/h
1577 20-01-2017 18:20:00 -3.4 C 3.36 g/m*3 -3.4 C 0 km/h
1578 20-01-2017 18:25:00 -3.5 C 3.34 g/m*3 -3.5 C 0 km/h
1579 20-01-2017 18:30:00 -3.5 C 3.34 g/m*3 -3.5 C 3.2 km/h
1580 20-01-2017 18:35:00 -3.6 C 3.31 g/m*3 -3.6 C 1.6 km/h
1581 20-01-2017 18:40:00 -3.6 C 3.35 g/m*3 -3.6 C 0 km/h
1582 20-01-2017 18:45:00 -3.6 C 3.35 g/m*3 -3.6 C 0 km/h
1583 20-01-2017 18:50:00 -3.6 C 3.35 g/m*3 -3.6 C 0 km/h
1584 20-01-2017 18:55:00 -3.7 C 3.29 g/m*3 -3.7 C 0 km/h
1585 20-01-2017 19:00:00 -3.8 C 3.3 g/m*3 -3.8 C 0 km/h
1586 20-01-2017 19:05:00 -3.9 C 3.24 g/m*3 -3.9 C 0 km/h
1587 20-01-2017 19:10:00 -4.1 C 3.2 g/m*3 -4.1 C 0 km/h
1588 20-01-2017 19:15:00 -4.2 C 3.17 g/m*3 -4.2 C 0 km/h
1589 20-01-2017 19:20:00 -4.4 C 3.13 g/m*3 -4.4 C 0 km/h
1590 20-01-2017 19:25:00 -4.6 C 3.08 g/m*3 -4.6 C 0 km/h
1591 20-01-2017 19:30:00 -4.7 C 3.06 g/m*3 -4.7 C 0 km/h
1592 20-01-2017 19:35:00 -4.7 C 3.1 g/m*3 -4.7 C 0 km/h
1593 20-01-2017 19:40:00 -4.7 C 3.1 g/m*3 -4.7 C 0 km/h
1594 20-01-2017 19:45:00 -4.7 C 3.13 g/m*3 -4.7 C 0 km/h
1595 20-01-2017 19:50:00 -4.8 C 3.11 g/m*3 -4.8 C 0 km/h
1596 20-01-2017 19:55:00 -4.8 C 3.11 g/m*3 -4.8 C 0 km/h
1597 20-01-2017 20:00:00 -4.9 C 3.05 g/m*3 -4.9 C 0 km/h
1598 20-01-2017 20:05:00 -4.9 C 3.05 g/m*3 -4.9 C 0 km/h
1599 20-01-2017 20:10:00 -4.9 C 3.05 g/m*3 -4.9 C 0 km/h
1600 20-01-2017 20:15:00 -5.1 C 3.01 g/m*3 -5.1 C 0 km/h
Sensor: Nr:Datum:Temp:Abs-Feuchte:Windchill:Wind:
Aussen-T/F 1601 20-01-2017 20:20:00 -5.2 C 2.99 g/m*3 -5.2 C 0 km/h
1602 20-01-2017 20:25:00 -5.1 C 3.04 g/m*3 -5.1 C 0 km/h
1603 20-01-2017 20:30:00 -5.2 C 2.99 g/m*3 -5.2 C 0 km/h
1604 20-01-2017 20:35:00 -5.3 C 2.97 g/m*3 -5.3 C 0 km/h
1605 20-01-2017 20:40:00 -5.3 C 2.97 g/m*3 -5.3 C 0 km/h
1606 20-01-2017 20:45:00 -5.3 C 3 g/m*3 -5.3 C 0 km/h
1607 20-01-2017 20:50:00 -5.4 C 2.94 g/m*3 -5.4 C 0 km/h
1608 20-01-2017 20:55:00 -5.6 C 2.9 g/m*3 -5.6 C 0 km/h
1609 20-01-2017 21:00:00 -5.7 C 2.88 g/m*3 -5.7 C 0 km/h
1610 20-01-2017 21:05:00 -5.7 C 2.91 g/m*3 -5.7 C 0 km/h
1611 20-01-2017 21:10:00 -5.7 C 2.91 g/m*3 -5.7 C 0 km/h
1612 20-01-2017 21:15:00 -5.8 C 2.89 g/m*3 -5.8 C 0 km/h
1613 20-01-2017 21:20:00 -5.8 C 2.89 g/m*3 -5.8 C 0 km/h
1614 20-01-2017 21:25:00 -5.9 C 2.87 g/m*3 -5.9 C 0 km/h
1615 20-01-2017 21:30:00 -6 C 2.85 g/m*3 -6 C 0 km/h
1616 20-01-2017 21:35:00 -6.1 C 2.83 g/m*3 -6.1 C 0 km/h
1617 20-01-2017 21:40:00 -6.1 C 2.83 g/m*3 -6.1 C 0 km/h
1618 20-01-2017 21:45:00 -6 C 2.88 g/m*3 -6 C 0 km/h
1619 20-01-2017 21:50:00 -6.1 C 2.83 g/m*3 -6.1 C 0 km/h
1620 20-01-2017 21:55:00 -6.2 C 2.81 g/m*3 -6.2 C 0 km/h
1621 20-01-2017 22:00:00 -6.2 C 2.81 g/m*3 -6.2 C 0 km/h
1622 20-01-2017 22:05:00 -6.3 C 2.79 g/m*3 -6.3 C 0 km/h
1623 20-01-2017 22:10:00 -6.3 C 2.79 g/m*3 -6.3 C 0 km/h
1624 20-01-2017 22:15:00 -6.4 C 2.77 g/m*3 -6.4 C 0 km/h
1625 20-01-2017 22:20:00 -6.3 C 2.82 g/m*3 -6.3 C 0 km/h
Sensor: Nr:Datum:Temp:Abs-Feuchte:Windchill:Wind:
Aussen-T/F 1626 20-01-2017 22:25:00 -6.4 C 2.8 g/m*3 -6.4 C 0 km/h
1627 20-01-2017 22:30:00 -6.4 C 2.8 g/m*3 -6.4 C 0 km/h
1628 20-01-2017 22:35:00 -6.4 C 2.8 g/m*3 -6.4 C 0 km/h
1629 20-01-2017 22:40:00 -6.6 C 2.73 g/m*3 -6.6 C 0 km/h
1630 20-01-2017 22:45:00 -6.7 C 2.71 g/m*3 -6.7 C 0 km/h
1631 20-01-2017 22:50:00 -6.7 C 2.74 g/m*3 -6.7 C 0 km/h
1632 20-01-2017 22:55:00 -6.8 C 2.72 g/m*3 -6.8 C 0 km/h
1633 20-01-2017 23:00:00 -6.8 C 2.72 g/m*3 -6.8 C 0 km/h
1634 20-01-2017 23:05:00 -6.7 C 2.77 g/m*3 -6.7 C 0 km/h
1635 20-01-2017 23:10:00 -6.7 C 2.77 g/m*3 -6.7 C 3.2 km/h
1636 20-01-2017 23:15:00 -6.7 C 2.74 g/m*3 -6.7 C 0 km/h
1637 20-01-2017 23:20:00 -6.7 C 2.77 g/m*3 -6.7 C 0 km/h
1638 20-01-2017 23:25:00 -6.7 C 2.74 g/m*3 -6.7 C 0 km/h
1639 20-01-2017 23:30:00 -6.8 C 2.72 g/m*3 -6.8 C 0 km/h
1640 20-01-2017 23:35:00 -6.9 C 2.7 g/m*3 -6.9 C 0 km/h
1641 20-01-2017 23:40:00 -7 C 2.68 g/m*3 -7 C 0 km/h
1642 20-01-2017 23:45:00 -7.1 C 2.66 g/m*3 -7.1 C 0 km/h
1643 20-01-2017 23:50:00 -7.2 C 2.64 g/m*3 -7.2 C 0 km/h
1644 20-01-2017 23:55:00 -7.3 C 2.62 g/m*3 -7.3 C 0 km/h
1645 21-01-2017 00:00:00 -7.3 C 2.65 g/m*3 -7.3 C 0 km/h
1646 21-01-2017 00:05:00 -7.2 C 2.67 g/m*3 -7.2 C 0 km/h
1647 21-01-2017 00:10:00 -7.2 C 2.67 g/m*3 -7.2 C 0 km/h
1648 21-01-2017 00:15:00 -7.2 C 2.67 g/m*3 -7.2 C 0 km/h
1649 21-01-2017 00:20:00 -7.3 C 2.65 g/m*3 -7.3 C 0 km/h
1650 21-01-2017 00:25:00 -7.3 C 2.65 g/m*3 -7.3 C 0 km/h
Sensor: Nr:Datum:Temp:Abs-Feuchte:Windchill:Wind:
Aussen-T/F 1651 21-01-2017 00:30:00 -7.3 C 2.65 g/m*3 -7.3 C 1.6 km/h
1652 21-01-2017 00:35:00 -7.3 C 2.65 g/m*3 -7.3 C 0 km/h
1653 21-01-2017 00:40:00 -7.3 C 2.65 g/m*3 -7.3 C 0 km/h
1654 21-01-2017 00:45:00 -7.3 C 2.65 g/m*3 -7.3 C 0 km/h
1655 21-01-2017 00:50:00 -7.3 C 2.65 g/m*3 -7.3 C 0 km/h
1656 21-01-2017 00:55:00 -7.4 C 2.63 g/m*3 -7.4 C 0 km/h
1657 21-01-2017 01:00:00 -7.4 C 2.63 g/m*3 -7.4 C 0 km/h
1658 21-01-2017 01:05:00 -7.3 C 2.68 g/m*3 -7.3 C 0 km/h
1659 21-01-2017 01:10:00 -7.3 C 2.68 g/m*3 -7.3 C 0 km/h
1660 21-01-2017 01:15:00 -7.2 C 2.7 g/m*3 -7.2 C 0 km/h
1661 21-01-2017 01:20:00 -7.2 C 2.7 g/m*3 -7.2 C 0 km/h
1662 21-01-2017 01:25:00 -7.3 C 2.65 g/m*3 -7.3 C 0 km/h
1663 21-01-2017 01:30:00 -7.4 C 2.63 g/m*3 -7.4 C 0 km/h
1664 21-01-2017 01:35:00 -7.4 C 2.63 g/m*3 -7.4 C 0 km/h
1665 21-01-2017 01:40:00 -7.5 C 2.61 g/m*3 -7.5 C 0 km/h
1666 21-01-2017 01:45:00 -7.6 C 2.59 g/m*3 -7.6 C 0 km/h
1667 21-01-2017 01:50:00 -7.6 C 2.59 g/m*3 -7.6 C 0 km/h
1668 21-01-2017 01:55:00 -7.7 C 2.57 g/m*3 -7.7 C 0 km/h
1669 21-01-2017 02:00:00 -7.7 C 2.6 g/m*3 -7.7 C 0 km/h
1670 21-01-2017 02:05:00 -7.6 C 2.62 g/m*3 -7.6 C 0 km/h
1671 21-01-2017 02:10:00 -7.7 C 2.6 g/m*3 -7.7 C 0 km/h
1672 21-01-2017 02:15:00 -7.6 C 2.62 g/m*3 -7.6 C 0 km/h
1673 21-01-2017 02:20:00 -7.6 C 2.62 g/m*3 -7.6 C 0 km/h
1674 21-01-2017 02:25:00 -7.7 C 2.6 g/m*3 -7.7 C 0 km/h
1675 21-01-2017 02:30:00 -7.7 C 2.6 g/m*3 -7.7 C 0 km/h
Sensor: Nr:Datum:Temp:Abs-Feuchte:Windchill:Wind:
Aussen-T/F 1676 21-01-2017 02:35:00 -7.7 C 2.6 g/m*3 -7.7 C 0 km/h
1677 21-01-2017 02:40:00 -7.8 C 2.58 g/m*3 -7.8 C 0 km/h
1678 21-01-2017 02:45:00 -7.8 C 2.58 g/m*3 -7.8 C 0 km/h
1679 21-01-2017 02:50:00 -7.8 C 2.58 g/m*3 -7.8 C 0 km/h
1680 21-01-2017 02:55:00 -7.9 C 2.56 g/m*3 -7.9 C 0 km/h
1681 21-01-2017 03:00:00 -7.9 C 2.56 g/m*3 -7.9 C 0 km/h
1682 21-01-2017 03:05:00 -8 C 2.54 g/m*3 -8 C 0 km/h
1683 21-01-2017 03:10:00 -8.1 C 2.52 g/m*3 -8.1 C 0 km/h
1684 21-01-2017 03:15:00 -8.1 C 2.52 g/m*3 -8.1 C 0 km/h
1685 21-01-2017 03:20:00 -8.1 C 2.52 g/m*3 -8.1 C 0 km/h
1686 21-01-2017 03:25:00 -8.1 C 2.52 g/m*3 -8.1 C 0 km/h
1687 21-01-2017 03:30:00 -8.1 C 2.52 g/m*3 -8.1 C 0 km/h
1688 21-01-2017 03:35:00 -8.1 C 2.52 g/m*3 -8.1 C 0 km/h
1689 21-01-2017 03:40:00 -8.1 C 2.52 g/m*3 -8.1 C 0 km/h
1690 21-01-2017 03:45:00 -8.1 C 2.52 g/m*3 -8.1 C 0 km/h
1691 21-01-2017 03:50:00 -8.1 C 2.52 g/m*3 -8.1 C 0 km/h
1692 21-01-2017 03:55:00 -8.2 C 2.51 g/m*3 -8.2 C 0 km/h
1693 21-01-2017 04:00:00 -8.2 C 2.51 g/m*3 -8.2 C 0 km/h
1694 21-01-2017 04:05:00 -8.2 C 2.51 g/m*3 -8.2 C 0 km/h
1695 21-01-2017 04:10:00 -8.3 C 2.49 g/m*3 -8.3 C 0 km/h
1696 21-01-2017 04:15:00 -8.3 C 2.49 g/m*3 -8.3 C 0 km/h
1697 21-01-2017 04:20:00 -8.3 C 2.49 g/m*3 -8.3 C 0 km/h
1698 21-01-2017 04:25:00 -8.3 C 2.49 g/m*3 -8.3 C 0 km/h
1699 21-01-2017 04:30:00 -8.3 C 2.49 g/m*3 -8.3 C 0 km/h
1700 21-01-2017 04:35:00 -8.3 C 2.49 g/m*3 -8.3 C 0 km/h
Sensor: Nr:Datum:Temp:Abs-Feuchte:Windchill:Wind:
Aussen-T/F 1701 21-01-2017 04:40:00 -8.4 C 2.47 g/m*3 -8.4 C 0 km/h
1702 21-01-2017 04:45:00 -8.4 C 2.47 g/m*3 -8.4 C 0 km/h
1703 21-01-2017 04:50:00 -8.5 C 2.45 g/m*3 -8.5 C 0 km/h
1704 21-01-2017 04:55:00 -8.6 C 2.43 g/m*3 -8.6 C 0 km/h
1705 21-01-2017 05:00:00 -8.6 C 2.43 g/m*3 -8.6 C 0 km/h
1706 21-01-2017 05:05:00 -8.6 C 2.43 g/m*3 -8.6 C 0 km/h
1707 21-01-2017 05:10:00 -8.6 C 2.43 g/m*3 -8.6 C 0 km/h
1708 21-01-2017 05:15:00 -8.6 C 2.43 g/m*3 -8.6 C 0 km/h
1709 21-01-2017 05:20:00 -8.5 C 2.48 g/m*3 -8.5 C 0 km/h
1710 21-01-2017 05:25:00 -8.4 C 2.5 g/m*3 -8.4 C 0 km/h
1711 21-01-2017 05:30:00 -8.4 C 2.47 g/m*3 -8.4 C 0 km/h
1712 21-01-2017 05:35:00 -8.5 C 2.45 g/m*3 -8.5 C 0 km/h
1713 21-01-2017 05:40:00 -8.6 C 2.43 g/m*3 -8.6 C 0 km/h
1714 21-01-2017 05:45:00 -8.6 C 2.43 g/m*3 -8.6 C 0 km/h
1715 21-01-2017 05:50:00 -8.6 C 2.43 g/m*3 -8.6 C 0 km/h
1716 21-01-2017 05:55:00 -8.6 C 2.43 g/m*3 -8.6 C 0 km/h
1717 21-01-2017 06:00:00 -8.5 C 2.48 g/m*3 -8.5 C 0 km/h
1718 21-01-2017 06:05:00 -8.5 C 2.48 g/m*3 -8.5 C 0 km/h
1719 21-01-2017 06:10:00 -8.5 C 2.45 g/m*3 -8.5 C 0 km/h
1720 21-01-2017 06:15:00 -8.6 C 2.43 g/m*3 -8.6 C 0 km/h
1721 21-01-2017 06:20:00 -8.7 C 2.41 g/m*3 -8.7 C 0 km/h
1722 21-01-2017 06:25:00 -8.7 C 2.41 g/m*3 -8.7 C 0 km/h
1723 21-01-2017 06:30:00 -8.6 C 2.43 g/m*3 -8.6 C 0 km/h
1724 21-01-2017 06:35:00 -8.7 C 2.41 g/m*3 -8.7 C 0 km/h
1725 21-01-2017 06:40:00 -8.7 C 2.41 g/m*3 -8.7 C 0 km/h
Sensor: Nr:Datum:Temp:Abs-Feuchte:Windchill:Wind:
Aussen-T/F 1726 21-01-2017 06:45:00 -8.7 C 2.41 g/m*3 -8.7 C 0 km/h
1727 21-01-2017 10:10:00 -8.1 C 2.55 g/m*3 -8.1 C 0 km/h
1728 21-01-2017 10:15:00 -7.9 C 2.59 g/m*3 -7.9 C 0 km/h
1729 21-01-2017 10:20:00 -7.9 C 2.59 g/m*3 -7.9 C 0 km/h
1730 21-01-2017 10:25:00 -7.8 C 2.61 g/m*3 -7.8 C 0 km/h
1731 21-01-2017 10:30:00 -7.7 C 2.63 g/m*3 -7.7 C 0 km/h
1732 21-01-2017 10:35:00 -7.7 C 2.63 g/m*3 -7.7 C 0 km/h
1733 21-01-2017 10:40:00 -7.6 C 2.65 g/m*3 -7.6 C 0 km/h
1734 21-01-2017 10:45:00 -7.5 C 2.67 g/m*3 -7.5 C 0 km/h
1735 21-01-2017 10:50:00 -7.4 C 2.69 g/m*3 -7.4 C 0 km/h
1736 21-01-2017 10:55:00 -7.3 C 2.71 g/m*3 -7.3 C 0 km/h
1737 21-01-2017 11:00:00 -7.1 C 2.75 g/m*3 -7.1 C 0 km/h
1738 21-01-2017 11:05:00 -7 C 2.77 g/m*3 -7 C 0 km/h
1739 21-01-2017 11:10:00 -6.9 C 2.79 g/m*3 -6.9 C 0 km/h
1740 21-01-2017 11:15:00 -6.8 C 2.81 g/m*3 -6.8 C 0 km/h
1741 21-01-2017 11:20:00 -6.8 C 2.81 g/m*3 -6.8 C 0 km/h
1742 21-01-2017 11:25:00 -6.7 C 2.83 g/m*3 -6.7 C 0 km/h
1743 21-01-2017 11:30:00 -6.6 C 2.85 g/m*3 -6.6 C 0 km/h
1744 21-01-2017 11:35:00 -6.5 C 2.87 g/m*3 -6.5 C 0 km/h
1745 21-01-2017 11:40:00 -6.4 C 2.89 g/m*3 -6.4 C 0 km/h
1746 21-01-2017 11:45:00 -6.3 C 2.91 g/m*3 -6.3 C 0 km/h
1747 21-01-2017 11:50:00 -6.2 C 2.93 g/m*3 -6.2 C 0 km/h
1748 21-01-2017 11:55:00 -6 C 2.98 g/m*3 -6 C 0 km/h
1749 21-01-2017 12:00:00 -5.9 C 3.03 g/m*3 -5.9 C 0 km/h
1750 21-01-2017 12:05:00 -5.7 C 3.07 g/m*3 -5.7 C 0 km/h
Sensor: Nr:Datum:Temp:Abs-Feuchte:Windchill:Wind:
Aussen-T/F 1751 21-01-2017 12:10:00 -5.6 C 3.1 g/m*3 -5.6 C 0 km/h
1752 21-01-2017 12:15:00 -5.4 C 3.14 g/m*3 -5.4 C 0 km/h
1753 21-01-2017 12:20:00 -5.3 C 3.17 g/m*3 -5.3 C 1.6 km/h
1754 21-01-2017 12:25:00 -5.1 C 3.21 g/m*3 -5.1 C 0 km/h
1755 21-01-2017 12:30:00 -4.9 C 3.26 g/m*3 -4.9 C 0 km/h
1756 21-01-2017 12:35:00 -4.8 C 3.28 g/m*3 -4.8 C 0 km/h
1757 21-01-2017 12:40:00 -4.7 C 3.31 g/m*3 -4.7 C 0 km/h
1758 21-01-2017 12:45:00 -4.6 C 3.33 g/m*3 -4.6 C 0 km/h
1759 21-01-2017 12:50:00 -4.5 C 3.35 g/m*3 -4.5 C 1.6 km/h
1760 21-01-2017 12:55:00 -4.4 C 3.38 g/m*3 -4.4 C 0 km/h
1761 21-01-2017 13:00:00 -4.3 C 3.4 g/m*3 -4.3 C 1.6 km/h
1762 21-01-2017 13:05:00 -4.2 C 3.43 g/m*3 -4.2 C 3.2 km/h
1763 21-01-2017 13:10:00 -4 C 3.48 g/m*3 -4 C 1.6 km/h
1764 21-01-2017 13:15:00 -3.9 C 3.5 g/m*3 -3.9 C 1.6 km/h
1765 21-01-2017 13:20:00 -3.7 C 3.55 g/m*3 -3.7 C 3.2 km/h
1766 21-01-2017 13:25:00 -3.6 C 3.58 g/m*3 -3.6 C 1.6 km/h
1767 21-01-2017 13:30:00 -3.5 C 3.56 g/m*3 -3.5 C 1.6 km/h
1768 21-01-2017 13:35:00 -3.4 C 3.59 g/m*3 -3.4 C 3.2 km/h
1769 21-01-2017 13:40:00 -3.3 C 3.61 g/m*3 -3.3 C 3.2 km/h
1770 21-01-2017 13:45:00 -3.1 C 3.67 g/m*3 -3.1 C 3.2 km/h
1771 21-01-2017 13:50:00 -2.9 C 3.72 g/m*3 -2.9 C 3.2 km/h
1772 21-01-2017 13:55:00 -2.8 C 3.71 g/m*3 -2.8 C 3.2 km/h
1773 21-01-2017 14:00:00 -2.7 C 3.73 g/m*3 -2.7 C 3.2 km/h
1774 21-01-2017 14:05:00 -2.6 C 3.76 g/m*3 -2.6 C 3.2 km/h
1775 21-01-2017 14:10:00 -2.5 C 3.78 g/m*3 -2.5 C 3.2 km/h
Sensor: Nr:Datum:Temp:Abs-Feuchte:Windchill:Wind:
Aussen-T/F 1776 21-01-2017 14:15:00 -2.3 C 3.84 g/m*3 -2.3 C 3.2 km/h
1777 21-01-2017 14:20:00 -2.2 C 3.87 g/m*3 -2.2 C 3.2 km/h
1778 21-01-2017 14:25:00 -2.1 C 3.89 g/m*3 -2.1 C 3.2 km/h
1779 21-01-2017 14:30:00 -2 C 3.88 g/m*3 -2 C 3.2 km/h
1780 21-01-2017 14:35:00 -1.9 C 3.91 g/m*3 -1.9 C 3.2 km/h
1781 21-01-2017 14:40:00 -1.8 C 3.93 g/m*3 -1.8 C 3.2 km/h
1782 21-01-2017 14:45:00 -1.8 C 3.89 g/m*3 -1.8 C 4.8 km/h
1783 21-01-2017 14:50:00 -1.7 C 3.92 g/m*3 -1.7 C 3.2 km/h
1784 21-01-2017 14:55:00 -1.6 C 3.94 g/m*3 -1.6 C 4.8 km/h
1785 21-01-2017 15:00:00 -1.5 C 3.97 g/m*3 -1.5 C 4.8 km/h
1786 21-01-2017 15:05:00 -1.4 C 4 g/m*3 -1.4 C 4.8 km/h
1787 21-01-2017 15:10:00 -1.3 C 4.03 g/m*3 -1.3 C 4.8 km/h
1788 21-01-2017 15:15:00 -1.3 C 3.98 g/m*3 -1.3 C 4.8 km/h
1789 21-01-2017 15:20:00 -1.2 C 4.01 g/m*3 -3.57 C 6.4 km/h
1790 21-01-2017 15:25:00 -1.2 C 4.01 g/m*3 -3.57 C 6.4 km/h
1791 21-01-2017 15:30:00 -1.2 C 4.01 g/m*3 -3.57 C 6.4 km/h
1792 21-01-2017 15:35:00 -1.2 C 4.01 g/m*3 -1.2 C 4.8 km/h
1793 21-01-2017 15:40:00 -1.1 C 4 g/m*3 -1.1 C 4.8 km/h
1794 21-01-2017 15:45:00 -1.1 C 4 g/m*3 -3.45 C 6.4 km/h
1795 21-01-2017 15:50:00 -1.1 C 4 g/m*3 -3.45 C 6.4 km/h
1796 21-01-2017 15:55:00 -1.1 C 4 g/m*3 -3.45 C 6.4 km/h
1797 21-01-2017 16:00:00 -1.1 C 4 g/m*3 -3.45 C 6.4 km/h
1798 21-01-2017 16:05:00 -1.1 C 4 g/m*3 -3.45 C 6.4 km/h
1799 21-01-2017 16:10:00 -1.1 C 3.95 g/m*3 -3.45 C 6.4 km/h
1800 21-01-2017 16:15:00 -1.2 C 3.92 g/m*3 -3.57 C 6.4 km/h
Sensor: Nr:Datum:Temp:Abs-Feuchte:Windchill:Wind:
Aussen-T/F 1801 21-01-2017 16:20:00 -1.2 C 3.92 g/m*3 -3.57 C 6.4 km/h
1802 21-01-2017 16:25:00 -1.2 C 3.92 g/m*3 -3.57 C 6.4 km/h
1803 21-01-2017 16:30:00 -1.2 C 3.92 g/m*3 -3.57 C 6.4 km/h
1804 21-01-2017 16:35:00 -1.3 C 3.9 g/m*3 -3.68 C 6.4 km/h
1805 21-01-2017 16:40:00 -1.3 C 3.9 g/m*3 -3.68 C 6.4 km/h
1806 21-01-2017 16:45:00 -1.3 C 3.9 g/m*3 -3.68 C 6.4 km/h
1807 21-01-2017 16:50:00 -1.3 C 3.9 g/m*3 -3.68 C 6.4 km/h
1808 21-01-2017 16:55:00 -1.3 C 3.9 g/m*3 -3.68 C 6.4 km/h
1809 21-01-2017 17:00:00 -1.4 C 3.82 g/m*3 -3.8 C 6.4 km/h
1810 21-01-2017 17:05:00 -1.5 C 3.84 g/m*3 -1.5 C 4.8 km/h
1811 21-01-2017 17:10:00 -1.6 C 3.77 g/m*3 -4.03 C 6.4 km/h
1812 21-01-2017 17:15:00 -1.6 C 3.77 g/m*3 -4.03 C 6.4 km/h
1813 21-01-2017 17:20:00 -1.6 C 3.77 g/m*3 -1.6 C 4.8 km/h
1814 21-01-2017 17:25:00 -1.7 C 3.75 g/m*3 -1.7 C 4.8 km/h
1815 21-01-2017 17:30:00 -1.7 C 3.75 g/m*3 -4.15 C 6.4 km/h
1816 21-01-2017 17:35:00 -1.8 C 3.72 g/m*3 -4.26 C 6.4 km/h
1817 21-01-2017 17:40:00 -1.9 C 3.69 g/m*3 -1.9 C 4.8 km/h
1818 21-01-2017 17:45:00 -2 C 3.67 g/m*3 -2 C 4.8 km/h
1819 21-01-2017 17:50:00 -2.2 C 3.62 g/m*3 -2.2 C 1.6 km/h
1820 21-01-2017 17:55:00 -2.3 C 3.63 g/m*3 -2.3 C 3.2 km/h
1821 21-01-2017 18:00:00 -2.3 C 3.63 g/m*3 -2.3 C 4.8 km/h
1822 21-01-2017 18:05:00 -2.4 C 3.61 g/m*3 -2.4 C 3.2 km/h
1823 21-01-2017 18:10:00 -2.5 C 3.58 g/m*3 -2.5 C 3.2 km/h
1824 21-01-2017 18:15:00 -2.7 C 3.53 g/m*3 -2.7 C 3.2 km/h
1825 21-01-2017 18:20:00 -2.8 C 3.51 g/m*3 -2.8 C 1.6 km/h
Sensor: Nr:Datum:Temp:Abs-Feuchte:Windchill:Wind:
Aussen-T/F 1826 21-01-2017 18:25:00 -2.9 C 3.48 g/m*3 -2.9 C 0 km/h
1827 21-01-2017 18:30:00 -3.1 C 3.47 g/m*3 -3.1 C 0 km/h
1828 21-01-2017 18:35:00 -3.2 C 3.45 g/m*3 -3.2 C 0 km/h
1829 21-01-2017 18:40:00 -3.4 C 3.4 g/m*3 -3.4 C 0 km/h
1830 21-01-2017 18:45:00 -3.6 C 3.35 g/m*3 -3.6 C 1.6 km/h
1831 21-01-2017 18:50:00 -3.7 C 3.33 g/m*3 -3.7 C 0 km/h
1832 21-01-2017 18:55:00 -3.8 C 3.3 g/m*3 -3.8 C 0 km/h
1833 21-01-2017 19:00:00 -4.1 C 3.23 g/m*3 -4.1 C 0 km/h
1834 21-01-2017 19:05:00 -4.2 C 3.21 g/m*3 -4.2 C 0 km/h
1835 21-01-2017 19:10:00 -4.2 C 3.25 g/m*3 -4.2 C 0 km/h
1836 21-01-2017 19:15:00 -4.2 C 3.25 g/m*3 -4.2 C 0 km/h
1837 21-01-2017 19:20:00 -4.2 C 3.25 g/m*3 -4.2 C 0 km/h
1838 21-01-2017 19:25:00 -4.3 C 3.22 g/m*3 -4.3 C 0 km/h
1839 21-01-2017 19:30:00 -4.4 C 3.24 g/m*3 -4.4 C 1.6 km/h
1840 21-01-2017 19:35:00 -4.3 C 3.26 g/m*3 -4.3 C 4.8 km/h
1841 21-01-2017 19:40:00 -4.2 C 3.32 g/m*3 -4.2 C 3.2 km/h
1842 21-01-2017 19:45:00 -4.2 C 3.28 g/m*3 -4.2 C 0 km/h
1843 21-01-2017 19:50:00 -4.3 C 3.22 g/m*3 -4.3 C 1.6 km/h
1844 21-01-2017 19:55:00 -4.5 C 3.18 g/m*3 -4.5 C 0 km/h
1845 21-01-2017 20:00:00 -4.6 C 3.15 g/m*3 -4.6 C 1.6 km/h
1846 21-01-2017 20:05:00 -4.6 C 3.19 g/m*3 -4.6 C 0 km/h
1847 21-01-2017 20:10:00 -4.8 C 3.11 g/m*3 -4.8 C 0 km/h
1848 21-01-2017 20:15:00 -4.8 C 3.14 g/m*3 -4.8 C 0 km/h
1849 21-01-2017 20:20:00 -4.8 C 3.14 g/m*3 -4.8 C 0 km/h
1850 21-01-2017 20:25:00 -5.1 C 3.04 g/m*3 -5.1 C 0 km/h
Sensor: Nr:Datum:Temp:Abs-Feuchte:Windchill:Wind:
Aussen-T/F 1851 21-01-2017 20:30:00 -5.2 C 3.02 g/m*3 -5.2 C 0 km/h
1852 21-01-2017 20:35:00 -5.3 C 3.03 g/m*3 -5.3 C 0 km/h
1853 21-01-2017 20:40:00 -5.2 C 3.05 g/m*3 -5.2 C 0 km/h
1854 21-01-2017 20:45:00 -5.3 C 3.03 g/m*3 -5.3 C 0 km/h
1855 21-01-2017 20:50:00 -5.3 C 3.03 g/m*3 -5.3 C 0 km/h
1856 21-01-2017 20:55:00 -5.4 C 3.04 g/m*3 -5.4 C 0 km/h
1857 21-01-2017 21:00:00 -5.4 C 3.04 g/m*3 -5.4 C 0 km/h
1858 21-01-2017 21:05:00 -5.4 C 3.01 g/m*3 -5.4 C 0 km/h
1859 21-01-2017 21:10:00 -5.4 C 3.04 g/m*3 -5.4 C 0 km/h
1860 21-01-2017 21:15:00 -5.5 C 3.02 g/m*3 -5.5 C 0 km/h
1861 21-01-2017 21:20:00 -5.6 C 2.97 g/m*3 -5.6 C 0 km/h
1862 21-01-2017 21:25:00 -5.7 C 2.95 g/m*3 -5.7 C 0 km/h
1863 21-01-2017 21:30:00 -5.7 C 2.98 g/m*3 -5.7 C 0 km/h
1864 21-01-2017 21:35:00 -5.8 C 2.92 g/m*3 -5.8 C 0 km/h
1865 21-01-2017 21:40:00 -6 C 2.88 g/m*3 -6 C 0 km/h
1866 21-01-2017 21:45:00 -6 C 2.91 g/m*3 -6 C 1.6 km/h
1867 21-01-2017 21:50:00 -5.9 C 2.93 g/m*3 -5.9 C 0 km/h
1868 21-01-2017 21:55:00 -6.1 C 2.89 g/m*3 -6.1 C 0 km/h
1869 21-01-2017 22:00:00 -6.2 C 2.87 g/m*3 -6.2 C 0 km/h
1870 21-01-2017 22:05:00 -6.2 C 2.87 g/m*3 -6.2 C 0 km/h
1871 21-01-2017 22:10:00 -6.3 C 2.85 g/m*3 -6.3 C 0 km/h
1872 21-01-2017 22:15:00 -6.3 C 2.85 g/m*3 -6.3 C 0 km/h
1873 21-01-2017 22:20:00 -6.3 C 2.85 g/m*3 -6.3 C 0 km/h
1874 21-01-2017 22:25:00 -6.3 C 2.85 g/m*3 -6.3 C 0 km/h
1875 21-01-2017 22:30:00 -6.3 C 2.85 g/m*3 -6.3 C 0 km/h
Sensor: Nr:Datum:Temp:Abs-Feuchte:Windchill:Wind:
Aussen-T/F 1876 21-01-2017 22:35:00 -6.2 C 2.9 g/m*3 -6.2 C 0 km/h
1877 21-01-2017 22:40:00 -6.3 C 2.85 g/m*3 -6.3 C 0 km/h
1878 21-01-2017 22:45:00 -6.4 C 2.83 g/m*3 -6.4 C 0 km/h
1879 21-01-2017 22:50:00 -6.5 C 2.81 g/m*3 -6.5 C 0 km/h
1880 21-01-2017 22:55:00 -6.6 C 2.79 g/m*3 -6.6 C 0 km/h
1881 21-01-2017 23:00:00 -6.6 C 2.79 g/m*3 -6.6 C 0 km/h
1882 21-01-2017 23:05:00 -6.7 C 2.77 g/m*3 -6.7 C 0 km/h
1883 21-01-2017 23:10:00 -6.8 C 2.75 g/m*3 -6.8 C 0 km/h
1884 21-01-2017 23:15:00 -6.8 C 2.75 g/m*3 -6.8 C 0 km/h
1885 21-01-2017 23:20:00 -6.9 C 2.73 g/m*3 -6.9 C 0 km/h
1886 21-01-2017 23:25:00 -6.9 C 2.73 g/m*3 -6.9 C 0 km/h
1887 21-01-2017 23:30:00 -7 C 2.71 g/m*3 -7 C 0 km/h
1888 21-01-2017 23:35:00 -6.9 C 2.76 g/m*3 -6.9 C 0 km/h
1889 21-01-2017 23:40:00 -6.8 C 2.78 g/m*3 -6.8 C 0 km/h
1890 21-01-2017 23:45:00 -6.8 C 2.78 g/m*3 -6.8 C 0 km/h
1891 21-01-2017 23:50:00 -6.9 C 2.73 g/m*3 -6.9 C 0 km/h
1892 21-01-2017 23:55:00 -7.1 C 2.69 g/m*3 -7.1 C 0 km/h
1893 22-01-2017 00:00:00 -7.2 C 2.7 g/m*3 -7.2 C 0 km/h
1894 22-01-2017 00:05:00 -7.3 C 2.65 g/m*3 -7.3 C 0 km/h
1895 22-01-2017 00:10:00 -7.1 C 2.72 g/m*3 -7.1 C 0 km/h
1896 22-01-2017 00:15:00 -6.9 C 2.79 g/m*3 -6.9 C 3.2 km/h
1897 22-01-2017 00:20:00 -6.8 C 2.81 g/m*3 -6.8 C 1.6 km/h
1898 22-01-2017 00:25:00 -6.7 C 2.8 g/m*3 -6.7 C 0 km/h
1899 22-01-2017 00:30:00 -6.7 C 2.8 g/m*3 -6.7 C 0 km/h
1900 22-01-2017 00:35:00 -6.8 C 2.78 g/m*3 -6.8 C 0 km/h
Sensor: Nr:Datum:Temp:Abs-Feuchte:Windchill:Wind:
Aussen-T/F 1901 22-01-2017 00:40:00 -7 C 2.74 g/m*3 -7 C 0 km/h
1902 22-01-2017 00:45:00 -7.2 C 2.7 g/m*3 -7.2 C 0 km/h
1903 22-01-2017 00:50:00 -7.3 C 2.65 g/m*3 -7.3 C 0 km/h
1904 22-01-2017 00:55:00 -7.5 C 2.61 g/m*3 -7.5 C 0 km/h
1905 22-01-2017 01:00:00 -7.6 C 2.59 g/m*3 -7.6 C 0 km/h
1906 22-01-2017 01:05:00 -7.7 C 2.6 g/m*3 -7.7 C 0 km/h
1907 22-01-2017 01:10:00 -7.5 C 2.64 g/m*3 -7.5 C 0 km/h
1908 22-01-2017 01:15:00 -7.4 C 2.66 g/m*3 -7.4 C 0 km/h
1909 22-01-2017 01:20:00 -7.5 C 2.64 g/m*3 -7.5 C 0 km/h
1910 22-01-2017 01:25:00 -7.6 C 2.62 g/m*3 -7.6 C 0 km/h
1911 22-01-2017 01:30:00 -7.7 C 2.6 g/m*3 -7.7 C 0 km/h
1912 22-01-2017 01:35:00 -7.7 C 2.6 g/m*3 -7.7 C 0 km/h
1913 22-01-2017 01:40:00 -7.7 C 2.6 g/m*3 -7.7 C 0 km/h
1914 22-01-2017 01:45:00 -7.6 C 2.65 g/m*3 -7.6 C 0 km/h
1915 22-01-2017 01:50:00 -7.5 C 2.67 g/m*3 -7.5 C 0 km/h
1916 22-01-2017 01:55:00 -7.4 C 2.69 g/m*3 -7.4 C 0 km/h
1917 22-01-2017 02:00:00 -7.4 C 2.69 g/m*3 -7.4 C 0 km/h
1918 22-01-2017 02:05:00 -7.6 C 2.62 g/m*3 -7.6 C 1.6 km/h
1919 22-01-2017 02:10:00 -7.7 C 2.6 g/m*3 -7.7 C 0 km/h
1920 22-01-2017 02:15:00 -7.7 C 2.6 g/m*3 -7.7 C 0 km/h
1921 22-01-2017 02:20:00 -7.8 C 2.58 g/m*3 -7.8 C 0 km/h
1922 22-01-2017 02:25:00 -8 C 2.54 g/m*3 -8 C 0 km/h
1923 22-01-2017 02:30:00 -8.2 C 2.51 g/m*3 -8.2 C 0 km/h
1924 22-01-2017 02:35:00 -8.2 C 2.51 g/m*3 -8.2 C 0 km/h
1925 22-01-2017 02:40:00 -8.3 C 2.49 g/m*3 -8.3 C 0 km/h
Sensor: Nr:Datum:Temp:Abs-Feuchte:Windchill:Wind:
Aussen-T/F 1926 22-01-2017 02:45:00 -8.3 C 2.49 g/m*3 -8.3 C 0 km/h
1927 22-01-2017 02:50:00 -8.4 C 2.47 g/m*3 -8.4 C 0 km/h
1928 22-01-2017 02:55:00 -8.6 C 2.43 g/m*3 -8.6 C 0 km/h
1929 22-01-2017 03:00:00 -8.7 C 2.39 g/m*3 -8.7 C 0 km/h
1930 22-01-2017 03:05:00 -8.8 C 2.37 g/m*3 -8.8 C 0 km/h
1931 22-01-2017 03:10:00 -8.9 C 2.38 g/m*3 -8.9 C 0 km/h
1932 22-01-2017 03:15:00 -9 C 2.36 g/m*3 -9 C 0 km/h
1933 22-01-2017 03:20:00 -9 C 2.36 g/m*3 -9 C 0 km/h
1934 22-01-2017 03:25:00 -9 C 2.36 g/m*3 -9 C 0 km/h
1935 22-01-2017 03:30:00 -8.9 C 2.38 g/m*3 -8.9 C 0 km/h
1936 22-01-2017 03:35:00 -9.1 C 2.34 g/m*3 -9.1 C 0 km/h
1937 22-01-2017 03:40:00 -9.1 C 2.34 g/m*3 -9.1 C 0 km/h
1938 22-01-2017 03:45:00 -9.1 C 2.34 g/m*3 -9.1 C 0 km/h
1939 22-01-2017 03:50:00 -9.1 C 2.34 g/m*3 -9.1 C 0 km/h
1940 22-01-2017 03:55:00 -9.1 C 2.34 g/m*3 -9.1 C 0 km/h
1941 22-01-2017 04:00:00 -9 C 2.36 g/m*3 -9 C 0 km/h
1942 22-01-2017 04:05:00 -8.8 C 2.42 g/m*3 -8.8 C 0 km/h
1943 22-01-2017 04:10:00 -8.7 C 2.44 g/m*3 -8.7 C 0 km/h
1944 22-01-2017 04:15:00 -8.7 C 2.44 g/m*3 -8.7 C 0 km/h
1945 22-01-2017 04:20:00 -8.7 C 2.41 g/m*3 -8.7 C 0 km/h
1946 22-01-2017 04:25:00 -8.7 C 2.41 g/m*3 -8.7 C 0 km/h
1947 22-01-2017 04:30:00 -8.7 C 2.41 g/m*3 -8.7 C 1.6 km/h
1948 22-01-2017 04:35:00 -8.8 C 2.4 g/m*3 -8.8 C 0 km/h
1949 22-01-2017 04:40:00 -8.7 C 2.41 g/m*3 -8.7 C 1.6 km/h
1950 22-01-2017 04:45:00 -8.7 C 2.41 g/m*3 -8.7 C 1.6 km/h
Sensor: Nr:Datum:Temp:Abs-Feuchte:Windchill:Wind:
Aussen-T/F 1951 22-01-2017 04:50:00 -8.7 C 2.41 g/m*3 -8.7 C 0 km/h
1952 22-01-2017 04:55:00 -8.7 C 2.41 g/m*3 -8.7 C 0 km/h
1953 22-01-2017 05:00:00 -8.7 C 2.41 g/m*3 -8.7 C 0 km/h
1954 22-01-2017 05:05:00 -8.9 C 2.38 g/m*3 -8.9 C 0 km/h
1955 22-01-2017 05:10:00 -9.1 C 2.32 g/m*3 -9.1 C 0 km/h
1956 22-01-2017 05:15:00 -9.2 C 2.3 g/m*3 -9.2 C 0 km/h
1957 22-01-2017 05:20:00 -9.3 C 2.31 g/m*3 -9.3 C 0 km/h
1958 22-01-2017 05:25:00 -9.3 C 2.31 g/m*3 -9.3 C 0 km/h
1959 22-01-2017 05:30:00 -9.2 C 2.33 g/m*3 -9.2 C 0 km/h
1960 22-01-2017 05:35:00 -9.2 C 2.33 g/m*3 -9.2 C 0 km/h
1961 22-01-2017 05:40:00 -9.3 C 2.31 g/m*3 -9.3 C 0 km/h
1962 22-01-2017 05:45:00 -9.3 C 2.31 g/m*3 -9.3 C 0 km/h
1963 22-01-2017 05:50:00 -9.4 C 2.29 g/m*3 -9.4 C 0 km/h
1964 22-01-2017 05:55:00 -9.5 C 2.25 g/m*3 -9.5 C 0 km/h
1965 22-01-2017 06:00:00 -9.7 C 2.22 g/m*3 -9.7 C 0 km/h
1966 22-01-2017 06:05:00 -9.8 C 2.2 g/m*3 -9.8 C 0 km/h
1967 22-01-2017 06:10:00 -9.9 C 2.18 g/m*3 -9.9 C 0 km/h
1968 22-01-2017 06:15:00 -10 C 2.17 g/m*3 -10 C 0 km/h
1969 22-01-2017 06:20:00 -10.1 C 2.15 g/m*3 -10.1 C 0 km/h
1970 22-01-2017 06:25:00 -10.1 C 2.15 g/m*3 -10.1 C 0 km/h
1971 22-01-2017 06:30:00 -10.1 C 2.15 g/m*3 -10.1 C 0 km/h
1972 22-01-2017 06:35:00 -10.1 C 2.15 g/m*3 -10.1 C 0 km/h
1973 22-01-2017 06:40:00 -10.1 C 2.15 g/m*3 -10.1 C 0 km/h
1974 22-01-2017 06:45:00 -10.1 C 2.17 g/m*3 -10.1 C 0 km/h
1975 22-01-2017 06:50:00 -10.1 C 2.17 g/m*3 -10.1 C 0 km/h
Sensor: Nr:Datum:Temp:Abs-Feuchte:Windchill:Wind:
Aussen-T/F 1976 22-01-2017 06:55:00 -9.9 C 2.21 g/m*3 -9.9 C 0 km/h
1977 22-01-2017 07:00:00 -9.9 C 2.21 g/m*3 -9.9 C 0 km/h
1978 22-01-2017 07:05:00 -9.8 C 2.22 g/m*3 -9.8 C 0 km/h
1979 22-01-2017 07:10:00 -9.8 C 2.22 g/m*3 -9.8 C 0 km/h
1980 22-01-2017 07:15:00 -9.8 C 2.22 g/m*3 -9.8 C 0 km/h
1981 22-01-2017 07:20:00 -9.9 C 2.21 g/m*3 -9.9 C 0 km/h
1982 22-01-2017 07:25:00 -10.1 C 2.15 g/m*3 -10.1 C 0 km/h
1983 22-01-2017 07:30:00 -10.2 C 2.13 g/m*3 -10.2 C 0 km/h
1984 22-01-2017 07:35:00 -10.3 C 2.12 g/m*3 -10.3 C 0 km/h
1985 22-01-2017 09:55:00 -9.9 C 2.21 g/m*3 -9.9 C 0 km/h
1986 22-01-2017 10:00:00 -9.8 C 2.22 g/m*3 -9.8 C 0 km/h
1987 22-01-2017 10:05:00 -9.8 C 2.22 g/m*3 -9.8 C 0 km/h
1988 22-01-2017 10:10:00 -9.7 C 2.24 g/m*3 -9.7 C 0 km/h
1989 22-01-2017 10:15:00 -9.7 C 2.24 g/m*3 -9.7 C 0 km/h
1990 22-01-2017 10:20:00 -9.7 C 2.24 g/m*3 -9.7 C 0 km/h
1991 22-01-2017 10:25:00 -9.6 C 2.26 g/m*3 -9.6 C 0 km/h
1992 22-01-2017 10:30:00 -9.6 C 2.26 g/m*3 -9.6 C 0 km/h
1993 22-01-2017 10:35:00 -9.6 C 2.26 g/m*3 -9.6 C 0 km/h
1994 22-01-2017 10:40:00 -9.5 C 2.27 g/m*3 -9.5 C 0 km/h
1995 22-01-2017 10:45:00 -9.4 C 2.29 g/m*3 -9.4 C 0 km/h
1996 22-01-2017 10:50:00 -9.3 C 2.31 g/m*3 -9.3 C 0 km/h
1997 22-01-2017 10:55:00 -9.2 C 2.33 g/m*3 -9.2 C 0 km/h
1998 22-01-2017 11:00:00 -9.1 C 2.34 g/m*3 -9.1 C 0 km/h
1999 22-01-2017 11:05:00 -9 C 2.36 g/m*3 -9 C 0 km/h
2000 22-01-2017 11:10:00 -8.8 C 2.4 g/m*3 -8.8 C 0 km/h
Sensor: Nr:Datum:Temp:Abs-Feuchte:Windchill:Wind:
Aussen-T/F 2001 22-01-2017 11:15:00 -8.7 C 2.41 g/m*3 -8.7 C 0 km/h
2002 22-01-2017 11:20:00 -8.6 C 2.46 g/m*3 -8.6 C 0 km/h
2003 22-01-2017 11:25:00 -8.5 C 2.45 g/m*3 -8.5 C 0 km/h
2004 22-01-2017 11:30:00 -8.4 C 2.47 g/m*3 -8.4 C 0 km/h
2005 22-01-2017 11:35:00 -8.3 C 2.49 g/m*3 -8.3 C 0 km/h
2006 22-01-2017 11:40:00 -8.3 C 2.49 g/m*3 -8.3 C 0 km/h
2007 22-01-2017 11:45:00 -8.2 C 2.53 g/m*3 -8.2 C 0 km/h
2008 22-01-2017 11:50:00 -8.1 C 2.55 g/m*3 -8.1 C 0 km/h
2009 22-01-2017 11:55:00 -7.9 C 2.59 g/m*3 -7.9 C 0 km/h
2010 22-01-2017 12:00:00 -7.8 C 2.61 g/m*3 -7.8 C 0 km/h
2011 22-01-2017 12:05:00 -7.7 C 2.63 g/m*3 -7.7 C 0 km/h
2012 22-01-2017 12:10:00 -7.5 C 2.67 g/m*3 -7.5 C 0 km/h
2013 22-01-2017 12:15:00 -7.4 C 2.69 g/m*3 -7.4 C 0 km/h
2014 22-01-2017 12:20:00 -7.3 C 2.71 g/m*3 -7.3 C 0 km/h
2015 22-01-2017 12:25:00 -7.2 C 2.73 g/m*3 -7.2 C 0 km/h
2016 22-01-2017 12:30:00 -7 C 2.77 g/m*3 -7 C 0 km/h
2017 22-01-2017 12:35:00 -6.9 C 2.79 g/m*3 -6.9 C 1.6 km/h
2018 22-01-2017 12:40:00 -6.8 C 2.81 g/m*3 -6.8 C 1.6 km/h
2019 22-01-2017 12:45:00 -6.7 C 2.83 g/m*3 -6.7 C 1.6 km/h
2020 22-01-2017 12:50:00 -6.7 C 2.83 g/m*3 -6.7 C 1.6 km/h
2021 22-01-2017 12:55:00 -6.6 C 2.85 g/m*3 -6.6 C 3.2 km/h
2022 22-01-2017 13:00:00 -6.4 C 2.89 g/m*3 -6.4 C 3.2 km/h
2023 22-01-2017 13:05:00 -6.3 C 2.91 g/m*3 -6.3 C 1.6 km/h
2024 22-01-2017 13:10:00 -6.2 C 2.93 g/m*3 -6.2 C 3.2 km/h
2025 22-01-2017 13:15:00 -6.1 C 2.96 g/m*3 -6.1 C 3.2 km/h
Sensor: Nr:Datum:Temp:Abs-Feuchte:Windchill:Wind:
Aussen-T/F 2026 22-01-2017 13:20:00 -6 C 2.98 g/m*3 -6 C 1.6 km/h
2027 22-01-2017 13:25:00 -5.9 C 3 g/m*3 -5.9 C 3.2 km/h
2028 22-01-2017 13:30:00 -5.8 C 3.02 g/m*3 -5.8 C 1.6 km/h
2029 22-01-2017 13:35:00 -5.7 C 3.04 g/m*3 -5.7 C 0 km/h
2030 22-01-2017 13:40:00 -5.6 C 3.06 g/m*3 -5.6 C 1.6 km/h
2031 22-01-2017 13:45:00 -5.6 C 3.06 g/m*3 -5.6 C 3.2 km/h
2032 22-01-2017 13:50:00 -5.4 C 3.11 g/m*3 -5.4 C 3.2 km/h
2033 22-01-2017 13:55:00 -5.3 C 3.13 g/m*3 -5.3 C 1.6 km/h
2034 22-01-2017 14:00:00 -5.3 C 3.13 g/m*3 -5.3 C 1.6 km/h
2035 22-01-2017 14:05:00 -5.2 C 3.15 g/m*3 -5.2 C 3.2 km/h
2036 22-01-2017 14:10:00 -5.1 C 3.18 g/m*3 -5.1 C 3.2 km/h
2037 22-01-2017 14:15:00 -5 C 3.2 g/m*3 -5 C 3.2 km/h
2038 22-01-2017 14:20:00 -4.9 C 3.22 g/m*3 -4.9 C 3.2 km/h
2039 22-01-2017 14:25:00 -4.8 C 3.25 g/m*3 -4.8 C 3.2 km/h
2040 22-01-2017 14:30:00 -4.7 C 3.27 g/m*3 -4.7 C 3.2 km/h
2041 22-01-2017 14:35:00 -4.6 C 3.29 g/m*3 -4.6 C 3.2 km/h
2042 22-01-2017 14:40:00 -4.5 C 3.32 g/m*3 -4.5 C 3.2 km/h
2043 22-01-2017 14:45:00 -4.4 C 3.34 g/m*3 -4.4 C 3.2 km/h
2044 22-01-2017 14:50:00 -4.4 C 3.31 g/m*3 -4.4 C 3.2 km/h
2045 22-01-2017 14:55:00 -4.3 C 3.33 g/m*3 -4.3 C 3.2 km/h
2046 22-01-2017 15:00:00 -4.3 C 3.33 g/m*3 -4.3 C 3.2 km/h
2047 22-01-2017 15:05:00 -4.2 C 3.35 g/m*3 -4.2 C 3.2 km/h
2048 22-01-2017 15:10:00 -4.1 C 3.38 g/m*3 -4.1 C 3.2 km/h
2049 22-01-2017 15:15:00 -4.1 C 3.38 g/m*3 -4.1 C 3.2 km/h
2050 22-01-2017 15:20:00 -4 C 3.4 g/m*3 -4 C 4.8 km/h
Sensor: Nr:Datum:Temp:Abs-Feuchte:Windchill:Wind:
Aussen-T/F 2051 22-01-2017 15:25:00 -3.9 C 3.43 g/m*3 -3.9 C 3.2 km/h
2052 22-01-2017 15:30:00 -3.9 C 3.43 g/m*3 -3.9 C 4.8 km/h
2053 22-01-2017 15:35:00 -3.8 C 3.41 g/m*3 -3.8 C 3.2 km/h
2054 22-01-2017 15:40:00 -3.8 C 3.41 g/m*3 -3.8 C 3.2 km/h
2055 22-01-2017 15:45:00 -3.8 C 3.41 g/m*3 -3.8 C 3.2 km/h
2056 22-01-2017 15:50:00 -3.7 C 3.44 g/m*3 -3.7 C 4.8 km/h
2057 22-01-2017 15:55:00 -3.7 C 3.44 g/m*3 -3.7 C 4.8 km/h
2058 22-01-2017 16:00:00 -3.7 C 3.44 g/m*3 -3.7 C 4.8 km/h
2059 22-01-2017 16:05:00 -3.7 C 3.44 g/m*3 -3.7 C 4.8 km/h
2060 22-01-2017 16:10:00 -3.7 C 3.44 g/m*3 -3.7 C 4.8 km/h
2061 22-01-2017 16:15:00 -3.7 C 3.44 g/m*3 -3.7 C 4.8 km/h
2062 22-01-2017 16:20:00 -3.7 C 3.44 g/m*3 -3.7 C 4.8 km/h
2063 22-01-2017 16:25:00 -3.7 C 3.44 g/m*3 -3.7 C 4.8 km/h
2064 22-01-2017 16:30:00 -3.6 C 3.46 g/m*3 -3.6 C 4.8 km/h
2065 22-01-2017 16:35:00 -3.6 C 3.46 g/m*3 -3.6 C 4.8 km/h
2066 22-01-2017 16:40:00 -3.6 C 3.43 g/m*3 -3.6 C 4.8 km/h
2067 22-01-2017 16:45:00 -3.6 C 3.43 g/m*3 -3.6 C 4.8 km/h
2068 22-01-2017 16:50:00 -3.7 C 3.4 g/m*3 -3.7 C 4.8 km/h
2069 22-01-2017 16:55:00 -3.7 C 3.4 g/m*3 -3.7 C 4.8 km/h
2070 22-01-2017 17:00:00 -3.7 C 3.4 g/m*3 -3.7 C 4.8 km/h
2071 22-01-2017 17:05:00 -3.7 C 3.4 g/m*3 -3.7 C 3.2 km/h
2072 22-01-2017 17:10:00 -3.8 C 3.34 g/m*3 -3.8 C 0 km/h
2073 22-01-2017 17:15:00 -4 C 3.29 g/m*3 -4 C 3.2 km/h
2074 22-01-2017 17:20:00 -4.1 C 3.27 g/m*3 -4.1 C 3.2 km/h
2075 22-01-2017 17:25:00 -4.2 C 3.25 g/m*3 -4.2 C 4.8 km/h
Sensor: Nr:Datum:Temp:Abs-Feuchte:Windchill:Wind:
Aussen-T/F 2076 22-01-2017 17:30:00 -4.1 C 3.31 g/m*3 -4.1 C 4.8 km/h
2077 22-01-2017 17:35:00 -4.2 C 3.25 g/m*3 -4.2 C 0 km/h
2078 22-01-2017 17:40:00 -4.4 C 3.16 g/m*3 -4.4 C 0 km/h
2079 22-01-2017 17:45:00 -4.7 C 3.1 g/m*3 -4.7 C 0 km/h
2080 22-01-2017 17:50:00 -4.9 C 3.05 g/m*3 -4.9 C 1.6 km/h
2081 22-01-2017 17:55:00 -5 C 3.06 g/m*3 -5 C 0 km/h
2082 22-01-2017 18:00:00 -4.9 C 3.12 g/m*3 -4.9 C 0 km/h
2083 22-01-2017 18:05:00 -4.9 C 3.12 g/m*3 -4.9 C 0 km/h
2084 22-01-2017 18:10:00 -4.9 C 3.12 g/m*3 -4.9 C 0 km/h
2085 22-01-2017 18:15:00 -5 C 3.1 g/m*3 -5 C 1.6 km/h
2086 22-01-2017 18:20:00 -5.2 C 3.05 g/m*3 -5.2 C 1.6 km/h
2087 22-01-2017 18:25:00 -5.3 C 3.03 g/m*3 -5.3 C 3.2 km/h
2088 22-01-2017 18:30:00 -5.3 C 3.03 g/m*3 -5.3 C 3.2 km/h
2089 22-01-2017 18:35:00 -5.2 C 3.09 g/m*3 -5.2 C 3.2 km/h
2090 22-01-2017 18:40:00 -5.3 C 3.07 g/m*3 -5.3 C 0 km/h
2091 22-01-2017 18:45:00 -5.6 C 2.97 g/m*3 -5.6 C 0 km/h
2092 22-01-2017 18:50:00 -5.7 C 2.95 g/m*3 -5.7 C 1.6 km/h
2093 22-01-2017 18:55:00 -5.8 C 2.92 g/m*3 -5.8 C 0 km/h
2094 22-01-2017 19:00:00 -5.8 C 2.92 g/m*3 -5.8 C 0 km/h
2095 22-01-2017 19:05:00 -5.9 C 2.93 g/m*3 -5.9 C 0 km/h
2096 22-01-2017 19:10:00 -6 C 2.91 g/m*3 -6 C 0 km/h
2097 22-01-2017 19:15:00 -6.1 C 2.89 g/m*3 -6.1 C 0 km/h
2098 22-01-2017 19:20:00 -6.1 C 2.89 g/m*3 -6.1 C 0 km/h
2099 22-01-2017 19:25:00 -6.2 C 2.87 g/m*3 -6.2 C 0 km/h
2100 22-01-2017 19:30:00 -6.3 C 2.85 g/m*3 -6.3 C 0 km/h
Sensor: Nr:Datum:Temp:Abs-Feuchte:Windchill:Wind:
Aussen-T/F 2101 22-01-2017 19:35:00 -6.4 C 2.83 g/m*3 -6.4 C 0 km/h
2102 22-01-2017 19:40:00 -6.4 C 2.83 g/m*3 -6.4 C 1.6 km/h
2103 22-01-2017 19:45:00 -6.4 C 2.83 g/m*3 -6.4 C 0 km/h
2104 22-01-2017 19:50:00 -6.4 C 2.83 g/m*3 -6.4 C 0 km/h
2105 22-01-2017 19:55:00 -6.6 C 2.79 g/m*3 -6.6 C 0 km/h
2106 22-01-2017 20:00:00 -6.6 C 2.79 g/m*3 -6.6 C 0 km/h
2107 22-01-2017 20:05:00 -6.6 C 2.79 g/m*3 -6.6 C 0 km/h
2108 22-01-2017 20:10:00 -6.6 C 2.79 g/m*3 -6.6 C 0 km/h
2109 22-01-2017 20:15:00 -6.6 C 2.79 g/m*3 -6.6 C 0 km/h
2110 22-01-2017 20:20:00 -6.7 C 2.77 g/m*3 -6.7 C 0 km/h
2111 22-01-2017 20:25:00 -6.9 C 2.73 g/m*3 -6.9 C 0 km/h
2112 22-01-2017 20:30:00 -7 C 2.71 g/m*3 -7 C 0 km/h
2113 22-01-2017 20:35:00 -7.1 C 2.69 g/m*3 -7.1 C 0 km/h
2114 22-01-2017 20:40:00 -7.3 C 2.65 g/m*3 -7.3 C 0 km/h
2115 22-01-2017 20:45:00 -7.3 C 2.65 g/m*3 -7.3 C 0 km/h
2116 22-01-2017 20:50:00 -7.4 C 2.63 g/m*3 -7.4 C 0 km/h
2117 22-01-2017 20:55:00 -7.3 C 2.65 g/m*3 -7.3 C 0 km/h
2118 22-01-2017 21:00:00 -7.4 C 2.63 g/m*3 -7.4 C 0 km/h
2119 22-01-2017 21:05:00 -7.6 C 2.59 g/m*3 -7.6 C 0 km/h
2120 22-01-2017 21:10:00 -7.6 C 2.59 g/m*3 -7.6 C 0 km/h
2121 22-01-2017 21:15:00 -7.5 C 2.64 g/m*3 -7.5 C 0 km/h
2122 22-01-2017 21:20:00 -7.4 C 2.66 g/m*3 -7.4 C 0 km/h
2123 22-01-2017 21:25:00 -7.3 C 2.68 g/m*3 -7.3 C 0 km/h
2124 22-01-2017 21:30:00 -7.5 C 2.64 g/m*3 -7.5 C 0 km/h
2125 22-01-2017 21:35:00 -7.4 C 2.66 g/m*3 -7.4 C 0 km/h
Sensor: Nr:Datum:Temp:Abs-Feuchte:Windchill:Wind:
Aussen-T/F 2126 22-01-2017 21:40:00 -7.5 C 2.64 g/m*3 -7.5 C 0 km/h
2127 22-01-2017 21:45:00 -7.6 C 2.62 g/m*3 -7.6 C 0 km/h
2128 22-01-2017 21:50:00 -7.7 C 2.6 g/m*3 -7.7 C 0 km/h
2129 22-01-2017 21:55:00 -7.7 C 2.6 g/m*3 -7.7 C 0 km/h
2130 22-01-2017 22:00:00 -7.8 C 2.58 g/m*3 -7.8 C 0 km/h
2131 22-01-2017 22:05:00 -7.9 C 2.56 g/m*3 -7.9 C 0 km/h
2132 22-01-2017 22:10:00 -8 C 2.54 g/m*3 -8 C 0 km/h
2133 22-01-2017 22:15:00 -8.1 C 2.52 g/m*3 -8.1 C 0 km/h
2134 22-01-2017 22:20:00 -8.1 C 2.52 g/m*3 -8.1 C 0 km/h
2135 22-01-2017 22:25:00 -8.1 C 2.52 g/m*3 -8.1 C 0 km/h
2136 22-01-2017 22:30:00 -8.2 C 2.51 g/m*3 -8.2 C 0 km/h
2137 22-01-2017 22:35:00 -8.2 C 2.51 g/m*3 -8.2 C 0 km/h
2138 22-01-2017 22:40:00 -8.1 C 2.52 g/m*3 -8.1 C 0 km/h
2139 22-01-2017 22:45:00 -8.1 C 2.55 g/m*3 -8.1 C 0 km/h
2140 22-01-2017 22:50:00 -7.9 C 2.59 g/m*3 -7.9 C 0 km/h
2141 22-01-2017 22:55:00 -7.7 C 2.63 g/m*3 -7.7 C 3.2 km/h
2142 22-01-2017 23:00:00 -7.6 C 2.65 g/m*3 -7.6 C 0 km/h
2143 22-01-2017 23:05:00 -7.7 C 2.6 g/m*3 -7.7 C 0 km/h
2144 22-01-2017 23:10:00 -7.7 C 2.6 g/m*3 -7.7 C 0 km/h
2145 22-01-2017 23:15:00 -7.8 C 2.58 g/m*3 -7.8 C 0 km/h
2146 22-01-2017 23:20:00 -8 C 2.54 g/m*3 -8 C 0 km/h
2147 22-01-2017 23:25:00 -8.1 C 2.52 g/m*3 -8.1 C 3.2 km/h
2148 22-01-2017 23:30:00 -8.2 C 2.51 g/m*3 -8.2 C 3.2 km/h
2149 22-01-2017 23:35:00 -8.2 C 2.51 g/m*3 -8.2 C 0 km/h
2150 22-01-2017 23:40:00 -8.2 C 2.51 g/m*3 -8.2 C 0 km/h
Sensor: Nr:Datum:Temp:Abs-Feuchte:Windchill:Wind:
Aussen-T/F 2151 22-01-2017 23:45:00 -8.3 C 2.49 g/m*3 -8.3 C 0 km/h
2152 22-01-2017 23:50:00 -8.4 C 2.47 g/m*3 -8.4 C 0 km/h
2153 22-01-2017 23:55:00 -8.3 C 2.49 g/m*3 -8.3 C 4.8 km/h
2154 23-01-2017 00:00:00 -8.2 C 2.53 g/m*3 -8.2 C 0 km/h
2155 23-01-2017 00:05:00 -8.2 C 2.53 g/m*3 -8.2 C 0 km/h
2156 23-01-2017 00:10:00 -8.2 C 2.51 g/m*3 -8.2 C 0 km/h
2157 23-01-2017 00:15:00 -8.3 C 2.49 g/m*3 -8.3 C 1.6 km/h
2158 23-01-2017 00:20:00 -8.3 C 2.49 g/m*3 -8.3 C 0 km/h
2159 23-01-2017 00:25:00 -8.3 C 2.49 g/m*3 -8.3 C 0 km/h
2160 23-01-2017 00:30:00 -8.3 C 2.49 g/m*3 -8.3 C 0 km/h
2161 23-01-2017 00:35:00 -8.2 C 2.51 g/m*3 -8.2 C 0 km/h
2162 23-01-2017 00:40:00 -8.2 C 2.53 g/m*3 -8.2 C 0 km/h
2163 23-01-2017 00:45:00 -8.2 C 2.51 g/m*3 -8.2 C 0 km/h
2164 23-01-2017 00:50:00 -8.2 C 2.51 g/m*3 -8.2 C 0 km/h
2165 23-01-2017 00:55:00 -8.3 C 2.49 g/m*3 -8.3 C 0 km/h
2166 23-01-2017 01:00:00 -8.3 C 2.49 g/m*3 -8.3 C 0 km/h
2167 23-01-2017 01:05:00 -8.4 C 2.47 g/m*3 -8.4 C 0 km/h
2168 23-01-2017 01:10:00 -8.6 C 2.43 g/m*3 -8.6 C 0 km/h
2169 23-01-2017 01:15:00 -8.8 C 2.37 g/m*3 -8.8 C 0 km/h
2170 23-01-2017 01:20:00 -8.9 C 2.35 g/m*3 -8.9 C 0 km/h
2171 23-01-2017 01:25:00 -9 C 2.36 g/m*3 -9 C 0 km/h
2172 23-01-2017 01:30:00 -8.9 C 2.38 g/m*3 -8.9 C 0 km/h
2173 23-01-2017 01:35:00 -9.1 C 2.34 g/m*3 -9.1 C 0 km/h
2174 23-01-2017 01:40:00 -9.2 C 2.3 g/m*3 -9.2 C 0 km/h
2175 23-01-2017 01:45:00 -9.2 C 2.33 g/m*3 -9.2 C 0 km/h
Sensor: Nr:Datum:Temp:Abs-Feuchte:Windchill:Wind:
Aussen-T/F 2176 23-01-2017 01:50:00 -9.3 C 2.28 g/m*3 -9.3 C 0 km/h
2177 23-01-2017 01:55:00 -9.3 C 2.31 g/m*3 -9.3 C 0 km/h
2178 23-01-2017 02:00:00 -9.4 C 2.29 g/m*3 -9.4 C 0 km/h
2179 23-01-2017 02:05:00 -9.4 C 2.29 g/m*3 -9.4 C 0 km/h
2180 23-01-2017 02:10:00 -9.5 C 2.27 g/m*3 -9.5 C 0 km/h
2181 23-01-2017 02:15:00 -9.5 C 2.27 g/m*3 -9.5 C 0 km/h
2182 23-01-2017 02:20:00 -9.6 C 2.26 g/m*3 -9.6 C 0 km/h
2183 23-01-2017 02:25:00 -9.6 C 2.23 g/m*3 -9.6 C 0 km/h
2184 23-01-2017 02:30:00 -9.6 C 2.26 g/m*3 -9.6 C 0 km/h
2185 23-01-2017 02:35:00 -9.7 C 2.24 g/m*3 -9.7 C 0 km/h
2186 23-01-2017 02:40:00 -9.7 C 2.24 g/m*3 -9.7 C 0 km/h
2187 23-01-2017 02:45:00 -9.7 C 2.24 g/m*3 -9.7 C 0 km/h
2188 23-01-2017 02:50:00 -9.7 C 2.24 g/m*3 -9.7 C 0 km/h
2189 23-01-2017 02:55:00 -9.7 C 2.24 g/m*3 -9.7 C 0 km/h
2190 23-01-2017 03:00:00 -9.7 C 2.24 g/m*3 -9.7 C 0 km/h
2191 23-01-2017 03:05:00 -9.7 C 2.24 g/m*3 -9.7 C 0 km/h
2192 23-01-2017 03:10:00 -9.8 C 2.22 g/m*3 -9.8 C 0 km/h
2193 23-01-2017 03:15:00 -9.8 C 2.22 g/m*3 -9.8 C 0 km/h
2194 23-01-2017 03:20:00 -9.9 C 2.21 g/m*3 -9.9 C 0 km/h
2195 23-01-2017 03:25:00 -9.9 C 2.21 g/m*3 -9.9 C 0 km/h
2196 23-01-2017 03:30:00 -9.9 C 2.21 g/m*3 -9.9 C 0 km/h
2197 23-01-2017 03:35:00 -10 C 2.19 g/m*3 -10 C 0 km/h
2198 23-01-2017 03:40:00 -10.1 C 2.15 g/m*3 -10.1 C 0 km/h
2199 23-01-2017 03:45:00 -9.9 C 2.21 g/m*3 -9.9 C 0 km/h
2200 23-01-2017 03:50:00 -9.7 C 2.24 g/m*3 -9.7 C 0 km/h
Sensor: Nr:Datum:Temp:Abs-Feuchte:Windchill:Wind:
Aussen-T/F 2201 23-01-2017 03:55:00 -9.6 C 2.26 g/m*3 -9.6 C 0 km/h
2202 23-01-2017 04:00:00 -9.5 C 2.27 g/m*3 -9.5 C 0 km/h
2203 23-01-2017 04:05:00 -9.5 C 2.27 g/m*3 -9.5 C 0 km/h
2204 23-01-2017 04:10:00 -9.5 C 2.27 g/m*3 -9.5 C 0 km/h
2205 23-01-2017 04:15:00 -9.5 C 2.27 g/m*3 -9.5 C 0 km/h
2206 23-01-2017 04:20:00 -9.6 C 2.26 g/m*3 -9.6 C 0 km/h
2207 23-01-2017 04:25:00 -9.6 C 2.26 g/m*3 -9.6 C 0 km/h
2208 23-01-2017 04:30:00 -9.6 C 2.26 g/m*3 -9.6 C 0 km/h
2209 23-01-2017 04:35:00 -9.6 C 2.26 g/m*3 -9.6 C 0 km/h
2210 23-01-2017 04:40:00 -9.6 C 2.26 g/m*3 -9.6 C 0 km/h
2211 23-01-2017 04:45:00 -9.7 C 2.24 g/m*3 -9.7 C 0 km/h
2212 23-01-2017 04:50:00 -9.7 C 2.24 g/m*3 -9.7 C 0 km/h
2213 23-01-2017 04:55:00 -9.8 C 2.22 g/m*3 -9.8 C 0 km/h
2214 23-01-2017 05:00:00 -9.8 C 2.22 g/m*3 -9.8 C 0 km/h
2215 23-01-2017 05:05:00 -9.9 C 2.18 g/m*3 -9.9 C 0 km/h
2216 23-01-2017 05:10:00 -10.1 C 2.15 g/m*3 -10.1 C 0 km/h
2217 23-01-2017 05:15:00 -10.1 C 2.15 g/m*3 -10.1 C 0 km/h
2218 23-01-2017 05:20:00 -10.1 C 2.15 g/m*3 -10.1 C 0 km/h
2219 23-01-2017 05:25:00 -10.1 C 2.15 g/m*3 -10.1 C 0 km/h
2220 23-01-2017 05:30:00 -10.2 C 2.13 g/m*3 -10.2 C 0 km/h
2221 23-01-2017 05:35:00 -10.3 C 2.12 g/m*3 -10.3 C 0 km/h
2222 23-01-2017 05:40:00 -10.3 C 2.12 g/m*3 -10.3 C 0 km/h
2223 23-01-2017 05:45:00 -10.4 C 2.1 g/m*3 -10.4 C 0 km/h
2224 23-01-2017 05:50:00 -10.5 C 2.09 g/m*3 -10.5 C 0 km/h
2225 23-01-2017 05:55:00 -10.5 C 2.09 g/m*3 -10.5 C 0 km/h
Sensor: Nr:Datum:Temp:Abs-Feuchte:Windchill:Wind:
Aussen-T/F 2226 23-01-2017 06:00:00 -10.4 C 2.1 g/m*3 -10.4 C 0 km/h
2227 23-01-2017 06:05:00 -10.3 C 2.14 g/m*3 -10.3 C 1.6 km/h
2228 23-01-2017 06:10:00 -10.2 C 2.16 g/m*3 -10.2 C 0 km/h
2229 23-01-2017 06:15:00 -10.2 C 2.16 g/m*3 -10.2 C 0 km/h
2230 23-01-2017 06:20:00 -10.2 C 2.16 g/m*3 -10.2 C 0 km/h
2231 23-01-2017 06:25:00 -10.2 C 2.13 g/m*3 -10.2 C 0 km/h
2232 23-01-2017 06:30:00 -10.3 C 2.12 g/m*3 -10.3 C 0 km/h
2233 23-01-2017 06:35:00 -10.3 C 2.12 g/m*3 -10.3 C 0 km/h
2234 23-01-2017 06:40:00 -10.2 C 2.16 g/m*3 -10.2 C 0 km/h
2235 23-01-2017 06:45:00 -10.2 C 2.16 g/m*3 -10.2 C 0 km/h
2236 23-01-2017 06:50:00 -10.2 C 2.16 g/m*3 -10.2 C 3.2 km/h
2237 23-01-2017 06:55:00 -10 C 2.19 g/m*3 -10 C 0 km/h
2238 23-01-2017 07:00:00 -9.9 C 2.21 g/m*3 -9.9 C 0 km/h
2239 23-01-2017 07:05:00 -9.7 C 2.24 g/m*3 -9.7 C 1.6 km/h
2240 23-01-2017 07:10:00 -9.6 C 2.26 g/m*3 -9.6 C 1.6 km/h
2241 23-01-2017 07:15:00 -9.4 C 2.29 g/m*3 -9.4 C 0 km/h
2242 23-01-2017 07:20:00 -9.3 C 2.31 g/m*3 -9.3 C 3.2 km/h
2243 23-01-2017 07:25:00 -9.2 C 2.33 g/m*3 -9.2 C 1.6 km/h
2244 23-01-2017 07:30:00 -9.1 C 2.34 g/m*3 -9.1 C 1.6 km/h
2245 23-01-2017 07:35:00 -9 C 2.36 g/m*3 -9 C 0 km/h
2246 23-01-2017 07:40:00 -8.9 C 2.38 g/m*3 -8.9 C 3.2 km/h
2247 23-01-2017 07:45:00 -8.8 C 2.4 g/m*3 -8.8 C 0 km/h
2248 23-01-2017 07:50:00 -8.7 C 2.41 g/m*3 -8.7 C 1.6 km/h
2249 23-01-2017 07:55:00 -8.7 C 2.41 g/m*3 -8.7 C 1.6 km/h
2250 23-01-2017 08:00:00 -8.6 C 2.43 g/m*3 -8.6 C 0 km/h
Sensor: Nr:Datum:Temp:Abs-Feuchte:Windchill:Wind:
Aussen-T/F 2251 23-01-2017 08:05:00 -8.6 C 2.43 g/m*3 -8.6 C 0 km/h
2252 23-01-2017 08:10:00 -8.5 C 2.45 g/m*3 -8.5 C 0 km/h
2253 23-01-2017 08:15:00 -8.4 C 2.47 g/m*3 -8.4 C 1.6 km/h
2254 23-01-2017 08:20:00 -8.4 C 2.47 g/m*3 -8.4 C 0 km/h
2255 23-01-2017 08:25:00 -8.3 C 2.49 g/m*3 -8.3 C 0 km/h
2256 23-01-2017 08:30:00 -8.3 C 2.49 g/m*3 -8.3 C 0 km/h
2257 23-01-2017 08:35:00 -8.2 C 2.51 g/m*3 -8.2 C 0 km/h
2258 23-01-2017 08:40:00 -8.2 C 2.51 g/m*3 -8.2 C 0 km/h
2259 23-01-2017 08:45:00 -8.1 C 2.52 g/m*3 -8.1 C 0 km/h
2260 23-01-2017 08:50:00 -8 C 2.54 g/m*3 -8 C 3.2 km/h
2261 23-01-2017 08:55:00 -7.9 C 2.56 g/m*3 -7.9 C 1.6 km/h
2262 23-01-2017 09:00:00 -7.9 C 2.56 g/m*3 -7.9 C 3.2 km/h
2263 23-01-2017 09:05:00 -7.8 C 2.58 g/m*3 -7.8 C 1.6 km/h
2264 23-01-2017 09:10:00 -7.8 C 2.58 g/m*3 -7.8 C 3.2 km/h
2265 23-01-2017 09:15:00 -7.7 C 2.6 g/m*3 -7.7 C 1.6 km/h
2266 23-01-2017 09:20:00 -7.7 C 2.6 g/m*3 -7.7 C 3.2 km/h
2267 23-01-2017 09:25:00 -7.6 C 2.62 g/m*3 -7.6 C 3.2 km/h
2268 23-01-2017 09:30:00 -7.6 C 2.62 g/m*3 -7.6 C 3.2 km/h
2269 23-01-2017 09:35:00 -7.5 C 2.64 g/m*3 -7.5 C 1.6 km/h
2270 23-01-2017 09:40:00 -7.4 C 2.66 g/m*3 -7.4 C 0 km/h
2271 23-01-2017 09:45:00 -7.4 C 2.66 g/m*3 -7.4 C 0 km/h
2272 23-01-2017 09:50:00 -7.3 C 2.68 g/m*3 -7.3 C 0 km/h
2273 23-01-2017 09:55:00 -7.2 C 2.7 g/m*3 -7.2 C 0 km/h
2274 23-01-2017 10:00:00 -7.1 C 2.72 g/m*3 -7.1 C 0 km/h
2275 23-01-2017 10:05:00 -7 C 2.74 g/m*3 -7 C 0 km/h
Sensor: Nr:Datum:Temp:Abs-Feuchte:Windchill:Wind:
Aussen-T/F 2276 23-01-2017 10:10:00 -6.9 C 2.76 g/m*3 -6.9 C 0 km/h
2277 23-01-2017 10:15:00 -6.8 C 2.78 g/m*3 -6.8 C 0 km/h
2278 23-01-2017 10:20:00 -6.7 C 2.8 g/m*3 -6.7 C 0 km/h
2279 23-01-2017 10:25:00 -6.7 C 2.8 g/m*3 -6.7 C 0 km/h
2280 23-01-2017 10:30:00 -6.6 C 2.82 g/m*3 -6.6 C 1.6 km/h
2281 23-01-2017 10:35:00 -6.5 C 2.84 g/m*3 -6.5 C 0 km/h
2282 23-01-2017 10:40:00 -6.4 C 2.86 g/m*3 -6.4 C 0 km/h
2283 23-01-2017 10:45:00 -6.3 C 2.88 g/m*3 -6.3 C 0 km/h
2284 23-01-2017 10:50:00 -6.2 C 2.9 g/m*3 -6.2 C 0 km/h
2285 23-01-2017 10:55:00 -6.2 C 2.9 g/m*3 -6.2 C 0 km/h
2286 23-01-2017 11:00:00 -6.1 C 2.92 g/m*3 -6.1 C 0 km/h
2287 23-01-2017 11:05:00 -5.9 C 2.97 g/m*3 -5.9 C 0 km/h
2288 23-01-2017 11:10:00 -5.8 C 2.99 g/m*3 -5.8 C 0 km/h
2289 23-01-2017 11:15:00 -5.7 C 3.01 g/m*3 -5.7 C 1.6 km/h
2290 23-01-2017 11:20:00 -5.6 C 3.03 g/m*3 -5.6 C 0 km/h
2291 23-01-2017 11:25:00 -5.5 C 3.05 g/m*3 -5.5 C 0 km/h
2292 23-01-2017 11:30:00 -5.4 C 3.08 g/m*3 -5.4 C 0 km/h
2293 23-01-2017 11:35:00 -5.3 C 3.1 g/m*3 -5.3 C 0 km/h
2294 23-01-2017 11:40:00 -5.3 C 3.1 g/m*3 -5.3 C 0 km/h
2295 23-01-2017 11:45:00 -5.2 C 3.12 g/m*3 -5.2 C 1.6 km/h
2296 23-01-2017 11:50:00 -5.2 C 3.12 g/m*3 -5.2 C 1.6 km/h
2297 23-01-2017 11:55:00 -5.2 C 3.09 g/m*3 -5.2 C 1.6 km/h
2298 23-01-2017 12:00:00 -5.1 C 3.14 g/m*3 -5.1 C 0 km/h
2299 23-01-2017 12:05:00 -5 C 3.17 g/m*3 -5 C 0 km/h
2300 23-01-2017 12:10:00 -5 C 3.17 g/m*3 -5 C 0 km/h
Sensor: Nr:Datum:Temp:Abs-Feuchte:Windchill:Wind:
Aussen-T/F 2301 23-01-2017 12:15:00 -4.9 C 3.16 g/m*3 -4.9 C 0 km/h
2302 23-01-2017 12:20:00 -4.9 C 3.16 g/m*3 -4.9 C 0 km/h
2303 23-01-2017 12:25:00 -4.9 C 3.16 g/m*3 -4.9 C 0 km/h
2304 23-01-2017 12:30:00 -4.8 C 3.18 g/m*3 -4.8 C 0 km/h
2305 23-01-2017 12:35:00 -4.7 C 3.2 g/m*3 -4.7 C 0 km/h
2306 23-01-2017 12:40:00 -4.7 C 3.2 g/m*3 -4.7 C 0 km/h
2307 23-01-2017 12:45:00 -4.6 C 3.26 g/m*3 -4.6 C 0 km/h
2308 23-01-2017 12:50:00 -4.5 C 3.25 g/m*3 -4.5 C 1.6 km/h
2309 23-01-2017 12:55:00 -4.4 C 3.27 g/m*3 -4.4 C 1.6 km/h
2310 23-01-2017 13:00:00 -4.3 C 3.29 g/m*3 -4.3 C 0 km/h
2311 23-01-2017 13:05:00 -4.2 C 3.35 g/m*3 -4.2 C 1.6 km/h
2312 23-01-2017 13:10:00 -4.2 C 3.35 g/m*3 -4.2 C 1.6 km/h
2313 23-01-2017 13:15:00 -4.1 C 3.34 g/m*3 -4.1 C 0 km/h
2314 23-01-2017 13:20:00 -4 C 3.4 g/m*3 -4 C 0 km/h
2315 23-01-2017 13:25:00 -3.8 C 3.45 g/m*3 -3.8 C 0 km/h
2316 23-01-2017 13:30:00 -3.7 C 3.48 g/m*3 -3.7 C 0 km/h
2317 23-01-2017 13:35:00 -3.5 C 3.53 g/m*3 -3.5 C 1.6 km/h
2318 23-01-2017 13:40:00 -3.3 C 3.61 g/m*3 -3.3 C 0 km/h
2319 23-01-2017 13:45:00 -3.2 C 3.6 g/m*3 -3.2 C 3.2 km/h
2320 23-01-2017 13:50:00 -3.1 C 3.63 g/m*3 -3.1 C 0 km/h
2321 23-01-2017 13:55:00 -3.1 C 3.63 g/m*3 -3.1 C 0 km/h
2322 23-01-2017 14:00:00 -2.9 C 3.68 g/m*3 -2.9 C 3.2 km/h
2323 23-01-2017 14:05:00 -2.9 C 3.68 g/m*3 -2.9 C 3.2 km/h
2324 23-01-2017 14:10:00 -2.8 C 3.71 g/m*3 -2.8 C 1.6 km/h
2325 23-01-2017 14:15:00 -2.8 C 3.71 g/m*3 -2.8 C 3.2 km/h
Sensor: Nr:Datum:Temp:Abs-Feuchte:Windchill:Wind:
Aussen-T/F 2326 23-01-2017 14:20:00 -2.8 C 3.67 g/m*3 -2.8 C 1.6 km/h
2327 23-01-2017 14:25:00 -2.8 C 3.67 g/m*3 -2.8 C 1.6 km/h
2328 23-01-2017 14:30:00 -2.8 C 3.67 g/m*3 -2.8 C 1.6 km/h
2329 23-01-2017 14:35:00 -2.8 C 3.67 g/m*3 -2.8 C 0 km/h
2330 23-01-2017 14:40:00 -2.7 C 3.73 g/m*3 -2.7 C 0 km/h
2331 23-01-2017 14:45:00 -2.7 C 3.73 g/m*3 -2.7 C 0 km/h
2332 23-01-2017 14:50:00 -2.6 C 3.76 g/m*3 -2.6 C 0 km/h
2333 23-01-2017 14:55:00 -2.6 C 3.76 g/m*3 -2.6 C 0 km/h
2334 23-01-2017 15:00:00 -2.5 C 3.78 g/m*3 -2.5 C 0 km/h
2335 23-01-2017 15:05:00 -2.4 C 3.81 g/m*3 -2.4 C 0 km/h
2336 23-01-2017 15:10:00 -2.4 C 3.81 g/m*3 -2.4 C 0 km/h
2337 23-01-2017 15:15:00 -2.3 C 3.84 g/m*3 -2.3 C 0 km/h
2338 23-01-2017 15:20:00 -2.3 C 3.84 g/m*3 -2.3 C 0 km/h
2339 23-01-2017 15:25:00 -2.3 C 3.84 g/m*3 -2.3 C 0 km/h
2340 23-01-2017 15:30:00 -2.2 C 3.82 g/m*3 -2.2 C 0 km/h
2341 23-01-2017 15:35:00 -2.2 C 3.82 g/m*3 -2.2 C 0 km/h
2342 23-01-2017 15:40:00 -2.1 C 3.85 g/m*3 -2.1 C 0 km/h
2343 23-01-2017 15:45:00 -2.1 C 3.85 g/m*3 -2.1 C 0 km/h
2344 23-01-2017 15:50:00 -2.1 C 3.85 g/m*3 -2.1 C 0 km/h
2345 23-01-2017 15:55:00 -2.1 C 3.85 g/m*3 -2.1 C 0 km/h
2346 23-01-2017 16:00:00 -2.1 C 3.85 g/m*3 -2.1 C 0 km/h
2347 23-01-2017 16:05:00 -2.1 C 3.85 g/m*3 -2.1 C 0 km/h
2348 23-01-2017 16:10:00 -2 C 3.88 g/m*3 -2 C 0 km/h
2349 23-01-2017 16:15:00 -2 C 3.88 g/m*3 -2 C 0 km/h
2350 23-01-2017 16:20:00 -1.9 C 3.91 g/m*3 -1.9 C 0 km/h
Sensor: Nr:Datum:Temp:Abs-Feuchte:Windchill:Wind:
Aussen-T/F 2351 23-01-2017 16:25:00 -1.9 C 3.91 g/m*3 -1.9 C 0 km/h
2352 23-01-2017 16:30:00 -1.9 C 3.91 g/m*3 -1.9 C 0 km/h
2353 23-01-2017 16:35:00 -1.9 C 3.91 g/m*3 -1.9 C 0 km/h
2354 23-01-2017 16:40:00 -1.9 C 3.91 g/m*3 -1.9 C 0 km/h
2355 23-01-2017 16:45:00 -1.9 C 3.91 g/m*3 -1.9 C 0 km/h
2356 23-01-2017 16:50:00 -1.8 C 3.93 g/m*3 -1.8 C 0 km/h
2357 23-01-2017 16:55:00 -1.8 C 3.93 g/m*3 -1.8 C 0 km/h
2358 23-01-2017 17:00:00 -1.8 C 3.98 g/m*3 -1.8 C 0 km/h
2359 23-01-2017 17:05:00 -1.8 C 3.98 g/m*3 -1.8 C 0 km/h
2360 23-01-2017 17:10:00 -1.8 C 3.98 g/m*3 -1.8 C 0 km/h
2361 23-01-2017 17:15:00 -1.8 C 3.98 g/m*3 -1.8 C 0 km/h
2362 23-01-2017 17:20:00 -1.8 C 3.98 g/m*3 -1.8 C 0 km/h
2363 23-01-2017 17:25:00 -1.8 C 3.98 g/m*3 -1.8 C 0 km/h
2364 23-01-2017 17:30:00 -1.8 C 3.98 g/m*3 -1.8 C 0 km/h
2365 23-01-2017 17:35:00 -1.8 C 3.98 g/m*3 -1.8 C 0 km/h
2366 23-01-2017 17:40:00 -1.8 C 3.98 g/m*3 -1.8 C 0 km/h
2367 23-01-2017 17:45:00 -1.8 C 3.98 g/m*3 -1.8 C 0 km/h
2368 23-01-2017 17:50:00 -1.8 C 3.98 g/m*3 -1.8 C 1.6 km/h
2369 23-01-2017 17:55:00 -1.9 C 3.95 g/m*3 -1.9 C 0 km/h
2370 23-01-2017 18:00:00 -1.9 C 3.95 g/m*3 -1.9 C 0 km/h
2371 23-01-2017 18:05:00 -1.9 C 3.95 g/m*3 -1.9 C 0 km/h
2372 23-01-2017 18:10:00 -1.9 C 3.95 g/m*3 -1.9 C 0 km/h
2373 23-01-2017 18:15:00 -1.9 C 3.95 g/m*3 -1.9 C 0 km/h
2374 23-01-2017 18:20:00 -1.9 C 3.95 g/m*3 -1.9 C 0 km/h
2375 23-01-2017 18:25:00 -1.9 C 3.95 g/m*3 -1.9 C 0 km/h
Sensor: Nr:Datum:Temp:Abs-Feuchte:Windchill:Wind:
Aussen-T/F 2376 23-01-2017 18:30:00 -1.9 C 3.95 g/m*3 -1.9 C 0 km/h
2377 23-01-2017 18:35:00 -1.8 C 3.98 g/m*3 -1.8 C 1.6 km/h
2378 23-01-2017 18:40:00 -1.8 C 3.98 g/m*3 -1.8 C 0 km/h
2379 23-01-2017 18:45:00 -1.8 C 3.98 g/m*3 -1.8 C 0 km/h
2380 23-01-2017 18:50:00 -1.8 C 3.98 g/m*3 -1.8 C 0 km/h
2381 23-01-2017 18:55:00 -1.8 C 3.98 g/m*3 -1.8 C 1.6 km/h
2382 23-01-2017 19:00:00 -1.8 C 3.98 g/m*3 -1.8 C 1.6 km/h
2383 23-01-2017 19:05:00 -1.7 C 4 g/m*3 -1.7 C 3.2 km/h
2384 23-01-2017 19:10:00 -1.7 C 4 g/m*3 -1.7 C 0 km/h
2385 23-01-2017 19:15:00 -1.7 C 4 g/m*3 -1.7 C 1.6 km/h
2386 23-01-2017 19:20:00 -1.7 C 4 g/m*3 -1.7 C 0 km/h
2387 23-01-2017 19:25:00 -1.7 C 4 g/m*3 -1.7 C 0 km/h
2388 23-01-2017 19:30:00 -1.7 C 4 g/m*3 -1.7 C 0 km/h
2389 23-01-2017 19:35:00 -1.7 C 4 g/m*3 -1.7 C 0 km/h
2390 23-01-2017 19:40:00 -1.7 C 4 g/m*3 -1.7 C 0 km/h
2391 23-01-2017 19:45:00 -1.7 C 4.05 g/m*3 -1.7 C 0 km/h
2392 23-01-2017 19:50:00 -1.7 C 4.05 g/m*3 -1.7 C 1.6 km/h
2393 23-01-2017 19:55:00 -1.6 C 4.07 g/m*3 -1.6 C 1.6 km/h
2394 23-01-2017 20:00:00 -1.6 C 4.07 g/m*3 -1.6 C 1.6 km/h
2395 23-01-2017 20:05:00 -1.6 C 4.07 g/m*3 -1.6 C 1.6 km/h
2396 23-01-2017 20:10:00 -1.5 C 4.1 g/m*3 -1.5 C 0 km/h
2397 23-01-2017 20:15:00 -1.5 C 4.1 g/m*3 -1.5 C 1.6 km/h
2398 23-01-2017 20:20:00 -1.4 C 4.13 g/m*3 -1.4 C 3.2 km/h
2399 23-01-2017 20:25:00 -1.4 C 4.13 g/m*3 -1.4 C 3.2 km/h
2400 23-01-2017 20:30:00 -1.4 C 4.13 g/m*3 -1.4 C 3.2 km/h
Sensor: Nr:Datum:Temp:Abs-Feuchte:Windchill:Wind:
Aussen-T/F 2401 23-01-2017 20:35:00 -1.4 C 4.13 g/m*3 -1.4 C 0 km/h
2402 23-01-2017 20:40:00 -1.4 C 4.13 g/m*3 -1.4 C 1.6 km/h
2403 23-01-2017 20:45:00 -1.3 C 4.16 g/m*3 -1.3 C 3.2 km/h
2404 23-01-2017 20:50:00 -1.3 C 4.16 g/m*3 -1.3 C 1.6 km/h
2405 23-01-2017 20:55:00 -1.3 C 4.16 g/m*3 -1.3 C 3.2 km/h
2406 23-01-2017 21:00:00 -1.3 C 4.16 g/m*3 -1.3 C 4.8 km/h
2407 23-01-2017 21:05:00 -1.3 C 4.16 g/m*3 -4.3 C 8.1 km/h
2408 23-01-2017 21:10:00 -1.3 C 4.16 g/m*3 -4.3 C 8.1 km/h
2409 23-01-2017 21:15:00 -1.3 C 4.16 g/m*3 -1.3 C 1.6 km/h
2410 23-01-2017 21:20:00 -1.3 C 4.16 g/m*3 -1.3 C 0 km/h
2411 23-01-2017 21:25:00 -1.3 C 4.16 g/m*3 -1.3 C 0 km/h
2412 23-01-2017 21:30:00 -1.3 C 4.16 g/m*3 -1.3 C 0 km/h
2413 23-01-2017 21:35:00 -1.3 C 4.16 g/m*3 -1.3 C 0 km/h
2414 23-01-2017 21:40:00 -1.3 C 4.16 g/m*3 -1.3 C 1.6 km/h
2415 23-01-2017 21:45:00 -1.3 C 4.16 g/m*3 -1.3 C 0 km/h
2416 23-01-2017 21:50:00 -1.3 C 4.16 g/m*3 -1.3 C 0 km/h
2417 23-01-2017 21:55:00 -1.3 C 4.16 g/m*3 -1.3 C 0 km/h
2418 23-01-2017 22:00:00 -1.3 C 4.16 g/m*3 -1.3 C 3.2 km/h
2419 23-01-2017 22:05:00 -1.3 C 4.16 g/m*3 -1.3 C 1.6 km/h
2420 23-01-2017 22:10:00 -1.3 C 4.16 g/m*3 -1.3 C 1.6 km/h
2421 23-01-2017 22:15:00 -1.3 C 4.16 g/m*3 -1.3 C 0 km/h
2422 23-01-2017 22:20:00 -1.3 C 4.16 g/m*3 -1.3 C 1.6 km/h
2423 23-01-2017 22:25:00 -1.3 C 4.16 g/m*3 -1.3 C 1.6 km/h
2424 23-01-2017 22:30:00 -1.3 C 4.16 g/m*3 -1.3 C 1.6 km/h
2425 23-01-2017 22:35:00 -1.3 C 4.16 g/m*3 -1.3 C 0 km/h
Sensor: Nr:Datum:Temp:Abs-Feuchte:Windchill:Wind:
Aussen-T/F 2426 23-01-2017 22:40:00 -1.3 C 4.16 g/m*3 -1.3 C 0 km/h
2427 23-01-2017 22:45:00 -1.3 C 4.16 g/m*3 -1.3 C 0 km/h
2428 23-01-2017 22:50:00 -1.3 C 4.16 g/m*3 -1.3 C 0 km/h
2429 23-01-2017 22:55:00 -1.3 C 4.16 g/m*3 -1.3 C 0 km/h
2430 23-01-2017 23:00:00 -1.3 C 4.16 g/m*3 -1.3 C 0 km/h
2431 23-01-2017 23:05:00 -1.3 C 4.16 g/m*3 -1.3 C 0 km/h
2432 23-01-2017 23:10:00 -1.3 C 4.16 g/m*3 -1.3 C 0 km/h
2433 23-01-2017 23:15:00 -1.3 C 4.16 g/m*3 -1.3 C 0 km/h
2434 23-01-2017 23:20:00 -1.3 C 4.16 g/m*3 -1.3 C 0 km/h
2435 23-01-2017 23:25:00 -1.3 C 4.16 g/m*3 -1.3 C 0 km/h
2436 23-01-2017 23:30:00 -1.3 C 4.16 g/m*3 -1.3 C 0 km/h
2437 23-01-2017 23:35:00 -1.3 C 4.16 g/m*3 -1.3 C 0 km/h
2438 23-01-2017 23:40:00 -1.3 C 4.16 g/m*3 -1.3 C 1.6 km/h
2439 23-01-2017 23:45:00 -1.3 C 4.16 g/m*3 -1.3 C 0 km/h
2440 23-01-2017 23:50:00 -1.4 C 4.13 g/m*3 -1.4 C 0 km/h
2441 23-01-2017 23:55:00 -1.4 C 4.13 g/m*3 -1.4 C 0 km/h
2442 24-01-2017 00:00:00 -1.4 C 4.13 g/m*3 -1.4 C 0 km/h
2443 24-01-2017 00:05:00 -1.4 C 4.13 g/m*3 -1.4 C 0 km/h
2444 24-01-2017 00:10:00 -1.4 C 4.13 g/m*3 -1.4 C 0 km/h
2445 24-01-2017 00:15:00 -1.4 C 4.13 g/m*3 -1.4 C 0 km/h
2446 24-01-2017 00:20:00 -1.4 C 4.13 g/m*3 -1.4 C 0 km/h
2447 24-01-2017 00:25:00 -1.4 C 4.13 g/m*3 -1.4 C 0 km/h
2448 24-01-2017 00:30:00 -1.4 C 4.13 g/m*3 -1.4 C 0 km/h
2449 24-01-2017 00:35:00 -1.4 C 4.13 g/m*3 -1.4 C 0 km/h
2450 24-01-2017 00:40:00 -1.4 C 4.13 g/m*3 -1.4 C 0 km/h
Sensor: Nr:Datum:Temp:Abs-Feuchte:Windchill:Wind:
Aussen-T/F 2451 24-01-2017 00:45:00 -1.4 C 4.13 g/m*3 -1.4 C 0 km/h
2452 24-01-2017 00:50:00 -1.4 C 4.13 g/m*3 -1.4 C 0 km/h
2453 24-01-2017 00:55:00 -1.4 C 4.13 g/m*3 -1.4 C 0 km/h
2454 24-01-2017 01:00:00 -1.4 C 4.13 g/m*3 -1.4 C 0 km/h
2455 24-01-2017 01:05:00 -1.4 C 4.13 g/m*3 -1.4 C 0 km/h
2456 24-01-2017 01:10:00 -1.4 C 4.13 g/m*3 -1.4 C 0 km/h
2457 24-01-2017 01:15:00 -1.4 C 4.13 g/m*3 -1.4 C 0 km/h
2458 24-01-2017 01:20:00 -1.5 C 4.1 g/m*3 -1.5 C 0 km/h
2459 24-01-2017 01:25:00 -1.5 C 4.06 g/m*3 -1.5 C 0 km/h
2460 24-01-2017 01:30:00 -1.5 C 4.06 g/m*3 -1.5 C 0 km/h
2461 24-01-2017 01:35:00 -1.5 C 4.06 g/m*3 -1.5 C 0 km/h
2462 24-01-2017 01:40:00 -1.6 C 4.03 g/m*3 -1.6 C 0 km/h
2463 24-01-2017 01:45:00 -1.6 C 4.03 g/m*3 -1.6 C 0 km/h
2464 24-01-2017 01:50:00 -1.6 C 4.03 g/m*3 -1.6 C 0 km/h
2465 24-01-2017 01:55:00 -1.6 C 4.03 g/m*3 -1.6 C 0 km/h
2466 24-01-2017 02:00:00 -1.6 C 4.03 g/m*3 -1.6 C 1.6 km/h
2467 24-01-2017 02:05:00 -1.6 C 4.03 g/m*3 -1.6 C 0 km/h
2468 24-01-2017 02:10:00 -1.6 C 4.03 g/m*3 -1.6 C 0 km/h
2469 24-01-2017 02:15:00 -1.6 C 4.03 g/m*3 -1.6 C 0 km/h
2470 24-01-2017 02:20:00 -1.6 C 4.03 g/m*3 -1.6 C 0 km/h
2471 24-01-2017 02:25:00 -1.6 C 4.03 g/m*3 -1.6 C 0 km/h
2472 24-01-2017 02:30:00 -1.6 C 4.03 g/m*3 -1.6 C 1.6 km/h
2473 24-01-2017 02:35:00 -1.7 C 4 g/m*3 -1.7 C 0 km/h
2474 24-01-2017 02:40:00 -1.7 C 4 g/m*3 -1.7 C 0 km/h
2475 24-01-2017 02:45:00 -1.7 C 4 g/m*3 -1.7 C 0 km/h
Sensor: Nr:Datum:Temp:Abs-Feuchte:Windchill:Wind:
Aussen-T/F 2476 24-01-2017 02:50:00 -1.7 C 4 g/m*3 -1.7 C 1.6 km/h
2477 24-01-2017 02:55:00 -1.7 C 4 g/m*3 -1.7 C 0 km/h
2478 24-01-2017 03:00:00 -1.7 C 4 g/m*3 -1.7 C 0 km/h
2479 24-01-2017 03:05:00 -1.7 C 4 g/m*3 -1.7 C 0 km/h
2480 24-01-2017 03:10:00 -1.7 C 4 g/m*3 -1.7 C 0 km/h
2481 24-01-2017 03:15:00 -1.7 C 4 g/m*3 -1.7 C 0 km/h
2482 24-01-2017 03:20:00 -1.7 C 4 g/m*3 -1.7 C 0 km/h
2483 24-01-2017 03:25:00 -1.7 C 4 g/m*3 -1.7 C 0 km/h
2484 24-01-2017 03:30:00 -1.7 C 4 g/m*3 -1.7 C 0 km/h
2485 24-01-2017 03:35:00 -1.7 C 4 g/m*3 -1.7 C 0 km/h
2486 24-01-2017 03:40:00 -1.7 C 4 g/m*3 -1.7 C 0 km/h
2487 24-01-2017 03:45:00 -1.7 C 4 g/m*3 -1.7 C 0 km/h
2488 24-01-2017 03:50:00 -1.7 C 4 g/m*3 -1.7 C 0 km/h
2489 24-01-2017 03:55:00 -1.7 C 4 g/m*3 -1.7 C 0 km/h
2490 24-01-2017 04:00:00 -1.8 C 3.98 g/m*3 -1.8 C 0 km/h
2491 24-01-2017 04:05:00 -1.8 C 3.98 g/m*3 -1.8 C 0 km/h
2492 24-01-2017 04:10:00 -1.8 C 3.98 g/m*3 -1.8 C 0 km/h
2493 24-01-2017 04:15:00 -1.8 C 3.98 g/m*3 -1.8 C 0 km/h
2494 24-01-2017 04:20:00 -1.8 C 3.98 g/m*3 -1.8 C 0 km/h
2495 24-01-2017 04:25:00 -1.8 C 3.98 g/m*3 -1.8 C 0 km/h
2496 24-01-2017 04:30:00 -1.8 C 3.98 g/m*3 -1.8 C 0 km/h
2497 24-01-2017 04:35:00 -1.8 C 3.98 g/m*3 -1.8 C 0 km/h
2498 24-01-2017 04:40:00 -1.9 C 3.95 g/m*3 -1.9 C 0 km/h
2499 24-01-2017 04:45:00 -1.9 C 3.95 g/m*3 -1.9 C 0 km/h
2500 24-01-2017 04:50:00 -1.9 C 3.95 g/m*3 -1.9 C 0 km/h
Sensor: Nr:Datum:Temp:Abs-Feuchte:Windchill:Wind:
Aussen-T/F 2501 24-01-2017 04:55:00 -1.9 C 3.95 g/m*3 -1.9 C 0 km/h
2502 24-01-2017 05:00:00 -1.9 C 3.95 g/m*3 -1.9 C 0 km/h
2503 24-01-2017 05:05:00 -1.9 C 3.95 g/m*3 -1.9 C 0 km/h
2504 24-01-2017 05:10:00 -1.9 C 3.95 g/m*3 -1.9 C 0 km/h
2505 24-01-2017 05:15:00 -1.9 C 3.95 g/m*3 -1.9 C 0 km/h
2506 24-01-2017 05:20:00 -1.9 C 3.95 g/m*3 -1.9 C 0 km/h
2507 24-01-2017 05:25:00 -1.9 C 3.99 g/m*3 -1.9 C 0 km/h
2508 24-01-2017 05:30:00 -1.9 C 3.99 g/m*3 -1.9 C 0 km/h
2509 24-01-2017 05:35:00 -1.9 C 3.99 g/m*3 -1.9 C 0 km/h
2510 24-01-2017 05:40:00 -1.9 C 3.99 g/m*3 -1.9 C 0 km/h
2511 24-01-2017 05:45:00 -1.9 C 3.99 g/m*3 -1.9 C 0 km/h
2512 24-01-2017 05:50:00 -1.9 C 3.99 g/m*3 -1.9 C 0 km/h
2513 24-01-2017 05:55:00 -1.9 C 3.99 g/m*3 -1.9 C 0 km/h
2514 24-01-2017 06:00:00 -1.8 C 4.02 g/m*3 -1.8 C 0 km/h
2515 24-01-2017 06:05:00 -1.8 C 4.02 g/m*3 -1.8 C 0 km/h
2516 24-01-2017 06:10:00 -1.9 C 3.99 g/m*3 -1.9 C 0 km/h
2517 24-01-2017 06:15:00 -1.8 C 4.02 g/m*3 -1.8 C 0 km/h
2518 24-01-2017 06:20:00 -1.8 C 4.02 g/m*3 -1.8 C 0 km/h
2519 24-01-2017 06:25:00 -1.8 C 4.02 g/m*3 -1.8 C 0 km/h
2520 24-01-2017 06:30:00 -1.8 C 4.02 g/m*3 -1.8 C 0 km/h
2521 24-01-2017 06:35:00 -1.8 C 4.02 g/m*3 -1.8 C 0 km/h
2522 24-01-2017 06:40:00 -1.8 C 4.02 g/m*3 -1.8 C 0 km/h
2523 24-01-2017 06:45:00 -1.8 C 4.02 g/m*3 -1.8 C 0 km/h
2524 24-01-2017 06:50:00 -1.8 C 4.02 g/m*3 -1.8 C 0 km/h
2525 24-01-2017 06:55:00 -1.8 C 4.02 g/m*3 -1.8 C 0 km/h
Sensor: Nr:Datum:Temp:Abs-Feuchte:Windchill:Wind:
Aussen-T/F 2526 24-01-2017 07:00:00 -1.8 C 4.02 g/m*3 -1.8 C 0 km/h
2527 24-01-2017 07:05:00 -1.8 C 4.02 g/m*3 -1.8 C 0 km/h
2528 24-01-2017 07:10:00 -1.8 C 4.02 g/m*3 -1.8 C 0 km/h
2529 24-01-2017 07:15:00 -1.8 C 4.02 g/m*3 -1.8 C 0 km/h
2530 24-01-2017 07:20:00 -1.8 C 4.02 g/m*3 -1.8 C 0 km/h
2531 24-01-2017 07:25:00 -1.8 C 4.02 g/m*3 -1.8 C 0 km/h
2532 24-01-2017 07:30:00 -1.8 C 4.02 g/m*3 -1.8 C 0 km/h
2533 24-01-2017 07:35:00 -1.8 C 4.02 g/m*3 -1.8 C 0 km/h
2534 24-01-2017 07:40:00 -1.8 C 4.02 g/m*3 -1.8 C 0 km/h
2535 24-01-2017 07:45:00 -1.8 C 4.02 g/m*3 -1.8 C 0 km/h
2536 24-01-2017 07:50:00 -1.8 C 4.02 g/m*3 -1.8 C 0 km/h
2537 24-01-2017 07:55:00 -1.8 C 4.02 g/m*3 -1.8 C 0 km/h
2538 24-01-2017 08:00:00 -1.8 C 4.02 g/m*3 -1.8 C 0 km/h
2539 24-01-2017 08:05:00 -1.8 C 4.02 g/m*3 -1.8 C 0 km/h
2540 24-01-2017 08:10:00 -1.8 C 4.02 g/m*3 -1.8 C 0 km/h
2541 24-01-2017 08:15:00 -1.8 C 4.02 g/m*3 -1.8 C 0 km/h
2542 24-01-2017 08:20:00 -1.8 C 4.02 g/m*3 -1.8 C 0 km/h
2543 24-01-2017 08:25:00 -1.8 C 4.02 g/m*3 -1.8 C 0 km/h
2544 24-01-2017 08:30:00 -1.8 C 4.02 g/m*3 -1.8 C 0 km/h
2545 24-01-2017 08:35:00 -1.8 C 4.02 g/m*3 -1.8 C 0 km/h
2546 24-01-2017 08:40:00 -1.8 C 4.02 g/m*3 -1.8 C 0 km/h
2547 24-01-2017 08:45:00 -1.8 C 4.02 g/m*3 -1.8 C 0 km/h
2548 24-01-2017 08:50:00 -1.8 C 4.02 g/m*3 -1.8 C 0 km/h
2549 24-01-2017 08:55:00 -1.7 C 4.05 g/m*3 -1.7 C 0 km/h
2550 24-01-2017 09:00:00 -1.7 C 4.05 g/m*3 -1.7 C 0 km/h
Sensor: Nr:Datum:Temp:Abs-Feuchte:Windchill:Wind:
Aussen-T/F 2551 24-01-2017 09:05:00 -1.7 C 4.05 g/m*3 -1.7 C 0 km/h
2552 24-01-2017 09:10:00 -1.7 C 4.05 g/m*3 -1.7 C 0 km/h
2553 24-01-2017 09:15:00 -1.7 C 4.05 g/m*3 -1.7 C 0 km/h
2554 24-01-2017 09:20:00 -1.6 C 4.07 g/m*3 -1.6 C 0 km/h
2555 24-01-2017 09:25:00 -1.6 C 4.07 g/m*3 -1.6 C 0 km/h
2556 24-01-2017 09:30:00 -1.6 C 4.07 g/m*3 -1.6 C 0 km/h
2557 24-01-2017 09:35:00 -1.5 C 4.1 g/m*3 -1.5 C 0 km/h
2558 24-01-2017 09:40:00 -1.4 C 4.13 g/m*3 -1.4 C 1.6 km/h
2559 24-01-2017 09:45:00 -1.4 C 4.13 g/m*3 -1.4 C 1.6 km/h
2560 24-01-2017 09:50:00 -1.3 C 4.16 g/m*3 -1.3 C 1.6 km/h
2561 24-01-2017 09:55:00 -1.2 C 4.19 g/m*3 -1.2 C 3.2 km/h
2562 24-01-2017 10:00:00 -1.2 C 4.19 g/m*3 -1.2 C 4.8 km/h
2563 24-01-2017 10:05:00 -1.2 C 4.15 g/m*3 -1.2 C 4.8 km/h
2564 24-01-2017 10:10:00 -1.1 C 4.17 g/m*3 -1.1 C 3.2 km/h
2565 24-01-2017 10:15:00 -1.1 C 4.17 g/m*3 -1.1 C 0 km/h
2566 24-01-2017 10:20:00 -1 C 4.2 g/m*3 -1 C 0 km/h
2567 24-01-2017 10:25:00 -0.9 C 4.23 g/m*3 -0.9 C 0 km/h
2568 24-01-2017 10:30:00 -0.9 C 4.23 g/m*3 -0.9 C 0 km/h
2569 24-01-2017 10:35:00 -0.8 C 4.26 g/m*3 -0.8 C 0 km/h
2570 24-01-2017 10:40:00 -0.8 C 4.26 g/m*3 -0.8 C 0 km/h
2571 24-01-2017 10:45:00 -0.7 C 4.25 g/m*3 -0.7 C 0 km/h
2572 24-01-2017 10:50:00 -0.7 C 4.25 g/m*3 -0.7 C 1.6 km/h
2573 24-01-2017 10:55:00 -0.7 C 4.25 g/m*3 -0.7 C 0 km/h
2574 24-01-2017 11:00:00 -0.7 C 4.25 g/m*3 -0.7 C 0 km/h
2575 24-01-2017 11:05:00 -0.7 C 4.25 g/m*3 -0.7 C 0 km/h
Sensor: Nr:Datum:Temp:Abs-Feuchte:Windchill:Wind:
Aussen-T/F 2576 24-01-2017 11:10:00 -0.6 C 4.28 g/m*3 -0.6 C 0 km/h
2577 24-01-2017 11:15:00 -0.6 C 4.28 g/m*3 -0.6 C 0 km/h
2578 24-01-2017 11:20:00 -0.4 C 4.34 g/m*3 -0.4 C 0 km/h
2579 24-01-2017 11:25:00 -0.3 C 4.37 g/m*3 -0.3 C 0 km/h
2580 24-01-2017 11:30:00 -0.4 C 4.24 g/m*3 -0.4 C 1.6 km/h
2581 24-01-2017 11:35:00 -0.4 C 4.24 g/m*3 -0.4 C 0 km/h
2582 24-01-2017 11:40:00 -0.4 C 4.24 g/m*3 -0.4 C 0 km/h
2583 24-01-2017 11:45:00 -0.4 C 4.24 g/m*3 -0.4 C 0 km/h
2584 24-01-2017 11:50:00 -0.4 C 4.24 g/m*3 -0.4 C 0 km/h
2585 24-01-2017 11:55:00 -0.4 C 4.29 g/m*3 -0.4 C 0 km/h
2586 24-01-2017 12:00:00 -0.4 C 4.29 g/m*3 -0.4 C 0 km/h
2587 24-01-2017 12:05:00 -0.3 C 4.32 g/m*3 -0.3 C 0 km/h
2588 24-01-2017 12:10:00 -0.2 C 4.3 g/m*3 -0.2 C 0 km/h
2589 24-01-2017 12:15:00 -0.2 C 4.3 g/m*3 -0.2 C 0 km/h
2590 24-01-2017 12:20:00 -0.2 C 4.3 g/m*3 -0.2 C 0 km/h
2591 24-01-2017 12:25:00 -0.2 C 4.3 g/m*3 -0.2 C 0 km/h
2592 24-01-2017 12:30:00 -0.2 C 4.3 g/m*3 -0.2 C 0 km/h
2593 24-01-2017 12:35:00 -0.2 C 4.3 g/m*3 -0.2 C 0 km/h
2594 24-01-2017 12:40:00 -0.1 C 4.33 g/m*3 -0.1 C 0 km/h
2595 24-01-2017 12:45:00 0 C 4.36 g/m*3 0 C 0 km/h
2596 24-01-2017 12:50:00 0.1 C 4.39 g/m*3 0.1 C 0 km/h
2597 24-01-2017 12:55:00 0.2 C 4.37 g/m*3 0.2 C 0 km/h
2598 24-01-2017 13:00:00 0.3 C 4.4 g/m*3 0.3 C 0 km/h
2599 24-01-2017 13:05:00 0.3 C 4.4 g/m*3 0.3 C 0 km/h
2600 24-01-2017 13:10:00 0.3 C 4.4 g/m*3 0.3 C 0 km/h
Sensor: Nr:Datum:Temp:Abs-Feuchte:Windchill:Wind:
Aussen-T/F 2601 24-01-2017 13:15:00 0.3 C 4.35 g/m*3 0.3 C 0 km/h
2602 24-01-2017 13:20:00 0.2 C 4.32 g/m*3 0.2 C 0 km/h
2603 24-01-2017 13:25:00 0.2 C 4.32 g/m*3 0.2 C 0 km/h
2604 24-01-2017 13:30:00 0.2 C 4.32 g/m*3 0.2 C 0 km/h
2605 24-01-2017 13:35:00 0.2 C 4.32 g/m*3 0.2 C 0 km/h
2606 24-01-2017 13:40:00 0.2 C 4.32 g/m*3 0.2 C 0 km/h
2607 24-01-2017 13:45:00 0.2 C 4.32 g/m*3 0.2 C 0 km/h
2608 24-01-2017 13:50:00 0.2 C 4.32 g/m*3 0.2 C 0 km/h
2609 24-01-2017 13:55:00 0.2 C 4.37 g/m*3 0.2 C 0 km/h
2610 24-01-2017 14:00:00 0.2 C 4.37 g/m*3 0.2 C 0 km/h
2611 24-01-2017 14:05:00 0.3 C 4.4 g/m*3 0.3 C 0 km/h
2612 24-01-2017 14:10:00 0.3 C 4.4 g/m*3 0.3 C 0 km/h
2613 24-01-2017 14:15:00 0.3 C 4.35 g/m*3 0.3 C 0 km/h
2614 24-01-2017 14:20:00 0.3 C 4.35 g/m*3 0.3 C 0 km/h
2615 24-01-2017 14:25:00 0.3 C 4.35 g/m*3 0.3 C 0 km/h
2616 24-01-2017 14:30:00 0.3 C 4.35 g/m*3 0.3 C 0 km/h
2617 24-01-2017 14:35:00 0.3 C 4.35 g/m*3 0.3 C 0 km/h
2618 24-01-2017 14:40:00 0.3 C 4.35 g/m*3 0.3 C 0 km/h
2619 24-01-2017 14:45:00 0.3 C 4.35 g/m*3 0.3 C 0 km/h
2620 24-01-2017 14:50:00 0.3 C 4.35 g/m*3 0.3 C 0 km/h
2621 24-01-2017 14:55:00 0.3 C 4.4 g/m*3 0.3 C 0 km/h
2622 24-01-2017 15:00:00 0.3 C 4.4 g/m*3 0.3 C 0 km/h
2623 24-01-2017 15:05:00 0.3 C 4.4 g/m*3 0.3 C 0 km/h
2624 24-01-2017 15:10:00 0.3 C 4.4 g/m*3 0.3 C 0 km/h
2625 24-01-2017 15:15:00 0.3 C 4.35 g/m*3 0.3 C 0 km/h
Sensor: Nr:Datum:Temp:Abs-Feuchte:Windchill:Wind:
Aussen-T/F 2626 24-01-2017 15:20:00 0.3 C 4.4 g/m*3 0.3 C 0 km/h
2627 24-01-2017 15:25:00 0.3 C 4.4 g/m*3 0.3 C 0 km/h
2628 24-01-2017 15:30:00 0.3 C 4.4 g/m*3 0.3 C 0 km/h
2629 24-01-2017 15:35:00 0.3 C 4.4 g/m*3 0.3 C 0 km/h
2630 24-01-2017 15:40:00 0.3 C 4.4 g/m*3 0.3 C 0 km/h
2631 24-01-2017 15:45:00 0.3 C 4.4 g/m*3 0.3 C 0 km/h
2632 24-01-2017 15:50:00 0.3 C 4.4 g/m*3 0.3 C 0 km/h
2633 24-01-2017 15:55:00 0.3 C 4.4 g/m*3 0.3 C 0 km/h
2634 24-01-2017 16:00:00 0.3 C 4.4 g/m*3 0.3 C 0 km/h
2635 24-01-2017 16:05:00 0.3 C 4.4 g/m*3 0.3 C 0 km/h
2636 24-01-2017 16:10:00 0.3 C 4.45 g/m*3 0.3 C 0 km/h
2637 24-01-2017 16:15:00 0.3 C 4.45 g/m*3 0.3 C 0 km/h
2638 24-01-2017 16:20:00 0.3 C 4.45 g/m*3 0.3 C 0 km/h
2639 24-01-2017 16:25:00 0.3 C 4.45 g/m*3 0.3 C 0 km/h
2640 24-01-2017 16:30:00 0.3 C 4.45 g/m*3 0.3 C 0 km/h
2641 24-01-2017 16:35:00 0.3 C 4.5 g/m*3 0.3 C 0 km/h
2642 24-01-2017 16:40:00 0.3 C 4.5 g/m*3 0.3 C 0 km/h
2643 24-01-2017 16:45:00 0.3 C 4.5 g/m*3 0.3 C 0 km/h
2644 24-01-2017 16:50:00 0.2 C 4.47 g/m*3 0.2 C 0 km/h
2645 24-01-2017 16:55:00 0.2 C 4.47 g/m*3 0.2 C 0 km/h
2646 24-01-2017 17:00:00 0.2 C 4.47 g/m*3 0.2 C 0 km/h
2647 24-01-2017 17:05:00 0.1 C 4.44 g/m*3 0.1 C 0 km/h
2648 24-01-2017 17:10:00 0.1 C 4.44 g/m*3 0.1 C 0 km/h
2649 24-01-2017 17:15:00 0.1 C 4.44 g/m*3 0.1 C 0 km/h
2650 24-01-2017 17:20:00 0.1 C 4.44 g/m*3 0.1 C 0 km/h
Sensor: Nr:Datum:Temp:Abs-Feuchte:Windchill:Wind:
Aussen-T/F 2651 24-01-2017 17:25:00 0.1 C 4.44 g/m*3 0.1 C 0 km/h
2652 24-01-2017 17:30:00 0.1 C 4.44 g/m*3 0.1 C 0 km/h
2653 24-01-2017 17:35:00 0 C 4.41 g/m*3 0 C 0 km/h
2654 24-01-2017 17:40:00 0 C 4.41 g/m*3 0 C 1.6 km/h
2655 24-01-2017 17:45:00 0 C 4.41 g/m*3 0 C 0 km/h
2656 24-01-2017 17:50:00 0 C 4.41 g/m*3 0 C 1.6 km/h
2657 24-01-2017 17:55:00 0 C 4.41 g/m*3 0 C 1.6 km/h
2658 24-01-2017 18:00:00 0 C 4.41 g/m*3 0 C 0 km/h
2659 24-01-2017 18:05:00 0 C 4.41 g/m*3 0 C 0 km/h
2660 24-01-2017 18:10:00 0 C 4.41 g/m*3 0 C 1.6 km/h
2661 24-01-2017 18:15:00 0 C 4.36 g/m*3 0 C 1.6 km/h
2662 24-01-2017 18:20:00 0.1 C 4.39 g/m*3 0.1 C 1.6 km/h
2663 24-01-2017 18:25:00 0.1 C 4.39 g/m*3 0.1 C 0 km/h
2664 24-01-2017 18:30:00 0.1 C 4.39 g/m*3 0.1 C 3.2 km/h
2665 24-01-2017 18:35:00 0.1 C 4.34 g/m*3 0.1 C 1.6 km/h
2666 24-01-2017 18:40:00 0.1 C 4.39 g/m*3 0.1 C 0 km/h
2667 24-01-2017 18:45:00 0.1 C 4.39 g/m*3 0.1 C 0 km/h
2668 24-01-2017 18:50:00 0.1 C 4.39 g/m*3 0.1 C 3.2 km/h
2669 24-01-2017 18:55:00 0.1 C 4.34 g/m*3 0.1 C 1.6 km/h
2670 24-01-2017 19:00:00 0.1 C 4.34 g/m*3 0.1 C 1.6 km/h
2671 24-01-2017 19:05:00 0.1 C 4.29 g/m*3 0.1 C 4.8 km/h
2672 24-01-2017 19:10:00 0.2 C 4.32 g/m*3 0.2 C 3.2 km/h
2673 24-01-2017 19:15:00 0.2 C 4.32 g/m*3 0.2 C 1.6 km/h
2674 24-01-2017 19:20:00 0.2 C 4.32 g/m*3 0.2 C 1.6 km/h
2675 24-01-2017 19:25:00 0.2 C 4.37 g/m*3 0.2 C 0 km/h
Sensor: Nr:Datum:Temp:Abs-Feuchte:Windchill:Wind:
Aussen-T/F 2676 24-01-2017 19:30:00 0.2 C 4.32 g/m*3 0.2 C 0 km/h
2677 24-01-2017 19:35:00 0.1 C 4.29 g/m*3 -3.52 C 11.3 km/h
2678 24-01-2017 19:40:00 0.1 C 4.29 g/m*3 0.1 C 1.6 km/h
2679 24-01-2017 19:45:00 0.1 C 4.29 g/m*3 0.1 C 0 km/h
2680 24-01-2017 19:50:00 0.1 C 4.29 g/m*3 0.1 C 1.6 km/h
2681 24-01-2017 19:55:00 0.1 C 4.29 g/m*3 -2.07 C 6.4 km/h
2682 24-01-2017 20:00:00 0.1 C 4.29 g/m*3 0.1 C 1.6 km/h
2683 24-01-2017 20:05:00 0.1 C 4.29 g/m*3 0.1 C 1.6 km/h
2684 24-01-2017 20:10:00 0.1 C 4.24 g/m*3 0.1 C 1.6 km/h
2685 24-01-2017 20:15:00 0.1 C 4.24 g/m*3 -2.65 C 8.1 km/h
2686 24-01-2017 20:20:00 0.1 C 4.24 g/m*3 0.1 C 1.6 km/h
2687 24-01-2017 20:25:00 0.1 C 4.29 g/m*3 0.1 C 0 km/h
2688 24-01-2017 20:30:00 0 C 4.22 g/m*3 0 C 3.2 km/h
2689 24-01-2017 20:35:00 0 C 4.22 g/m*3 0 C 0 km/h
2690 24-01-2017 20:40:00 0 C 4.22 g/m*3 0 C 3.2 km/h
2691 24-01-2017 20:45:00 0 C 4.26 g/m*3 0 C 0 km/h
2692 24-01-2017 20:50:00 -0.1 C 4.23 g/m*3 -0.1 C 0 km/h
2693 24-01-2017 20:55:00 -0.1 C 4.23 g/m*3 -2.3 C 6.4 km/h
2694 24-01-2017 21:00:00 -0.1 C 4.23 g/m*3 -0.1 C 0 km/h
2695 24-01-2017 21:05:00 -0.2 C 4.21 g/m*3 -0.2 C 0 km/h
2696 24-01-2017 21:10:00 -0.2 C 4.25 g/m*3 -0.2 C 0 km/h
2697 24-01-2017 21:15:00 -0.2 C 4.25 g/m*3 -0.2 C 0 km/h
2698 24-01-2017 21:20:00 -0.2 C 4.25 g/m*3 -0.2 C 0 km/h
2699 24-01-2017 21:25:00 -0.3 C 4.22 g/m*3 -0.3 C 0 km/h
2700 24-01-2017 21:30:00 -0.3 C 4.22 g/m*3 -3.59 C 9.7 km/h
Sensor: Nr:Datum:Temp:Abs-Feuchte:Windchill:Wind:
Aussen-T/F 2701 24-01-2017 21:35:00 -0.3 C 4.22 g/m*3 -3.59 C 9.7 km/h
2702 24-01-2017 21:40:00 -0.2 C 4.21 g/m*3 -3 C 8.1 km/h
2703 24-01-2017 21:45:00 -0.2 C 4.21 g/m*3 -0.2 C 4.8 km/h
2704 24-01-2017 21:50:00 -0.2 C 4.21 g/m*3 -0.2 C 0 km/h
2705 24-01-2017 21:55:00 -0.2 C 4.21 g/m*3 -0.2 C 0 km/h
2706 24-01-2017 22:00:00 -0.2 C 4.25 g/m*3 -0.2 C 0 km/h
2707 24-01-2017 22:05:00 -0.3 C 4.22 g/m*3 -0.3 C 0 km/h
2708 24-01-2017 22:10:00 -0.3 C 4.22 g/m*3 -0.3 C 1.6 km/h
2709 24-01-2017 22:15:00 -0.3 C 4.22 g/m*3 -0.3 C 3.2 km/h
2710 24-01-2017 22:20:00 -0.3 C 4.22 g/m*3 -0.3 C 0 km/h
2711 24-01-2017 22:25:00 -0.3 C 4.22 g/m*3 -0.3 C 0 km/h
2712 24-01-2017 22:30:00 -0.4 C 4.19 g/m*3 -0.4 C 0 km/h
2713 24-01-2017 22:35:00 -0.4 C 4.24 g/m*3 -0.4 C 0 km/h
2714 24-01-2017 22:40:00 -0.4 C 4.24 g/m*3 -0.4 C 0 km/h
2715 24-01-2017 22:45:00 -0.4 C 4.24 g/m*3 -0.4 C 0 km/h
2716 24-01-2017 22:50:00 -0.5 C 4.21 g/m*3 -0.5 C 0 km/h
2717 24-01-2017 22:55:00 -0.5 C 4.21 g/m*3 -0.5 C 1.6 km/h
2718 24-01-2017 23:00:00 -0.4 C 4.19 g/m*3 -2.64 C 6.4 km/h
2719 24-01-2017 23:05:00 -0.4 C 4.19 g/m*3 -0.4 C 0 km/h
2720 24-01-2017 23:10:00 -0.4 C 4.19 g/m*3 -0.4 C 0 km/h
2721 24-01-2017 23:15:00 -0.4 C 4.19 g/m*3 -0.4 C 0 km/h
2722 24-01-2017 23:20:00 -0.4 C 4.19 g/m*3 -0.4 C 0 km/h
2723 24-01-2017 23:25:00 -0.4 C 4.24 g/m*3 -0.4 C 0 km/h
2724 24-01-2017 23:30:00 -0.4 C 4.19 g/m*3 -2.64 C 6.4 km/h
2725 24-01-2017 23:35:00 -0.4 C 4.19 g/m*3 -0.4 C 3.2 km/h
Sensor: Nr:Datum:Temp:Abs-Feuchte:Windchill:Wind:
Aussen-T/F 2726 24-01-2017 23:40:00 -0.4 C 4.19 g/m*3 -0.4 C 0 km/h
2727 24-01-2017 23:45:00 -0.4 C 4.19 g/m*3 -0.4 C 3.2 km/h
2728 24-01-2017 23:50:00 -0.4 C 4.15 g/m*3 -2.64 C 6.4 km/h
2729 24-01-2017 23:55:00 -0.4 C 4.15 g/m*3 -0.4 C 1.6 km/h
2730 25-01-2017 00:00:00 -0.4 C 4.15 g/m*3 -0.4 C 4.8 km/h
2731 25-01-2017 00:05:00 -0.4 C 4.15 g/m*3 -0.4 C 3.2 km/h
2732 25-01-2017 00:10:00 -0.3 C 4.18 g/m*3 -0.3 C 4.8 km/h
2733 25-01-2017 00:15:00 -0.4 C 4.15 g/m*3 -3.24 C 8.1 km/h
2734 25-01-2017 00:20:00 -0.4 C 4.1 g/m*3 -3.24 C 8.1 km/h
2735 25-01-2017 00:25:00 -0.4 C 4.15 g/m*3 -0.4 C 3.2 km/h
2736 25-01-2017 00:30:00 -0.4 C 4.1 g/m*3 -0.4 C 4.8 km/h
2737 25-01-2017 00:35:00 -0.4 C 4.15 g/m*3 -0.4 C 3.2 km/h
2738 25-01-2017 00:40:00 -0.5 C 4.07 g/m*3 -0.5 C 4.8 km/h
2739 25-01-2017 00:45:00 -0.5 C 4.07 g/m*3 -0.5 C 4.8 km/h
2740 25-01-2017 00:50:00 -0.5 C 4.12 g/m*3 -0.5 C 1.6 km/h
2741 25-01-2017 00:55:00 -0.5 C 4.12 g/m*3 -2.76 C 6.4 km/h
2742 25-01-2017 01:00:00 -0.6 C 4.09 g/m*3 -0.6 C 0 km/h
2743 25-01-2017 01:05:00 -0.6 C 4.09 g/m*3 -0.6 C 3.2 km/h
2744 25-01-2017 01:10:00 -0.6 C 4.09 g/m*3 -0.6 C 0 km/h
2745 25-01-2017 01:15:00 -0.6 C 4.09 g/m*3 -0.6 C 0 km/h
2746 25-01-2017 01:20:00 -0.6 C 4.14 g/m*3 -0.6 C 1.6 km/h
2747 25-01-2017 01:25:00 -0.7 C 4.11 g/m*3 -0.7 C 0 km/h
2748 25-01-2017 01:30:00 -0.7 C 4.11 g/m*3 -0.7 C 0 km/h
2749 25-01-2017 01:35:00 -0.7 C 4.11 g/m*3 -0.7 C 0 km/h
2750 25-01-2017 01:40:00 -0.7 C 4.11 g/m*3 -0.7 C 0 km/h
Sensor: Nr:Datum:Temp:Abs-Feuchte:Windchill:Wind:
Aussen-T/F 2751 25-01-2017 01:45:00 -0.7 C 4.11 g/m*3 -0.7 C 0 km/h
2752 25-01-2017 01:50:00 -0.8 C 4.08 g/m*3 -0.8 C 0 km/h
2753 25-01-2017 01:55:00 -0.8 C 4.08 g/m*3 -0.8 C 3.2 km/h
2754 25-01-2017 02:00:00 -0.8 C 4.03 g/m*3 -3.71 C 8.1 km/h
2755 25-01-2017 02:05:00 -0.8 C 4.03 g/m*3 -3.11 C 6.4 km/h
2756 25-01-2017 02:10:00 -0.8 C 4.08 g/m*3 -0.8 C 4.8 km/h
2757 25-01-2017 02:15:00 -0.8 C 4.08 g/m*3 -0.8 C 4.8 km/h
2758 25-01-2017 02:20:00 -0.8 C 4.03 g/m*3 -3.11 C 6.4 km/h
2759 25-01-2017 02:25:00 -0.8 C 4.08 g/m*3 -0.8 C 0 km/h
2760 25-01-2017 02:30:00 -0.8 C 4.08 g/m*3 -0.8 C 1.6 km/h
2761 25-01-2017 02:35:00 -0.8 C 4.08 g/m*3 -3.11 C 6.4 km/h
2762 25-01-2017 02:40:00 -0.8 C 4.08 g/m*3 -0.8 C 3.2 km/h
2763 25-01-2017 02:45:00 -0.9 C 4.01 g/m*3 -0.9 C 0 km/h
2764 25-01-2017 02:50:00 -0.9 C 4.01 g/m*3 -0.9 C 4.8 km/h
2765 25-01-2017 02:55:00 -0.9 C 4.01 g/m*3 -0.9 C 3.2 km/h
2766 25-01-2017 03:00:00 -1 C 3.98 g/m*3 -1 C 4.8 km/h
2767 25-01-2017 03:05:00 -1 C 3.98 g/m*3 -3.34 C 6.4 km/h
2768 25-01-2017 03:10:00 -1.1 C 3.91 g/m*3 -3.45 C 6.4 km/h
2769 25-01-2017 03:15:00 -1.2 C 3.88 g/m*3 -1.2 C 1.6 km/h
2770 25-01-2017 03:20:00 -1.2 C 3.88 g/m*3 -1.2 C 0 km/h
2771 25-01-2017 03:25:00 -1.3 C 3.85 g/m*3 -1.3 C 4.8 km/h
2772 25-01-2017 03:30:00 -1.3 C 3.85 g/m*3 -1.3 C 4.8 km/h
2773 25-01-2017 03:35:00 -1.3 C 3.85 g/m*3 -1.3 C 3.2 km/h
2774 25-01-2017 03:40:00 -1.4 C 3.82 g/m*3 -1.4 C 3.2 km/h
2775 25-01-2017 03:45:00 -1.4 C 3.82 g/m*3 -1.4 C 1.6 km/h
Sensor: Nr:Datum:Temp:Abs-Feuchte:Windchill:Wind:
Aussen-T/F 2776 25-01-2017 03:50:00 -1.4 C 3.82 g/m*3 -1.4 C 4.8 km/h
2777 25-01-2017 03:55:00 -1.5 C 3.8 g/m*3 -3.91 C 6.4 km/h
2778 25-01-2017 04:00:00 -1.6 C 3.73 g/m*3 -1.6 C 3.2 km/h
2779 25-01-2017 04:05:00 -1.6 C 3.73 g/m*3 -4.65 C 8.1 km/h
2780 25-01-2017 04:10:00 -1.6 C 3.73 g/m*3 -5.57 C 11.3 km/h
2781 25-01-2017 04:15:00 -1.7 C 3.7 g/m*3 -1.7 C 3.2 km/h
2782 25-01-2017 04:20:00 -1.7 C 3.7 g/m*3 -1.7 C 1.6 km/h
2783 25-01-2017 04:25:00 -1.7 C 3.7 g/m*3 -1.7 C 4.8 km/h
2784 25-01-2017 04:30:00 -1.7 C 3.7 g/m*3 -1.7 C 1.6 km/h
2785 25-01-2017 04:35:00 -1.7 C 3.7 g/m*3 -1.7 C 1.6 km/h
2786 25-01-2017 04:40:00 -1.8 C 3.68 g/m*3 -1.8 C 4.8 km/h
2787 25-01-2017 04:45:00 -1.8 C 3.63 g/m*3 -1.8 C 1.6 km/h
2788 25-01-2017 04:50:00 -1.8 C 3.68 g/m*3 -1.8 C 0 km/h
2789 25-01-2017 04:55:00 -1.8 C 3.68 g/m*3 -1.8 C 3.2 km/h
2790 25-01-2017 05:00:00 -1.8 C 3.63 g/m*3 -4.26 C 6.4 km/h
2791 25-01-2017 05:05:00 -1.8 C 3.59 g/m*3 -5.81 C 11.3 km/h
2792 25-01-2017 05:10:00 -1.8 C 3.63 g/m*3 -4.89 C 8.1 km/h
2793 25-01-2017 05:15:00 -1.8 C 3.63 g/m*3 -1.8 C 1.6 km/h
2794 25-01-2017 05:20:00 -1.8 C 3.63 g/m*3 -1.8 C 1.6 km/h
2795 25-01-2017 05:25:00 -1.8 C 3.63 g/m*3 -1.8 C 4.8 km/h
2796 25-01-2017 05:30:00 -1.8 C 3.63 g/m*3 -1.8 C 0 km/h
2797 25-01-2017 05:35:00 -1.8 C 3.63 g/m*3 -1.8 C 1.6 km/h
2798 25-01-2017 05:40:00 -1.8 C 3.63 g/m*3 -1.8 C 1.6 km/h
2799 25-01-2017 05:45:00 -1.8 C 3.59 g/m*3 -4.26 C 6.4 km/h
2800 25-01-2017 05:50:00 -1.8 C 3.59 g/m*3 -1.8 C 4.8 km/h
Sensor: Nr:Datum:Temp:Abs-Feuchte:Windchill:Wind:
Aussen-T/F 2801 25-01-2017 05:55:00 -1.8 C 3.63 g/m*3 -1.8 C 0 km/h
2802 25-01-2017 06:00:00 -1.9 C 3.57 g/m*3 -1.9 C 4.8 km/h
2803 25-01-2017 06:05:00 -1.9 C 3.57 g/m*3 -1.9 C 4.8 km/h
2804 25-01-2017 06:10:00 -1.9 C 3.52 g/m*3 -4.38 C 6.4 km/h
2805 25-01-2017 06:15:00 -1.9 C 3.52 g/m*3 -1.9 C 3.2 km/h
2806 25-01-2017 06:20:00 -1.9 C 3.52 g/m*3 -4.38 C 6.4 km/h
2807 25-01-2017 06:25:00 -1.9 C 3.52 g/m*3 -5 C 8.1 km/h
2808 25-01-2017 06:30:00 -1.9 C 3.52 g/m*3 -1.9 C 4.8 km/h
2809 25-01-2017 06:35:00 -1.9 C 3.52 g/m*3 -5 C 8.1 km/h
2810 25-01-2017 06:40:00 -1.9 C 3.52 g/m*3 -1.9 C 4.8 km/h
2811 25-01-2017 06:45:00 -2 C 3.54 g/m*3 -5.12 C 8.1 km/h
2812 25-01-2017 06:50:00 -2 C 3.54 g/m*3 -2 C 1.6 km/h
2813 25-01-2017 06:55:00 -2 C 3.54 g/m*3 -4.49 C 6.4 km/h
2814 25-01-2017 07:00:00 -2.1 C 3.52 g/m*3 -2.1 C 4.8 km/h
2815 25-01-2017 07:05:00 -2.1 C 3.52 g/m*3 -2.1 C 4.8 km/h
2816 25-01-2017 07:10:00 -2.1 C 3.52 g/m*3 -5.74 C 9.7 km/h
2817 25-01-2017 07:15:00 -2.1 C 3.47 g/m*3 -6.17 C 11.3 km/h
2818 25-01-2017 07:20:00 -2.1 C 3.52 g/m*3 -2.1 C 3.2 km/h
2819 25-01-2017 07:25:00 -2.1 C 3.52 g/m*3 -4.61 C 6.4 km/h
2820 25-01-2017 07:30:00 -2.1 C 3.52 g/m*3 -2.1 C 3.2 km/h
2821 25-01-2017 07:35:00 -2.2 C 3.49 g/m*3 -2.2 C 0 km/h
2822 25-01-2017 07:40:00 -2.2 C 3.49 g/m*3 -2.2 C 0 km/h
2823 25-01-2017 07:45:00 -2.2 C 3.49 g/m*3 -2.2 C 1.6 km/h
2824 25-01-2017 07:50:00 -2.2 C 3.49 g/m*3 -4.72 C 6.4 km/h
2825 25-01-2017 07:55:00 -2.2 C 3.49 g/m*3 -2.2 C 3.2 km/h
Sensor: Nr:Datum:Temp:Abs-Feuchte:Windchill:Wind:
Aussen-T/F 2826 25-01-2017 08:00:00 -2.2 C 3.49 g/m*3 -2.2 C 3.2 km/h
2827 25-01-2017 08:05:00 -2.2 C 3.49 g/m*3 -2.2 C 0 km/h
2828 25-01-2017 08:10:00 -2.2 C 3.49 g/m*3 -2.2 C 1.6 km/h
2829 25-01-2017 08:15:00 -2.2 C 3.53 g/m*3 -2.2 C 0 km/h
2830 25-01-2017 08:20:00 -2.2 C 3.49 g/m*3 -2.2 C 3.2 km/h
2831 25-01-2017 08:25:00 -2.2 C 3.53 g/m*3 -2.2 C 1.6 km/h
2832 25-01-2017 08:30:00 -2.2 C 3.49 g/m*3 -2.2 C 0 km/h
2833 25-01-2017 08:35:00 -2.2 C 3.53 g/m*3 -2.2 C 0 km/h
2834 25-01-2017 08:40:00 -2.2 C 3.57 g/m*3 -2.2 C 0 km/h
2835 25-01-2017 08:45:00 -2.2 C 3.57 g/m*3 -2.2 C 0 km/h
2836 25-01-2017 08:50:00 -2.2 C 3.57 g/m*3 -2.2 C 0 km/h
2837 25-01-2017 08:55:00 -2.2 C 3.57 g/m*3 -2.2 C 0 km/h
2838 25-01-2017 09:00:00 -2.2 C 3.57 g/m*3 -2.2 C 0 km/h
2839 25-01-2017 09:05:00 -2.2 C 3.62 g/m*3 -2.2 C 0 km/h
2840 25-01-2017 09:10:00 -2.2 C 3.62 g/m*3 -2.2 C 0 km/h
2841 25-01-2017 09:15:00 -2.2 C 3.57 g/m*3 -2.2 C 0 km/h
2842 25-01-2017 09:20:00 -2.1 C 3.56 g/m*3 -2.1 C 0 km/h
2843 25-01-2017 09:25:00 -2.1 C 3.6 g/m*3 -2.1 C 0 km/h
2844 25-01-2017 09:30:00 -2.1 C 3.6 g/m*3 -2.1 C 0 km/h
2845 25-01-2017 09:35:00 -2 C 3.63 g/m*3 -2 C 0 km/h
2846 25-01-2017 09:40:00 -1.9 C 3.61 g/m*3 -1.9 C 1.6 km/h
2847 25-01-2017 09:45:00 -1.9 C 3.57 g/m*3 -1.9 C 0 km/h
2848 25-01-2017 09:50:00 -1.8 C 3.59 g/m*3 -1.8 C 1.6 km/h
2849 25-01-2017 09:55:00 -1.8 C 3.59 g/m*3 -1.8 C 3.2 km/h
2850 25-01-2017 10:00:00 -1.7 C 3.62 g/m*3 -5.69 C 11.3 km/h
Sensor: Nr:Datum:Temp:Abs-Feuchte:Windchill:Wind:
Aussen-T/F 2851 25-01-2017 10:05:00 -1.7 C 3.57 g/m*3 -1.7 C 4.8 km/h
2852 25-01-2017 10:10:00 -1.7 C 3.57 g/m*3 -1.7 C 1.6 km/h
2853 25-01-2017 10:15:00 -1.6 C 3.55 g/m*3 -4.65 C 8.1 km/h
2854 25-01-2017 10:20:00 -1.6 C 3.6 g/m*3 -1.6 C 4.8 km/h
2855 25-01-2017 10:25:00 -1.6 C 3.55 g/m*3 -1.6 C 4.8 km/h
2856 25-01-2017 10:30:00 -1.5 C 3.62 g/m*3 -1.5 C 4.8 km/h
2857 25-01-2017 10:35:00 -1.4 C 3.65 g/m*3 -1.4 C 4.8 km/h
2858 25-01-2017 10:40:00 -1.4 C 3.65 g/m*3 -1.4 C 0 km/h
2859 25-01-2017 10:45:00 -1.4 C 3.6 g/m*3 -1.4 C 4.8 km/h
2860 25-01-2017 10:50:00 -1.4 C 3.65 g/m*3 -1.4 C 4.8 km/h
2861 25-01-2017 10:55:00 -1.4 C 3.6 g/m*3 -1.4 C 4.8 km/h
2862 25-01-2017 11:00:00 -1.3 C 3.63 g/m*3 -3.68 C 6.4 km/h
2863 25-01-2017 11:05:00 -1.3 C 3.63 g/m*3 -1.3 C 4.8 km/h
2864 25-01-2017 11:10:00 -1.3 C 3.59 g/m*3 -1.3 C 4.8 km/h
2865 25-01-2017 11:15:00 -1.3 C 3.59 g/m*3 -3.68 C 6.4 km/h
2866 25-01-2017 11:20:00 -1.2 C 3.66 g/m*3 -1.2 C 3.2 km/h
2867 25-01-2017 11:25:00 -1.2 C 3.66 g/m*3 -1.2 C 1.6 km/h
2868 25-01-2017 11:30:00 -1.2 C 3.61 g/m*3 -1.2 C 1.6 km/h
2869 25-01-2017 11:35:00 -1.1 C 3.64 g/m*3 -1.1 C 4.8 km/h
2870 25-01-2017 11:40:00 -1.1 C 3.64 g/m*3 -1.1 C 3.2 km/h
2871 25-01-2017 11:45:00 -1.1 C 3.68 g/m*3 -1.1 C 3.2 km/h
2872 25-01-2017 11:50:00 -1 C 3.66 g/m*3 -1 C 3.2 km/h
2873 25-01-2017 11:55:00 -1 C 3.66 g/m*3 -3.34 C 6.4 km/h
2874 25-01-2017 12:00:00 -1 C 3.66 g/m*3 -1 C 4.8 km/h
2875 25-01-2017 12:05:00 -0.9 C 3.69 g/m*3 -0.9 C 1.6 km/h
Sensor: Nr:Datum:Temp:Abs-Feuchte:Windchill:Wind:
Aussen-T/F 2876 25-01-2017 12:10:00 -0.9 C 3.69 g/m*3 -0.9 C 4.8 km/h
2877 25-01-2017 12:15:00 -0.9 C 3.69 g/m*3 -3.22 C 6.4 km/h
2878 25-01-2017 12:20:00 -0.9 C 3.69 g/m*3 -3.83 C 8.1 km/h
2879 25-01-2017 12:25:00 -0.9 C 3.69 g/m*3 -3.83 C 8.1 km/h
2880 25-01-2017 12:30:00 -0.9 C 3.69 g/m*3 -3.83 C 8.1 km/h
2881 25-01-2017 12:35:00 -0.9 C 3.69 g/m*3 -0.9 C 4.8 km/h
2882 25-01-2017 12:40:00 -0.8 C 3.71 g/m*3 -0.8 C 3.2 km/h
2883 25-01-2017 12:45:00 -0.8 C 3.71 g/m*3 -0.8 C 4.8 km/h
2884 25-01-2017 12:50:00 -0.8 C 3.71 g/m*3 -0.8 C 1.6 km/h
2885 25-01-2017 12:55:00 -0.7 C 3.74 g/m*3 -0.7 C 4.8 km/h
2886 25-01-2017 13:00:00 -0.7 C 3.74 g/m*3 -0.7 C 4.8 km/h
2887 25-01-2017 13:05:00 -0.7 C 3.74 g/m*3 -0.7 C 1.6 km/h
2888 25-01-2017 13:10:00 -0.7 C 3.74 g/m*3 -2.99 C 6.4 km/h
2889 25-01-2017 13:15:00 -0.7 C 3.74 g/m*3 -0.7 C 4.8 km/h
2890 25-01-2017 13:20:00 -0.7 C 3.69 g/m*3 -2.99 C 6.4 km/h
2891 25-01-2017 13:25:00 -0.7 C 3.69 g/m*3 -3.59 C 8.1 km/h
2892 25-01-2017 13:30:00 -0.6 C 3.76 g/m*3 -2.88 C 6.4 km/h
2893 25-01-2017 13:35:00 -0.7 C 3.69 g/m*3 -0.7 C 3.2 km/h
2894 25-01-2017 13:40:00 -0.6 C 3.76 g/m*3 -3.48 C 8.1 km/h
2895 25-01-2017 13:45:00 -0.6 C 3.76 g/m*3 -0.6 C 0 km/h
2896 25-01-2017 13:50:00 -0.6 C 3.76 g/m*3 -2.88 C 6.4 km/h
2897 25-01-2017 13:55:00 -0.6 C 3.72 g/m*3 -3.95 C 9.7 km/h
2898 25-01-2017 14:00:00 -0.5 C 3.79 g/m*3 -2.76 C 6.4 km/h
2899 25-01-2017 14:05:00 -0.5 C 3.79 g/m*3 -2.76 C 6.4 km/h
2900 25-01-2017 14:10:00 -0.4 C 3.77 g/m*3 -4.81 C 14.5 km/h
Sensor: Nr:Datum:Temp:Abs-Feuchte:Windchill:Wind:
Aussen-T/F 2901 25-01-2017 14:15:00 -0.4 C 3.82 g/m*3 -3.24 C 8.1 km/h
2902 25-01-2017 14:20:00 -0.4 C 3.77 g/m*3 -0.4 C 4.8 km/h
2903 25-01-2017 14:25:00 -0.4 C 3.77 g/m*3 -2.64 C 6.4 km/h
2904 25-01-2017 14:30:00 -0.4 C 3.77 g/m*3 -3.71 C 9.7 km/h
2905 25-01-2017 14:35:00 -0.4 C 3.77 g/m*3 -2.64 C 6.4 km/h
2906 25-01-2017 14:40:00 -0.4 C 3.77 g/m*3 -3.24 C 8.1 km/h
2907 25-01-2017 14:45:00 -0.4 C 3.77 g/m*3 -3.71 C 9.7 km/h
2908 25-01-2017 14:50:00 -0.4 C 3.77 g/m*3 -0.4 C 3.2 km/h
2909 25-01-2017 14:55:00 -0.4 C 3.77 g/m*3 -2.64 C 6.4 km/h
2910 25-01-2017 15:00:00 -0.4 C 3.77 g/m*3 -4.12 C 11.3 km/h
2911 25-01-2017 15:05:00 -0.4 C 3.77 g/m*3 -0.4 C 0 km/h
2912 25-01-2017 15:10:00 -0.3 C 3.8 g/m*3 -0.3 C 1.6 km/h
2913 25-01-2017 15:15:00 -0.3 C 3.8 g/m*3 -0.3 C 4.8 km/h
2914 25-01-2017 15:20:00 -0.3 C 3.8 g/m*3 -0.3 C 1.6 km/h
2915 25-01-2017 15:25:00 -0.3 C 3.8 g/m*3 -2.53 C 6.4 km/h
2916 25-01-2017 15:30:00 -0.3 C 3.8 g/m*3 -0.3 C 4.8 km/h
2917 25-01-2017 15:35:00 -0.3 C 3.8 g/m*3 -2.53 C 6.4 km/h
2918 25-01-2017 15:40:00 -0.3 C 3.8 g/m*3 -0.3 C 3.2 km/h
2919 25-01-2017 15:45:00 -0.3 C 3.8 g/m*3 -0.3 C 4.8 km/h
2920 25-01-2017 15:50:00 -0.3 C 3.8 g/m*3 -0.3 C 3.2 km/h
2921 25-01-2017 15:55:00 -0.3 C 3.8 g/m*3 -0.3 C 0 km/h
2922 25-01-2017 16:00:00 -0.3 C 3.84 g/m*3 -0.3 C 0 km/h
2923 25-01-2017 16:05:00 -0.3 C 3.8 g/m*3 -0.3 C 3.2 km/h
2924 25-01-2017 16:10:00 -0.3 C 3.8 g/m*3 -0.3 C 3.2 km/h
2925 25-01-2017 16:15:00 -0.4 C 3.72 g/m*3 -0.4 C 4.8 km/h
Sensor: Nr:Datum:Temp:Abs-Feuchte:Windchill:Wind:
Aussen-T/F 2926 25-01-2017 16:20:00 -0.4 C 3.77 g/m*3 -3.71 C 9.7 km/h
2927 25-01-2017 16:25:00 -0.4 C 3.77 g/m*3 -0.4 C 4.8 km/h
2928 25-01-2017 16:30:00 -0.4 C 3.77 g/m*3 -0.4 C 1.6 km/h
2929 25-01-2017 16:35:00 -0.4 C 3.77 g/m*3 -2.64 C 6.4 km/h
2930 25-01-2017 16:40:00 -0.4 C 3.82 g/m*3 -0.4 C 3.2 km/h
2931 25-01-2017 16:45:00 -0.5 C 3.74 g/m*3 -0.5 C 4.8 km/h
2932 25-01-2017 16:50:00 -0.5 C 3.74 g/m*3 -0.5 C 3.2 km/h
2933 25-01-2017 16:55:00 -0.5 C 3.79 g/m*3 -0.5 C 1.6 km/h
2934 25-01-2017 17:00:00 -0.6 C 3.76 g/m*3 -0.6 C 3.2 km/h
2935 25-01-2017 17:05:00 -0.6 C 3.76 g/m*3 -0.6 C 4.8 km/h
2936 25-01-2017 17:10:00 -0.6 C 3.72 g/m*3 -0.6 C 3.2 km/h
2937 25-01-2017 17:15:00 -0.6 C 3.72 g/m*3 -0.6 C 4.8 km/h
2938 25-01-2017 17:20:00 -0.6 C 3.76 g/m*3 -0.6 C 1.6 km/h
2939 25-01-2017 17:25:00 -0.7 C 3.74 g/m*3 -2.99 C 6.4 km/h
2940 25-01-2017 17:30:00 -0.7 C 3.74 g/m*3 -0.7 C 1.6 km/h
2941 25-01-2017 17:35:00 -0.7 C 3.74 g/m*3 -0.7 C 0 km/h
2942 25-01-2017 17:40:00 -0.7 C 3.78 g/m*3 -0.7 C 3.2 km/h
2943 25-01-2017 17:45:00 -0.7 C 3.78 g/m*3 -0.7 C 1.6 km/h
2944 25-01-2017 17:50:00 -0.7 C 3.83 g/m*3 -0.7 C 0 km/h
2945 25-01-2017 17:55:00 -0.8 C 3.76 g/m*3 -0.8 C 3.2 km/h
2946 25-01-2017 18:00:00 -0.8 C 3.8 g/m*3 -0.8 C 0 km/h
2947 25-01-2017 18:05:00 -0.8 C 3.85 g/m*3 -0.8 C 0 km/h
2948 25-01-2017 18:10:00 -0.8 C 3.85 g/m*3 -0.8 C 0 km/h
2949 25-01-2017 18:15:00 -0.9 C 3.82 g/m*3 -0.9 C 0 km/h
2950 25-01-2017 18:20:00 -0.9 C 3.82 g/m*3 -0.9 C 0 km/h
Sensor: Nr:Datum:Temp:Abs-Feuchte:Windchill:Wind:
Aussen-T/F 2951 25-01-2017 18:25:00 -0.9 C 3.87 g/m*3 -0.9 C 0 km/h
2952 25-01-2017 18:30:00 -1 C 3.84 g/m*3 -1 C 1.6 km/h
2953 25-01-2017 18:35:00 -1 C 3.84 g/m*3 -1 C 0 km/h
2954 25-01-2017 18:40:00 -1.1 C 3.77 g/m*3 -1.1 C 4.8 km/h
2955 25-01-2017 18:45:00 -1 C 3.75 g/m*3 -1 C 4.8 km/h
2956 25-01-2017 18:50:00 -0.9 C 3.78 g/m*3 -0.9 C 3.2 km/h
2957 25-01-2017 18:55:00 -0.9 C 3.73 g/m*3 -0.9 C 4.8 km/h
2958 25-01-2017 19:00:00 -0.9 C 3.73 g/m*3 -3.22 C 6.4 km/h
2959 25-01-2017 19:05:00 -0.9 C 3.73 g/m*3 -3.83 C 8.1 km/h
2960 25-01-2017 19:10:00 -0.9 C 3.73 g/m*3 -0.9 C 4.8 km/h
2961 25-01-2017 19:15:00 -0.9 C 3.73 g/m*3 -0.9 C 4.8 km/h
2962 25-01-2017 19:20:00 -0.9 C 3.73 g/m*3 -0.9 C 3.2 km/h
2963 25-01-2017 19:25:00 -0.9 C 3.69 g/m*3 -3.83 C 8.1 km/h
2964 25-01-2017 19:30:00 -0.9 C 3.69 g/m*3 -0.9 C 1.6 km/h
2965 25-01-2017 19:35:00 -0.9 C 3.69 g/m*3 -0.9 C 3.2 km/h
2966 25-01-2017 19:40:00 -1 C 3.66 g/m*3 -1 C 3.2 km/h
2967 25-01-2017 19:45:00 -1 C 3.75 g/m*3 -1 C 1.6 km/h
2968 25-01-2017 19:50:00 -1.1 C 3.68 g/m*3 -1.1 C 3.2 km/h
2969 25-01-2017 19:55:00 -1 C 3.66 g/m*3 -1 C 4.8 km/h
2970 25-01-2017 20:00:00 -1 C 3.66 g/m*3 -1 C 3.2 km/h
2971 25-01-2017 20:05:00 -1 C 3.75 g/m*3 -1 C 1.6 km/h
2972 25-01-2017 20:10:00 -1 C 3.75 g/m*3 -1 C 3.2 km/h
2973 25-01-2017 20:15:00 -1.1 C 3.73 g/m*3 -1.1 C 0 km/h
2974 25-01-2017 20:20:00 -1.1 C 3.68 g/m*3 -1.1 C 0 km/h
2975 25-01-2017 20:25:00 -1.1 C 3.68 g/m*3 -3.45 C 6.4 km/h
Sensor: Nr:Datum:Temp:Abs-Feuchte:Windchill:Wind:
Aussen-T/F 2976 25-01-2017 20:30:00 -1.1 C 3.68 g/m*3 -1.1 C 3.2 km/h
2977 25-01-2017 20:35:00 -1.1 C 3.73 g/m*3 -1.1 C 4.8 km/h
2978 25-01-2017 20:40:00 -1.1 C 3.68 g/m*3 -1.1 C 3.2 km/h
2979 25-01-2017 20:45:00 -1.1 C 3.73 g/m*3 -1.1 C 1.6 km/h
2980 25-01-2017 20:50:00 -1.1 C 3.73 g/m*3 -1.1 C 0 km/h
2981 25-01-2017 20:55:00 -1.1 C 3.68 g/m*3 -1.1 C 3.2 km/h
2982 25-01-2017 21:00:00 -1.1 C 3.68 g/m*3 -4.97 C 11.3 km/h
2983 25-01-2017 21:05:00 -1.1 C 3.68 g/m*3 -1.1 C 0 km/h
2984 25-01-2017 21:10:00 -1.1 C 3.73 g/m*3 -1.1 C 0 km/h
2985 25-01-2017 21:15:00 -1.1 C 3.73 g/m*3 -1.1 C 0 km/h
2986 25-01-2017 21:20:00 -1.1 C 3.77 g/m*3 -1.1 C 0 km/h
2987 25-01-2017 21:25:00 -1.1 C 3.77 g/m*3 -1.1 C 0 km/h
2988 25-01-2017 21:30:00 -1.2 C 3.74 g/m*3 -1.2 C 0 km/h
2989 25-01-2017 21:35:00 -1.2 C 3.74 g/m*3 -1.2 C 3.2 km/h
2990 25-01-2017 21:40:00 -1.2 C 3.79 g/m*3 -1.2 C 0 km/h
2991 25-01-2017 21:45:00 -1.2 C 3.79 g/m*3 -1.2 C 3.2 km/h
2992 25-01-2017 21:50:00 -1.3 C 3.76 g/m*3 -1.3 C 0 km/h
2993 25-01-2017 21:55:00 -1.3 C 3.76 g/m*3 -1.3 C 0 km/h
2994 25-01-2017 22:00:00 -1.3 C 3.76 g/m*3 -1.3 C 0 km/h
2995 25-01-2017 22:05:00 -1.3 C 3.76 g/m*3 -1.3 C 0 km/h
2996 25-01-2017 22:10:00 -1.4 C 3.78 g/m*3 -1.4 C 0 km/h
2997 25-01-2017 22:15:00 -1.4 C 3.74 g/m*3 -1.4 C 0 km/h
2998 25-01-2017 22:20:00 -1.4 C 3.78 g/m*3 -1.4 C 0 km/h
2999 25-01-2017 22:25:00 -1.4 C 3.78 g/m*3 -1.4 C 0 km/h
3000 25-01-2017 22:30:00 -1.5 C 3.75 g/m*3 -1.5 C 0 km/h
Sensor: Nr:Datum:Temp:Abs-Feuchte:Windchill:Wind:
Aussen-T/F 3001 25-01-2017 22:35:00 -1.5 C 3.75 g/m*3 -1.5 C 0 km/h
3002 25-01-2017 22:40:00 -1.5 C 3.75 g/m*3 -1.5 C 0 km/h
3003 25-01-2017 22:45:00 -1.5 C 3.75 g/m*3 -1.5 C 0 km/h
3004 25-01-2017 22:50:00 -1.5 C 3.75 g/m*3 -1.5 C 0 km/h
3005 25-01-2017 22:55:00 -1.4 C 3.78 g/m*3 -1.4 C 0 km/h
3006 25-01-2017 23:00:00 -1.4 C 3.78 g/m*3 -1.4 C 0 km/h
3007 25-01-2017 23:05:00 -1.4 C 3.82 g/m*3 -1.4 C 3.2 km/h
3008 25-01-2017 23:10:00 -1.4 C 3.78 g/m*3 -1.4 C 3.2 km/h
3009 25-01-2017 23:15:00 -1.4 C 3.78 g/m*3 -1.4 C 0 km/h
3010 25-01-2017 23:20:00 -1.5 C 3.75 g/m*3 -1.5 C 0 km/h
3011 25-01-2017 23:25:00 -1.5 C 3.75 g/m*3 -1.5 C 3.2 km/h
3012 25-01-2017 23:30:00 -1.6 C 3.73 g/m*3 -1.6 C 4.8 km/h
3013 25-01-2017 23:35:00 -1.5 C 3.75 g/m*3 -1.5 C 4.8 km/h
3014 25-01-2017 23:40:00 -1.5 C 3.71 g/m*3 -1.5 C 4.8 km/h
3015 25-01-2017 23:45:00 -1.4 C 3.74 g/m*3 -1.4 C 0 km/h
3016 25-01-2017 23:50:00 -1.4 C 3.74 g/m*3 -1.4 C 0 km/h
3017 25-01-2017 23:55:00 -1.4 C 3.78 g/m*3 -1.4 C 0 km/h
3018 26-01-2017 00:00:00 -1.4 C 3.78 g/m*3 -1.4 C 0 km/h
3019 26-01-2017 00:05:00 -1.4 C 3.78 g/m*3 -1.4 C 0 km/h
3020 26-01-2017 00:10:00 -1.4 C 3.74 g/m*3 -1.4 C 0 km/h
3021 26-01-2017 00:15:00 -1.4 C 3.74 g/m*3 -1.4 C 0 km/h
3022 26-01-2017 00:20:00 -1.4 C 3.74 g/m*3 -4.42 C 8.1 km/h
3023 26-01-2017 00:25:00 -1.3 C 3.67 g/m*3 -1.3 C 4.8 km/h
3024 26-01-2017 00:30:00 -1.2 C 3.66 g/m*3 -1.2 C 0 km/h
3025 26-01-2017 00:35:00 -1.2 C 3.7 g/m*3 -1.2 C 1.6 km/h
Sensor: Nr:Datum:Temp:Abs-Feuchte:Windchill:Wind:
Aussen-T/F 3026 26-01-2017 00:40:00 -1.1 C 3.73 g/m*3 -1.1 C 1.6 km/h
3027 26-01-2017 00:45:00 -1.1 C 3.68 g/m*3 -1.1 C 1.6 km/h
3028 26-01-2017 00:50:00 -1.1 C 3.68 g/m*3 -1.1 C 0 km/h
3029 26-01-2017 00:55:00 -1.2 C 3.7 g/m*3 -3.57 C 6.4 km/h
3030 26-01-2017 01:00:00 -1.1 C 3.68 g/m*3 -4.55 C 9.7 km/h
3031 26-01-2017 01:05:00 -1 C 3.66 g/m*3 -1 C 3.2 km/h
3032 26-01-2017 01:10:00 -1 C 3.66 g/m*3 -1 C 3.2 km/h
3033 26-01-2017 01:15:00 -1.1 C 3.68 g/m*3 -1.1 C 0 km/h
3034 26-01-2017 01:20:00 -1.3 C 3.63 g/m*3 -4.78 C 9.7 km/h
3035 26-01-2017 01:25:00 -1.4 C 3.6 g/m*3 -1.4 C 4.8 km/h
3036 26-01-2017 01:30:00 -1.6 C 3.6 g/m*3 -1.6 C 0 km/h
3037 26-01-2017 01:35:00 -1.7 C 3.57 g/m*3 -1.7 C 3.2 km/h
3038 26-01-2017 01:40:00 -1.8 C 3.59 g/m*3 -1.8 C 0 km/h
3039 26-01-2017 01:45:00 -1.9 C 3.57 g/m*3 -1.9 C 0 km/h
3040 26-01-2017 01:50:00 -2 C 3.58 g/m*3 -2 C 0 km/h
3041 26-01-2017 01:55:00 -2.1 C 3.6 g/m*3 -2.1 C 0 km/h
3042 26-01-2017 02:00:00 -2.1 C 3.6 g/m*3 -2.1 C 0 km/h
3043 26-01-2017 02:05:00 -2.1 C 3.64 g/m*3 -2.1 C 0 km/h
3044 26-01-2017 02:10:00 -2.1 C 3.64 g/m*3 -2.1 C 1.6 km/h
3045 26-01-2017 02:15:00 -2 C 3.63 g/m*3 -4.49 C 6.4 km/h
3046 26-01-2017 02:20:00 -1.9 C 3.65 g/m*3 -1.9 C 4.8 km/h
3047 26-01-2017 02:25:00 -1.9 C 3.65 g/m*3 -1.9 C 0 km/h
3048 26-01-2017 02:30:00 -1.9 C 3.65 g/m*3 -1.9 C 0 km/h
3049 26-01-2017 02:35:00 -2 C 3.63 g/m*3 -2 C 0 km/h
3050 26-01-2017 02:40:00 -2.1 C 3.6 g/m*3 -2.1 C 1.6 km/h
Sensor: Nr:Datum:Temp:Abs-Feuchte:Windchill:Wind:
Aussen-T/F 3051 26-01-2017 02:45:00 -2.1 C 3.64 g/m*3 -2.1 C 3.2 km/h
3052 26-01-2017 02:50:00 -2.1 C 3.64 g/m*3 -2.1 C 0 km/h
3053 26-01-2017 02:55:00 -2.1 C 3.64 g/m*3 -2.1 C 3.2 km/h
3054 26-01-2017 03:00:00 -2.1 C 3.64 g/m*3 -2.1 C 0 km/h
3055 26-01-2017 03:05:00 -2.1 C 3.6 g/m*3 -2.1 C 0 km/h
3056 26-01-2017 03:10:00 -2.1 C 3.64 g/m*3 -2.1 C 0 km/h
3057 26-01-2017 03:15:00 -2.1 C 3.6 g/m*3 -4.61 C 6.4 km/h
3058 26-01-2017 03:20:00 -2 C 3.63 g/m*3 -2 C 0 km/h
3059 26-01-2017 03:25:00 -2 C 3.63 g/m*3 -2 C 0 km/h
3060 26-01-2017 03:30:00 -2 C 3.67 g/m*3 -2 C 0 km/h
3061 26-01-2017 03:35:00 -2 C 3.67 g/m*3 -2 C 0 km/h
3062 26-01-2017 03:40:00 -2 C 3.67 g/m*3 -2 C 0 km/h
3063 26-01-2017 03:45:00 -2 C 3.67 g/m*3 -2 C 3.2 km/h
3064 26-01-2017 03:50:00 -1.9 C 3.69 g/m*3 -1.9 C 3.2 km/h
3065 26-01-2017 03:55:00 -2 C 3.67 g/m*3 -2 C 1.6 km/h
3066 26-01-2017 04:00:00 -1.8 C 3.63 g/m*3 -5.38 C 9.7 km/h
3067 26-01-2017 04:05:00 -1.7 C 3.66 g/m*3 -1.7 C 1.6 km/h
3068 26-01-2017 04:10:00 -1.6 C 3.68 g/m*3 -1.6 C 1.6 km/h
3069 26-01-2017 04:15:00 -1.6 C 3.68 g/m*3 -1.6 C 4.8 km/h
3070 26-01-2017 04:20:00 -1.7 C 3.66 g/m*3 -1.7 C 0 km/h
3071 26-01-2017 04:25:00 -1.7 C 3.7 g/m*3 -1.7 C 1.6 km/h
3072 26-01-2017 04:30:00 -1.7 C 3.66 g/m*3 -1.7 C 4.8 km/h
3073 26-01-2017 04:35:00 -1.6 C 3.64 g/m*3 -1.6 C 4.8 km/h
3074 26-01-2017 04:40:00 -1.6 C 3.64 g/m*3 -1.6 C 4.8 km/h
3075 26-01-2017 04:45:00 -1.5 C 3.62 g/m*3 -3.91 C 6.4 km/h
Sensor: Nr:Datum:Temp:Abs-Feuchte:Windchill:Wind:
Aussen-T/F 3076 26-01-2017 04:50:00 -1.4 C 3.65 g/m*3 -1.4 C 4.8 km/h
3077 26-01-2017 04:55:00 -1.4 C 3.65 g/m*3 -1.4 C 1.6 km/h
3078 26-01-2017 05:00:00 -1.4 C 3.69 g/m*3 -1.4 C 1.6 km/h
3079 26-01-2017 05:05:00 -1.4 C 3.69 g/m*3 -1.4 C 3.2 km/h
3080 26-01-2017 05:10:00 -1.4 C 3.65 g/m*3 -1.4 C 4.8 km/h
3081 26-01-2017 05:15:00 -1.4 C 3.65 g/m*3 -1.4 C 4.8 km/h
3082 26-01-2017 05:20:00 -1.4 C 3.65 g/m*3 -1.4 C 4.8 km/h
3083 26-01-2017 05:25:00 -1.4 C 3.65 g/m*3 -1.4 C 3.2 km/h
3084 26-01-2017 05:30:00 -1.3 C 3.67 g/m*3 -1.3 C 4.8 km/h
3085 26-01-2017 05:35:00 -1.3 C 3.67 g/m*3 -1.3 C 3.2 km/h
3086 26-01-2017 05:40:00 -1.3 C 3.63 g/m*3 -1.3 C 4.8 km/h
3087 26-01-2017 05:45:00 -1.3 C 3.67 g/m*3 -1.3 C 0 km/h
3088 26-01-2017 05:50:00 -1.3 C 3.63 g/m*3 -1.3 C 3.2 km/h
3089 26-01-2017 05:55:00 -1.3 C 3.67 g/m*3 -1.3 C 0 km/h
3090 26-01-2017 06:00:00 -1.3 C 3.67 g/m*3 -1.3 C 1.6 km/h
3091 26-01-2017 06:05:00 -1.3 C 3.67 g/m*3 -1.3 C 3.2 km/h
3092 26-01-2017 06:10:00 -1.3 C 3.67 g/m*3 -1.3 C 3.2 km/h
3093 26-01-2017 06:15:00 -1.3 C 3.67 g/m*3 -1.3 C 1.6 km/h
3094 26-01-2017 06:20:00 -1.3 C 3.67 g/m*3 -1.3 C 3.2 km/h
3095 26-01-2017 06:25:00 -1.3 C 3.67 g/m*3 -1.3 C 1.6 km/h
3096 26-01-2017 06:30:00 -1.3 C 3.67 g/m*3 -1.3 C 0 km/h
3097 26-01-2017 06:35:00 -1.3 C 3.72 g/m*3 -1.3 C 0 km/h
3098 26-01-2017 06:40:00 -1.3 C 3.72 g/m*3 -1.3 C 4.8 km/h
3099 26-01-2017 06:45:00 -1.3 C 3.67 g/m*3 -1.3 C 4.8 km/h
3100 26-01-2017 06:50:00 -1.3 C 3.63 g/m*3 -1.3 C 4.8 km/h
Sensor: Nr:Datum:Temp:Abs-Feuchte:Windchill:Wind:
Aussen-T/F 3101 26-01-2017 06:55:00 -1.3 C 3.67 g/m*3 -1.3 C 1.6 km/h
3102 26-01-2017 07:00:00 -1.3 C 3.63 g/m*3 -1.3 C 4.8 km/h
3103 26-01-2017 07:05:00 -1.2 C 3.66 g/m*3 -1.2 C 4.8 km/h
3104 26-01-2017 07:10:00 -1.3 C 3.63 g/m*3 -3.68 C 6.4 km/h
3105 26-01-2017 07:15:00 -1.2 C 3.66 g/m*3 -1.2 C 3.2 km/h
3106 26-01-2017 07:20:00 -1.2 C 3.66 g/m*3 -1.2 C 3.2 km/h
3107 26-01-2017 07:25:00 -1.3 C 3.67 g/m*3 -1.3 C 3.2 km/h
3108 26-01-2017 07:30:00 -1.3 C 3.67 g/m*3 -1.3 C 0 km/h
3109 26-01-2017 07:35:00 -1.3 C 3.67 g/m*3 -1.3 C 1.6 km/h
3110 26-01-2017 07:40:00 -1.4 C 3.65 g/m*3 -1.4 C 1.6 km/h
3111 26-01-2017 07:45:00 -1.4 C 3.65 g/m*3 -1.4 C 4.8 km/h
3112 26-01-2017 07:50:00 -1.4 C 3.65 g/m*3 -1.4 C 1.6 km/h
3113 26-01-2017 07:55:00 -1.4 C 3.65 g/m*3 -1.4 C 4.8 km/h
3114 26-01-2017 08:00:00 -1.5 C 3.62 g/m*3 -1.5 C 1.6 km/h
3115 26-01-2017 08:05:00 -1.5 C 3.62 g/m*3 -1.5 C 4.8 km/h
3116 26-01-2017 08:10:00 -1.5 C 3.62 g/m*3 -1.5 C 3.2 km/h
3117 26-01-2017 08:15:00 -1.5 C 3.62 g/m*3 -1.5 C 3.2 km/h
3118 26-01-2017 08:20:00 -1.5 C 3.62 g/m*3 -1.5 C 1.6 km/h
3119 26-01-2017 08:25:00 -1.5 C 3.67 g/m*3 -1.5 C 1.6 km/h
3120 26-01-2017 08:30:00 -1.5 C 3.67 g/m*3 -1.5 C 0 km/h
3121 26-01-2017 08:35:00 -1.5 C 3.67 g/m*3 -1.5 C 0 km/h
3122 26-01-2017 08:40:00 -1.5 C 3.67 g/m*3 -1.5 C 0 km/h
3123 26-01-2017 08:45:00 -1.5 C 3.71 g/m*3 -1.5 C 0 km/h
3124 26-01-2017 08:50:00 -1.5 C 3.71 g/m*3 -1.5 C 0 km/h
3125 26-01-2017 08:55:00 -1.6 C 3.68 g/m*3 -1.6 C 1.6 km/h
Sensor: Nr:Datum:Temp:Abs-Feuchte:Windchill:Wind:
Aussen-T/F 3126 26-01-2017 09:00:00 -1.5 C 3.71 g/m*3 -1.5 C 0 km/h
3127 26-01-2017 09:05:00 -1.5 C 3.71 g/m*3 -1.5 C 1.6 km/h
3128 26-01-2017 09:10:00 -1.4 C 3.74 g/m*3 -1.4 C 0 km/h
3129 26-01-2017 09:15:00 -1.4 C 3.69 g/m*3 -1.4 C 3.2 km/h
3130 26-01-2017 09:20:00 -1.3 C 3.72 g/m*3 -1.3 C 0 km/h
3131 26-01-2017 09:25:00 -1.3 C 3.72 g/m*3 -1.3 C 0 km/h
3132 26-01-2017 09:30:00 -1.2 C 3.7 g/m*3 -1.2 C 3.2 km/h
3133 26-01-2017 09:35:00 -1.1 C 3.68 g/m*3 -1.1 C 0 km/h
3134 26-01-2017 09:40:00 -1.1 C 3.68 g/m*3 -3.45 C 6.4 km/h
3135 26-01-2017 09:45:00 -1 C 3.71 g/m*3 -1 C 1.6 km/h
3136 26-01-2017 09:50:00 -0.9 C 3.73 g/m*3 -0.9 C 1.6 km/h
3137 26-01-2017 09:55:00 -0.9 C 3.69 g/m*3 -0.9 C 3.2 km/h
3138 26-01-2017 10:00:00 -0.9 C 3.69 g/m*3 -0.9 C 1.6 km/h
3139 26-01-2017 10:05:00 -0.8 C 3.71 g/m*3 -3.71 C 8.1 km/h
3140 26-01-2017 10:10:00 -0.8 C 3.67 g/m*3 -0.8 C 4.8 km/h
3141 26-01-2017 10:15:00 -0.8 C 3.67 g/m*3 -4.6 C 11.3 km/h
3142 26-01-2017 10:20:00 -0.7 C 3.69 g/m*3 -4.07 C 9.7 km/h
3143 26-01-2017 10:25:00 -0.7 C 3.65 g/m*3 -2.99 C 6.4 km/h
3144 26-01-2017 10:30:00 -0.7 C 3.69 g/m*3 -2.99 C 6.4 km/h
3145 26-01-2017 10:35:00 -0.7 C 3.69 g/m*3 -0.7 C 3.2 km/h
3146 26-01-2017 10:40:00 -0.6 C 3.72 g/m*3 -2.88 C 6.4 km/h
3147 26-01-2017 10:45:00 -0.6 C 3.72 g/m*3 -2.88 C 6.4 km/h
3148 26-01-2017 10:50:00 -0.5 C 3.74 g/m*3 -0.5 C 3.2 km/h
3149 26-01-2017 10:55:00 -0.4 C 3.72 g/m*3 -3.24 C 8.1 km/h
3150 26-01-2017 11:00:00 -0.4 C 3.72 g/m*3 -3.24 C 8.1 km/h
Sensor: Nr:Datum:Temp:Abs-Feuchte:Windchill:Wind:
Aussen-T/F 3151 26-01-2017 11:05:00 -0.4 C 3.68 g/m*3 -2.64 C 6.4 km/h
3152 26-01-2017 11:10:00 -0.4 C 3.68 g/m*3 -0.4 C 3.2 km/h
3153 26-01-2017 11:15:00 -0.4 C 3.68 g/m*3 -0.4 C 1.6 km/h
3154 26-01-2017 11:20:00 -0.3 C 3.7 g/m*3 -0.3 C 4.8 km/h
3155 26-01-2017 11:25:00 -0.3 C 3.7 g/m*3 -0.3 C 4.8 km/h
3156 26-01-2017 11:30:00 -0.4 C 3.68 g/m*3 -0.4 C 4.8 km/h
3157 26-01-2017 11:35:00 -0.4 C 3.68 g/m*3 -2.64 C 6.4 km/h
3158 26-01-2017 11:40:00 -0.4 C 3.68 g/m*3 -3.71 C 9.7 km/h
3159 26-01-2017 11:45:00 -0.4 C 3.68 g/m*3 -2.64 C 6.4 km/h
3160 26-01-2017 11:50:00 -0.4 C 3.72 g/m*3 -0.4 C 0 km/h
3161 26-01-2017 11:55:00 -0.4 C 3.68 g/m*3 -3.71 C 9.7 km/h
3162 26-01-2017 12:00:00 -0.4 C 3.68 g/m*3 -0.4 C 1.6 km/h
3163 26-01-2017 12:05:00 -0.4 C 3.68 g/m*3 -0.4 C 4.8 km/h
3164 26-01-2017 12:10:00 -0.4 C 3.68 g/m*3 -3.24 C 8.1 km/h
3165 26-01-2017 12:15:00 -0.4 C 3.68 g/m*3 -0.4 C 4.8 km/h
3166 26-01-2017 12:20:00 -0.4 C 3.68 g/m*3 -4.81 C 14.5 km/h
3167 26-01-2017 12:25:00 -0.4 C 3.68 g/m*3 -4.12 C 11.3 km/h
3168 26-01-2017 12:30:00 -0.3 C 3.7 g/m*3 -0.3 C 3.2 km/h
3169 26-01-2017 12:35:00 -0.3 C 3.7 g/m*3 -0.3 C 0 km/h
3170 26-01-2017 12:40:00 -0.3 C 3.7 g/m*3 -3.12 C 8.1 km/h
3171 26-01-2017 12:45:00 -0.3 C 3.7 g/m*3 -0.3 C 4.8 km/h
3172 26-01-2017 12:50:00 -0.2 C 3.68 g/m*3 -3.47 C 9.7 km/h
3173 26-01-2017 12:55:00 -0.2 C 3.68 g/m*3 -0.2 C 3.2 km/h
3174 26-01-2017 13:00:00 -0.1 C 3.75 g/m*3 -0.1 C 3.2 km/h
3175 26-01-2017 13:05:00 -0.1 C 3.75 g/m*3 -0.1 C 4.8 km/h
Sensor: Nr:Datum:Temp:Abs-Feuchte:Windchill:Wind:
Aussen-T/F 3176 26-01-2017 13:10:00 -0.1 C 3.71 g/m*3 -2.3 C 6.4 km/h
3177 26-01-2017 13:15:00 -0.1 C 3.71 g/m*3 -2.89 C 8.1 km/h
3178 26-01-2017 13:20:00 0.1 C 3.71 g/m*3 0.1 C 4.8 km/h
3179 26-01-2017 13:25:00 0.1 C 3.76 g/m*3 0.1 C 3.2 km/h
3180 26-01-2017 13:30:00 0.1 C 3.71 g/m*3 -2.07 C 6.4 km/h
3181 26-01-2017 13:35:00 0.2 C 3.73 g/m*3 0.2 C 0 km/h
3182 26-01-2017 13:40:00 0.2 C 3.78 g/m*3 0.2 C 0 km/h
3183 26-01-2017 13:45:00 0.1 C 3.76 g/m*3 0.1 C 4.8 km/h
3184 26-01-2017 13:50:00 0.2 C 3.78 g/m*3 0.2 C 3.2 km/h
3185 26-01-2017 13:55:00 0.3 C 3.81 g/m*3 0.3 C 3.2 km/h
3186 26-01-2017 14:00:00 0.2 C 3.78 g/m*3 0.2 C 1.6 km/h
3187 26-01-2017 14:05:00 0.3 C 3.81 g/m*3 0.3 C 4.8 km/h
3188 26-01-2017 14:10:00 0.3 C 3.86 g/m*3 0.3 C 1.6 km/h
3189 26-01-2017 14:15:00 0.1 C 3.85 g/m*3 0.1 C 0 km/h
3190 26-01-2017 14:20:00 0.1 C 3.85 g/m*3 0.1 C 3.2 km/h
3191 26-01-2017 14:25:00 -0.1 C 3.9 g/m*3 -0.1 C 1.6 km/h
3192 26-01-2017 14:30:00 -0.1 C 3.9 g/m*3 -0.1 C 0 km/h
3193 26-01-2017 14:35:00 -0.2 C 3.87 g/m*3 -0.2 C 3.2 km/h
3194 26-01-2017 14:40:00 -0.2 C 3.87 g/m*3 -0.2 C 0 km/h
3195 26-01-2017 14:45:00 -0.2 C 3.92 g/m*3 -0.2 C 0 km/h
3196 26-01-2017 14:50:00 -0.2 C 3.87 g/m*3 -0.2 C 3.2 km/h
3197 26-01-2017 14:55:00 -0.2 C 3.92 g/m*3 -0.2 C 0 km/h
3198 26-01-2017 15:00:00 -0.2 C 3.87 g/m*3 -0.2 C 3.2 km/h
3199 26-01-2017 15:05:00 -0.1 C 3.9 g/m*3 -0.1 C 0 km/h
3200 26-01-2017 15:10:00 -0.2 C 3.87 g/m*3 -0.2 C 0 km/h
Sensor: Nr:Datum:Temp:Abs-Feuchte:Windchill:Wind:
Aussen-T/F 3201 26-01-2017 15:15:00 -0.2 C 3.92 g/m*3 -0.2 C 1.6 km/h
3202 26-01-2017 15:20:00 -0.2 C 3.92 g/m*3 -2.41 C 6.4 km/h
3203 26-01-2017 15:25:00 -0.2 C 3.97 g/m*3 -0.2 C 3.2 km/h
3204 26-01-2017 15:30:00 -0.2 C 3.97 g/m*3 -0.2 C 4.8 km/h
3205 26-01-2017 15:35:00 -0.3 C 3.89 g/m*3 -0.3 C 0 km/h
3206 26-01-2017 15:40:00 -0.2 C 3.92 g/m*3 -0.2 C 0 km/h
3207 26-01-2017 15:45:00 -0.2 C 3.97 g/m*3 -0.2 C 3.2 km/h
3208 26-01-2017 15:50:00 -0.3 C 3.99 g/m*3 -0.3 C 3.2 km/h
3209 26-01-2017 15:55:00 -0.3 C 3.94 g/m*3 -0.3 C 3.2 km/h
3210 26-01-2017 16:00:00 -0.4 C 3.91 g/m*3 -0.4 C 3.2 km/h
3211 26-01-2017 16:05:00 -0.4 C 3.96 g/m*3 -0.4 C 3.2 km/h
3212 26-01-2017 16:10:00 -0.5 C 3.93 g/m*3 -0.5 C 4.8 km/h
3213 26-01-2017 16:15:00 -0.5 C 3.93 g/m*3 -0.5 C 3.2 km/h
3214 26-01-2017 16:20:00 -0.6 C 3.95 g/m*3 -0.6 C 1.6 km/h
3215 26-01-2017 16:25:00 -0.6 C 3.95 g/m*3 -0.6 C 4.8 km/h
3216 26-01-2017 16:30:00 -0.7 C 3.92 g/m*3 -0.7 C 4.8 km/h
3217 26-01-2017 16:35:00 -0.7 C 3.92 g/m*3 -0.7 C 4.8 km/h
3218 26-01-2017 16:40:00 -0.7 C 3.92 g/m*3 -0.7 C 4.8 km/h
3219 26-01-2017 16:45:00 -0.8 C 3.9 g/m*3 -0.8 C 0 km/h
3220 26-01-2017 16:50:00 -0.8 C 3.94 g/m*3 -3.11 C 6.4 km/h
3221 26-01-2017 16:55:00 -0.9 C 3.91 g/m*3 -3.22 C 6.4 km/h
3222 26-01-2017 17:00:00 -1 C 3.89 g/m*3 -3.34 C 6.4 km/h
3223 26-01-2017 17:05:00 -1.1 C 3.86 g/m*3